MPMG - Transparência

Contra-cheque - Valores recebidos por todos os colaboradores

Período: 2014 - Fevereiro

Ordem Matrícula Nome Cargo Efetivo Situação Unidade Administrativa Rendimentos Descontos Rendimento Líquido Total Indenizações Outras Remunerações Retroativas/Temporárias Data de Referência
Remuneração Básica Remuneração Eventual ou Temporária Total de Rendimentos Brutos Obrigatórios/Legais Total de Descontos
Remuneração do Cargo Efetivo Outras Verbas Remuneratórias Função de Confiança ou Cargo em Comissão Gratificação Natalina Férias Abono de Permanência Contribuição Previdenciária Imposto de Renda Retenção por Teto Constitucional
1 233500 ADAILTON BATISTA DA SILVA ESTAGIARIO ATIVO NOVO CRUZEIRO; NOVO CRUZEIRO - PJ ÚNICA 545,00 0,00 0,00 0,00 0,00 0,00 545,00 0,00 0,00 0,00 0,00 545,00 121,90 0,00 28/02/2014
2 323600 ADERMINSON APARECIDO DE ANDRADE ESTAGIARIO ATIVO RIBEIRAO DAS NEVES; RIBEIRAO DAS NEVES-01 PJ 545,00 0,00 0,00 0,00 0,00 0,00 545,00 0,00 0,00 0,00 0,00 545,00 42,40 0,00 28/02/2014
3 370700 ADRIANA CRISTINA FIALHO VIANA ESTAGIARIO ATIVO CONTAGEM; CONTAGEM-22 PJ 545,00 0,00 0,00 0,00 0,00 0,00 545,00 0,00 0,00 0,00 0,00 545,00 121,90 0,00 28/02/2014
4 364800 ADRIANA DINIZ SILVA ESTAGIARIO ATIVO PEDRO LEOPOLDO; PEDRO LEOPOLDO-01 PJ 545,00 0,00 0,00 0,00 0,00 0,00 545,00 0,00 0,00 0,00 0,00 545,00 121,90 0,00 28/02/2014
5 310700 ADRIANA FERNANDES SOARES ESTAGIARIO ATIVO PATOS DE MINAS; COORD REG BACIAS PARACATU,URUCUIA E ABAETE 545,00 0,00 0,00 0,00 0,00 0,00 545,00 0,00 0,00 0,00 0,00 545,00 121,90 0,00 28/02/2014
6 295100 ADRIANA GLAYCE SILVA ESTAGIARIO ATIVO CONTAGEM; CONTAGEM-06 PJ 545,00 0,00 0,00 0,00 0,00 0,00 545,00 0,00 0,00 0,00 0,00 545,00 121,90 0,00 28/02/2014
7 370600 ADRIANA RIBEIRO GARCIA DE FREITAS ESTAGIARIO ATIVO CARANDAI; CARANDAI - PJ ÚNICA 545,00 0,00 0,00 0,00 0,00 0,00 545,00 0,00 0,00 0,00 0,00 545,00 174,90 254,33 28/02/2014
8 318400 ADRIELLI MARQUES BRAIDOTTI ESTAGIARIO ATIVO POUSO ALEGRE; POUSO ALEGRE-08 PJ 545,00 0,00 0,00 0,00 0,00 0,00 545,00 0,00 0,00 0,00 0,00 545,00 121,90 0,00 28/02/2014
9 238900 ALAM VIANA FIGUEIREDO ESTAGIARIO ATIVO ITABIRA; ITABIRA-02 PJ 545,00 0,00 0,00 0,00 0,00 0,00 545,00 0,00 0,00 0,00 0,00 545,00 58,30 0,00 28/02/2014
10 332700 ALAN DINIZ GUEDES DE ORNELAS ESTAGIARIO ATIVO JOAO PINHEIRO; JOAO PINHEIRO-02 PJ 545,00 0,00 0,00 0,00 0,00 0,00 545,00 0,00 0,00 0,00 0,00 545,00 121,90 0,00 28/02/2014
11 364900 ALAN JUNIO TELES DE ARAUJO ESTAGIARIO ATIVO CONTAGEM; CONTAGEM-14 PJ 545,00 0,00 0,00 0,00 0,00 0,00 545,00 0,00 0,00 0,00 0,00 545,00 111,30 0,00 28/02/2014
12 360900 ALANA CAVALCANTE LISBOA ESTAGIARIO ATIVO TEOFILO OTONI; TEOFILO OTONI-08 PJ 545,00 0,00 0,00 0,00 0,00 0,00 545,00 0,00 0,00 0,00 0,00 545,00 121,90 0,00 28/02/2014
13 99 ALCIDES COSTA DELEGADO DE POLICIA 1 ATIVO BELO HORIZONTE - COMARCA; CAO-CRIM EXEC PENAL TRIB JURI AUD MILITAR 3.842,95 0,00 0,00 0,00 1.280,98 0,00 5.123,93 0,00 582,93 0,00 582,93 4.541,00 457,00 0,00 28/02/2014
14 310800 ALEANDRO FLORES DA SILVA ESTAGIARIO ATIVO NOVA SERRANA; NOVA SERRANA-01 PJ 545,00 0,00 0,00 0,00 0,00 0,00 545,00 0,00 0,00 0,00 0,00 545,00 121,90 0,00 28/02/2014
15 33 ALEC CARNEIRO CABO ATIVO BELO HORIZONTE - COMARCA; GAECO - SECRETARIA 1.477,90 0,00 0,00 0,00 492,63 0,00 1.970,53 0,00 41,28 0,00 41,28 1.929,25 457,00 538,36 28/02/2014
16 373600 ALESSANDRA FONSECA MARTINS DA COSTA ESTAGIARIO ATIVO JOAO MONLEVADE; JOAO MONLEVADE-03 PJ 545,00 0,00 0,00 0,00 0,00 0,00 545,00 0,00 0,00 0,00 0,00 545,00 121,90 0,00 28/02/2014
17 361000 ALESSANDRA LILIAN DA SILVA FREITAS ESTAGIARIO ATIVO BARAO DE COCAIS; BARAO DE COCAIS - PJ ÚNICA 545,00 0,00 0,00 0,00 0,00 0,00 545,00 0,00 0,00 0,00 0,00 545,00 121,90 0,00 28/02/2014
18 348800 ALESSANDRE TAVARES DA SILVEIRA ESTAGIARIO ATIVO RAUL SOARES; RAUL SOARES - PJ ÚNICA 545,00 0,00 0,00 0,00 0,00 0,00 545,00 0,00 0,00 0,00 0,00 545,00 121,90 0,00 28/02/2014
19 287800 ALESSANDRO ROGERIO DIAS DE OLIVEIRA ESTAGIARIO ATIVO MONTES CLAROS; COORD REG PJ DEF EDUC DIR CRIANCA ADOL NORTE 545,00 0,00 0,00 0,00 0,00 0,00 545,00 0,00 0,00 0,00 0,00 545,00 121,90 0,00 28/02/2014
20 356000 ALEX ARRUDA TAVARES ESTAGIARIO ATIVO DIVINOPOLIS; DIVINOPOLIS-08 PJ 545,00 0,00 0,00 0,00 0,00 0,00 545,00 0,00 0,00 0,00 0,00 545,00 121,90 0,00 28/02/2014
21 348900 ALEXANDRE EVARISTO CUNHA BARBOSA ESTAGIARIO ATIVO BELO HORIZONTE; PROCON-MG-GAB DO COORDENADOR DO PROCON-MG 545,00 0,00 0,00 0,00 0,00 0,00 545,00 0,00 0,00 0,00 0,00 545,00 174,90 545,00 28/02/2014
22 388600 ALEXIA DUARTE TORRES ESTAGIARIO ATIVO BELO HORIZONTE; 18 PJ DEF DIR HUM AP COM CONF AG E FISC POL 272,50 0,00 0,00 0,00 0,00 0,00 272,50 0,00 0,00 0,00 0,00 272,50 58,30 0,00 28/02/2014
23 323700 ALFREDO VAZ MOURA ESTAGIARIO ATIVO ARAGUARI; ARAGUARI-05 PJ 545,00 0,00 0,00 0,00 0,00 0,00 545,00 0,00 0,00 0,00 0,00 545,00 121,90 0,00 28/02/2014
24 365000 ALICE DE PINHO TAVARES GENEROSO ESTAGIARIO ATIVO BELO HORIZONTE; GABINETE DOS PROCURADORES 545,00 0,00 0,00 0,00 0,00 0,00 545,00 0,00 0,00 0,00 0,00 545,00 121,90 0,00 28/02/2014
25 356100 ALINE ALVES GUIMARAES ESTAGIARIO ATIVO FORMIGA; FORMIGA-02 PJ 545,00 0,00 0,00 0,00 0,00 0,00 545,00 0,00 0,00 0,00 0,00 545,00 121,90 0,00 28/02/2014
26 294600 ALINE CRISTINA DIAS DE MOURA ESTAGIARIO ATIVO VESPASIANO; VESPASIANO-03 PJ 508,67 0,00 0,00 0,00 0,00 0,00 508,67 0,00 0,00 0,00 0,00 508,67 116,60 0,00 28/02/2014
27 310900 ALINE FERNANDES FERREIRA ESTAGIARIO ATIVO ITABIRA; ITABIRA-01 PJ 545,00 0,00 0,00 0,00 0,00 0,00 545,00 0,00 0,00 0,00 0,00 545,00 95,40 0,00 28/02/2014
28 281800 ALINE GONCALVES MOREIRA PEREIRA CORREA ESTAGIARIO ATIVO IPATINGA; IPATINGA-07 PJ 545,00 0,00 0,00 0,00 0,00 0,00 545,00 0,00 0,00 0,00 0,00 545,00 116,60 0,00 28/02/2014
29 332800 ALINE LUIZA FLORENCIO ALVES ESTAGIARIO ATIVO BELO HORIZONTE; CAO-TS-TERCEIRO SETOR-APOIO TECNICO 545,00 0,00 0,00 0,00 0,00 0,00 545,00 0,00 0,00 0,00 0,00 545,00 121,90 0,00 28/02/2014
30 270100 ALINE SILVA ROSA ESTAGIARIO ATIVO GOVERNADOR VALADARES; GOVERNADOR VALADARES-10 PJ 545,00 0,00 0,00 0,00 0,00 0,00 545,00 0,00 0,00 0,00 0,00 545,00 121,90 0,00 28/02/2014
31 338500 ALOIZIO MARTINS JALES JUNIOR ESTAGIARIO ATIVO CAMPESTRE; CAMPESTRE - PJ ÚNICA 545,00 0,00 0,00 0,00 0,00 0,00 545,00 0,00 0,00 0,00 0,00 545,00 121,90 0,00 28/02/2014
32 373700 AMANDA BARBARA COSTA SANTOS ESTAGIARIO ATIVO DIVINOPOLIS; DIVINÓPOLIS - 06ª PJ 545,00 0,00 0,00 0,00 0,00 0,00 545,00 0,00 0,00 0,00 0,00 545,00 121,90 0,00 28/02/2014
33 379000 AMANDA CAROLINA RESENDE DE MOURA ESTAGIARIO ATIVO BELO HORIZONTE; EXTINTA - DIRETORIA SERVIÇOS GERAIS E TRANS 817,50 0,00 0,00 0,00 0,00 0,00 817,50 0,00 0,00 0,00 0,00 817,50 111,30 0,00 28/02/2014
34 333000 AMANDA DONATO LUCAS ESTAGIARIO ATIVO BELO HORIZONTE; MEIO AMB PATRIM HISTORICO E CULTURAL-15 PJ 545,00 0,00 0,00 0,00 0,00 0,00 545,00 0,00 0,00 0,00 0,00 545,00 121,90 0,00 28/02/2014
35 294800 AMANDA GOMES PEREIRA ESTAGIARIO ATIVO JANAUBA; JANAUBA-03 PJ 545,00 0,00 0,00 0,00 0,00 0,00 545,00 0,00 0,00 0,00 0,00 545,00 121,90 0,00 28/02/2014
36 388700 AMANDA JAQUES GAIO ESTAGIARIO ATIVO SAO JOAO DEL REI; SAO JOAO DEL REI-04 PJ 272,50 0,00 0,00 0,00 0,00 0,00 272,50 0,00 0,00 0,00 0,00 272,50 58,30 0,00 28/02/2014
37 360600 AMANDA MACEDO RIBEIRO ESTAGIARIO ATIVO MONTES CLAROS; MONTES CLAROS-09 PJ 545,00 0,00 0,00 0,00 0,00 0,00 545,00 0,00 0,00 0,00 0,00 545,00 121,90 0,00 28/02/2014
38 365100 AMANDA REIS DA SILVA ESTAGIARIO ATIVO BELO HORIZONTE; JUIZO CRIMINAL-12 PJ 545,00 0,00 0,00 0,00 0,00 0,00 545,00 0,00 0,00 0,00 0,00 545,00 116,60 0,00 28/02/2014
39 356200 ANA CAROLINA BATISTA FERNANDES ESTAGIARIO ATIVO BELO HORIZONTE; ASSESSORIA ESPECIAL DO PGJ 545,00 0,00 0,00 0,00 0,00 0,00 545,00 0,00 0,00 0,00 0,00 545,00 121,90 0,00 28/02/2014
40 294900 ANA CAROLINA RODRIGUES ESTEVES ESTAGIARIO ATIVO DIVINOPOLIS; DIVINOPOLIS-01 PJ 545,00 0,00 0,00 0,00 0,00 0,00 545,00 0,00 0,00 0,00 0,00 545,00 74,20 0,00 28/02/2014
41 338600 ANA CAROLINA SILVA CLEBICAR ESTAGIARIO ATIVO POUSO ALEGRE; POUSO ALEGRE-08 PJ 545,00 0,00 0,00 0,00 0,00 0,00 545,00 0,00 0,00 0,00 0,00 545,00 121,90 0,00 28/02/2014
42 349100 ANA CAROLINA VARANDA CAMPOS ESTAGIARIO ATIVO JUIZ DE FORA; JUIZ DE FORA-08 PJ 545,00 0,00 0,00 0,00 0,00 0,00 545,00 0,00 0,00 0,00 0,00 545,00 121,90 0,00 28/02/2014
43 349200 ANA CLARA COSTA RAMOS ESTAGIARIO ATIVO BELO HORIZONTE; PROCON-MG-GAB DO COORDENADOR DO PROCON-MG 545,00 0,00 0,00 0,00 0,00 0,00 545,00 0,00 0,00 0,00 0,00 545,00 121,90 0,00 28/02/2014
44 361100 ANA CLARA NAVES DA SILVEIRA ESTAGIARIO ATIVO UBERLANDIA; UBERLANDIA-15 PJ 545,00 0,00 0,00 0,00 0,00 0,00 545,00 0,00 0,00 0,00 0,00 545,00 121,90 0,00 28/02/2014
45 323800 ANA CLAUDIA DOURADO MENDES ESTAGIARIO ATIVO MONTES CLAROS; MONTES CLAROS-07 PJ 545,00 0,00 0,00 0,00 0,00 0,00 545,00 0,00 0,00 0,00 0,00 545,00 100,70 0,00 28/02/2014
46 318900 ANA CLAUDIA MORAIS VALGAS ESTAGIARIO ATIVO MESQUITA; MESQUITA - PJ ÚNICA 545,00 0,00 0,00 0,00 0,00 0,00 545,00 0,00 0,00 0,00 0,00 545,00 121,90 0,00 28/02/2014
47 356300 ANA EMILIA DA SILVA MOREIRA ESTAGIARIO ATIVO MONTE BELO; MONTE BELO - PJ ÚNICA 545,00 0,00 0,00 0,00 0,00 0,00 545,00 0,00 0,00 0,00 0,00 545,00 121,90 0,00 28/02/2014
48 370800 ANA FLAVIA ALVES RESENDE ESTAGIARIO ATIVO CARMOPOLIS DE MINAS; CARMOPOLIS DE MINAS - PJ ÚNICA 545,00 0,00 0,00 0,00 0,00 0,00 545,00 0,00 0,00 0,00 0,00 545,00 121,90 0,00 28/02/2014
49 287900 ANA FLAVIA AMARAL REZENDE ESTAGIARIO ATIVO BELO HORIZONTE; JUIZO CRIMINAL-12 PJ 545,00 0,00 0,00 0,00 0,00 0,00 545,00 0,00 0,00 0,00 0,00 545,00 121,90 0,00 28/02/2014
50 349300 ANA FLAVIA CANCADO FERREIRA ESTAGIARIO ATIVO Informação não disponível 545,00 0,00 0,00 0,00 0,00 0,00 545,00 0,00 0,00 0,00 0,00 545,00 121,90 0,00 28/02/2014
51 365200 ANA FLAVIA COSTA ARAUJO ESTAGIARIO ATIVO BOM DESPACHO; BOM DESPACHO-02 PJ 545,00 0,00 0,00 0,00 0,00 0,00 545,00 0,00 0,00 0,00 0,00 545,00 121,90 0,00 28/02/2014
52 349400 ANA FLAVIA SALES MARTINS FERREIRA ESTAGIARIO ATIVO BELO HORIZONTE; 18 PJ DEF DIR HUM AP COM CONF AG E FISC POL 199,83 0,00 0,00 0,00 0,00 0,00 199,83 0,00 0,00 0,00 0,00 199,83 47,70 0,00 28/02/2014
53 319000 ANA LAURA VALADARES FRANCA FRAIHA ESTAGIARIO ATIVO PITANGUI; PITANGUI-01 PJ 545,00 0,00 0,00 0,00 0,00 0,00 545,00 0,00 0,00 0,00 0,00 545,00 121,90 0,00 28/02/2014
54 356500 ANA LAURA VIEIRA DE OLIVEIRA ESTAGIARIO ATIVO JUIZ DE FORA; JUIZ DE FORA-15 PJ 545,00 0,00 0,00 0,00 0,00 0,00 545,00 0,00 0,00 0,00 0,00 545,00 121,90 0,00 28/02/2014
55 333200 ANA LUIZA COUTINHO DE SOUZA ANDRADE ESTAGIARIO ATIVO BELO HORIZONTE; JUIZO CRIMINAL-12 PJ 545,00 0,00 0,00 0,00 0,00 0,00 545,00 0,00 0,00 0,00 0,00 545,00 116,60 0,00 28/02/2014
56 323900 ANA LUIZA SOUSA SILVA ESTAGIARIO ATIVO CONCEICAO DAS ALAGOAS; CONCEICAO DAS ALAGOAS - 01ª PJ 545,00 0,00 0,00 0,00 0,00 0,00 545,00 0,00 0,00 0,00 0,00 545,00 121,90 0,00 28/02/2014
57 77 ANA PAULA DE LIMA GARCIA NEVES CAPITAO ATIVO BELO HORIZONTE - COMARCA; CENTRO SEGURANCA E INTELIGENCIA INSTITUCIONAL 3.170,67 0,00 0,00 0,00 0,00 0,00 3.170,67 0,00 140,57 0,00 140,57 3.030,10 457,00 0,00 28/02/2014
58 251700 ANA PAULA DE OLIVEIRA VILELA ESTAGIARIO ATIVO PASSOS; PASSOS-03 PJ 199,83 0,00 0,00 0,00 0,00 0,00 199,83 0,00 0,00 0,00 0,00 199,83 47,70 0,00 28/02/2014
59 373800 ANA PAULA DE SOUZA ESTAGIARIO ATIVO UBERABA; UBERABA-07 PJ 545,00 0,00 0,00 0,00 0,00 0,00 545,00 0,00 0,00 0,00 0,00 545,00 121,90 0,00 28/02/2014
60 288100 ANA PAULA FERREIRA ALBERNAZ DO CARMO ESTAGIARIO ATIVO PARACATU; PARACATU-01 PJ 545,00 0,00 0,00 0,00 0,00 0,00 545,00 0,00 0,00 0,00 0,00 545,00 95,40 0,00 28/02/2014
61 301100 ANA PRISCILA ALVES DUARTE ESTAGIARIO ATIVO PATROCINIO; PATROCINIO-03 PJ 545,00 0,00 0,00 0,00 0,00 0,00 545,00 0,00 0,00 0,00 0,00 545,00 121,90 0,00 28/02/2014
62 379100 ANDERSON AMORIM DE OLIVEIRA ESTAGIARIO ATIVO BELO HORIZONTE; DIRETORIA DE SISTEMAS DE INFORMACAO 817,50 0,00 0,00 0,00 0,00 0,00 817,50 0,00 0,00 0,00 0,00 817,50 74,20 54,50 28/02/2014
63 356600 ANDERSON DE FREITAS SILVEIRA ESTAGIARIO ATIVO BELO HORIZONTE; JUIZO CRIMINAL-12 PJ 545,00 0,00 0,00 0,00 0,00 0,00 545,00 0,00 0,00 0,00 0,00 545,00 121,90 0,00 28/02/2014
64 349600 ANDERSON RODRIGUES COELHO ESTAGIARIO ATIVO ITAMBACURI; ITAMBACURI-01 PJ 308,83 0,00 0,00 0,00 0,00 0,00 308,83 0,00 0,00 0,00 0,00 308,83 21,20 0,00 28/02/2014
65 338700 ANDRE LUIZ DE ANDRADE NETO ESTAGIARIO ATIVO CONSELHEIRO LAFAIETE; CONSELHEIRO LAFAIETE-04 PJ 399,67 0,00 0,00 0,00 0,00 0,00 399,67 0,00 0,00 0,00 0,00 399,67 84,80 0,00 28/02/2014
66 319100 ANDREA FATIMA DOS SANTOS ASSIS ESTAGIARIO ATIVO BETIM; BETIM-12 PJ 545,00 0,00 0,00 0,00 0,00 0,00 545,00 0,00 0,00 0,00 0,00 545,00 121,90 0,00 28/02/2014
67 319200 ANDREA MARIA ALVES ESTAGIARIO ATIVO BELO HORIZONTE; CAO-CRIMINAL-GABINETES 545,00 0,00 0,00 0,00 0,00 0,00 545,00 0,00 0,00 0,00 0,00 545,00 121,90 0,00 28/02/2014
68 356700 ANDREIA PATRICIA VIANA ESTAGIARIO ATIVO FORMIGA; FORMIGA-01 PJ 545,00 0,00 0,00 0,00 0,00 0,00 545,00 0,00 0,00 0,00 0,00 545,00 121,90 0,00 28/02/2014
69 265000 ANE CAROLINE ALVES VIEIRA ESTAGIARIO ATIVO CONSELHEIRO LAFAIETE; CONSELHEIRO LAFAIETE-01 PJ 545,00 0,00 0,00 0,00 0,00 0,00 545,00 0,00 0,00 0,00 0,00 545,00 121,90 0,00 28/02/2014
70 324100 ANGELICA NUNES VIEIRA DA SILVA ESTAGIARIO ATIVO IBIRITE; IBIRITE-02 PJ 545,00 0,00 0,00 0,00 0,00 0,00 545,00 0,00 0,00 0,00 0,00 545,00 116,60 0,00 28/02/2014
71 251900 ANGELICA ROCHA DE LIMA ESTAGIARIO ATIVO ELOI MENDES; ELOI MENDES - PJ ÚNICA 545,00 0,00 0,00 0,00 0,00 0,00 545,00 0,00 0,00 0,00 0,00 545,00 47,70 0,00 28/02/2014
72 277300 ANNA CECILIA BORGES GOULART ESTAGIARIO ATIVO UBERABA; UBERABA-04 PJ 545,00 0,00 0,00 0,00 0,00 0,00 545,00 0,00 0,00 0,00 0,00 545,00 121,90 0,00 28/02/2014
73 373900 ANNA LETICIA MACHADO BRAJATO ESTAGIARIO ATIVO FRUTAL; FRUTAL-02 PJ 545,00 0,00 0,00 0,00 0,00 0,00 545,00 0,00 0,00 0,00 0,00 545,00 121,90 0,00 28/02/2014
74 338800 ANNA PAULA REIS BRAGA ESTAGIARIO ATIVO TRES MARIAS; TRES MARIAS - PJ ÚNICA 545,00 0,00 0,00 0,00 0,00 0,00 545,00 0,00 0,00 0,00 0,00 545,00 121,90 0,00 28/02/2014
75 388800 ANNE PENA DE OLIVEIRA ESTAGIARIO ATIVO GOVERNADOR VALADARES; GOVERNADOR VALADARES-15 PJ 272,50 0,00 0,00 0,00 0,00 0,00 272,50 0,00 0,00 0,00 0,00 272,50 58,30 0,00 28/02/2014
76 356900 ANNE VIEIRA TEODORAK PEGO ESTAGIARIO ATIVO BELO HORIZONTE; ASSESSORIA ESPECIAL DO PGJ 454,17 0,00 0,00 0,00 0,00 0,00 454,17 0,00 0,00 0,00 0,00 454,17 100,70 0,00 28/02/2014
77 282100 ANTONIELLY LOURENA DA SILVA FRAGA ESTAGIARIO ATIVO SAO DOMINGOS DO PRATA; SAO DOMINGOS DO PRATA - PJ ÚNICA 545,00 0,00 0,00 0,00 0,00 0,00 545,00 0,00 0,00 0,00 0,00 545,00 121,90 0,00 28/02/2014
78 323300 ANTONIO AUGUSTO ALVES DE ANDRADE ESTAGIARIO ATIVO BELO HORIZONTE; DEFESA DA SAUDE-19 PJ 545,00 0,00 0,00 0,00 0,00 0,00 545,00 0,00 0,00 0,00 0,00 545,00 121,90 0,00 28/02/2014
79 96 ANTONIO JUNIO DUTRA PRADO DELEGADO DE POLICIA 1 ATIVO BELO HORIZONTE - COMARCA; EXTINTA-CAO-CRIMO-COMB CRIME ORGANIZADO-GABS 3.173,74 0,00 0,00 0,00 0,00 0,00 3.173,74 0,00 141,03 0,00 141,03 3.032,71 457,00 0,00 28/02/2014
80 370900 ARIANE ALVES DOS REIS ESTAGIARIO ATIVO IPATINGA; IPATINGA-08 PJ 545,00 0,00 0,00 0,00 0,00 0,00 545,00 0,00 0,00 0,00 0,00 545,00 121,90 0,00 28/02/2014
81 365300 ARIELY MILIAN SILVA ESTAGIARIO ATIVO CAETE; CAETE-02 PJ 545,00 0,00 0,00 0,00 0,00 0,00 545,00 0,00 0,00 0,00 0,00 545,00 111,30 0,00 28/02/2014
82 379200 ARTHUR ALMEIDA PASSOS ESTAGIARIO ATIVO BELO HORIZONTE; CENTRO DE ESTUDOS E APERFEICOAMENTO FUNCIONAL 817,50 0,00 0,00 0,00 0,00 0,00 817,50 0,00 0,00 0,00 0,00 817,50 121,90 0,00 28/02/2014
83 361200 ARTHUR ANDRADE BARBOSA ESTAGIARIO ATIVO CAMBUI; CAMBUI-01 PJ 545,00 0,00 0,00 0,00 0,00 0,00 545,00 0,00 0,00 0,00 0,00 545,00 121,90 0,00 28/02/2014
84 282200 ARTHUR DA SILVA CASTRO ESTAGIARIO ATIVO LAGOA DA PRATA; LAGOA DA PRATA-02 PJ 545,00 0,00 0,00 0,00 0,00 0,00 545,00 0,00 0,00 0,00 0,00 545,00 121,90 0,00 28/02/2014
85 379300 ARTHUR GONTIJO COTA ESTAGIARIO ATIVO BELO HORIZONTE; DIRET DE INFORMACAO E CONHECIMENTO-DINC/CEAF 817,50 0,00 0,00 0,00 0,00 0,00 817,50 0,00 0,00 0,00 0,00 817,50 121,90 0,00 28/02/2014
86 265100 ARTHUR HENRIQUE FIGUEIREDO VAZ INACIO ESTAGIARIO ATIVO PASSOS; PASSOS-06 PJ 272,50 0,00 0,00 0,00 0,00 0,00 272,50 0,00 0,00 0,00 0,00 272,50 0,00 0,00 28/02/2014
87 344100 ARTHUR OLIVEIRA GUIMARAES ESTAGIARIO ATIVO BELO HORIZONTE; EXTINTA-PROCON-14 PJ- DEFESA DO CONSUMIDOR 545,00 0,00 0,00 0,00 0,00 0,00 545,00 0,00 0,00 0,00 0,00 545,00 121,90 0,00 28/02/2014
88 301400 ATILA MOARES CORDEIRO ESTAGIARIO ATIVO SAO SEBASTIAO DO PARAISO; SAO SEBASTIAO DO PARAISO-05 PJ 545,00 0,00 0,00 0,00 0,00 0,00 545,00 0,00 0,00 0,00 0,00 545,00 121,90 0,00 28/02/2014
89 349700 AYUME ALVES FRANCO ESTAGIARIO ATIVO CARLOS CHAGAS; CARLOS CHAGAS - PJ ÚNICA 545,00 0,00 0,00 0,00 0,00 0,00 545,00 0,00 0,00 0,00 0,00 545,00 121,90 0,00 28/02/2014
90 338900 BARBARA ALMEIDA DUARTE ESTAGIARIO ATIVO BELO HORIZONTE; JUIZO DE FAMILIA-02 PJ 545,00 0,00 0,00 0,00 0,00 0,00 545,00 0,00 0,00 0,00 0,00 545,00 116,60 0,00 28/02/2014
91 277400 BARBARA CANELA MARTINS DE CARVALHO ESTAGIARIO ATIVO Informação não disponível 545,00 0,00 0,00 0,00 0,00 0,00 545,00 0,00 0,00 0,00 0,00 545,00 0,00 0,00 28/02/2014
92 344300 BARBARA CERQUEIRA DA ROCHA ESTAGIARIO ATIVO MURIAE; MURIAE-03 PJ 545,00 0,00 0,00 0,00 0,00 0,00 545,00 0,00 0,00 0,00 0,00 545,00 121,90 0,00 28/02/2014
93 277500 BARBARA CRISTINA PEREIA MOTA ESTAGIARIO ATIVO ARINOS; ARINOS - PJ ÚNICA 545,00 0,00 0,00 0,00 0,00 0,00 545,00 0,00 0,00 0,00 0,00 545,00 121,90 0,00 28/02/2014
94 259400 BARBARA GRASSELLI CAVALCANTE LIMA ESTAGIARIO ATIVO CONTAGEM; CONTAGEM-02 PJ 545,00 0,00 0,00 0,00 0,00 0,00 545,00 0,00 0,00 0,00 0,00 545,00 121,90 0,00 28/02/2014
95 344400 BARBARA PEREIRA LEAL ESTAGIARIO ATIVO CONSELHEIRO LAFAIETE; CONSELHEIRO LAFAIETE-05 PJ 545,00 0,00 0,00 0,00 0,00 0,00 545,00 0,00 0,00 0,00 0,00 545,00 121,90 0,00 28/02/2014
96 282400 BARBARA REGINA PEREIRA DE PINHO MAGALHAES ESTAGIARIO ATIVO BELO HORIZONTE; 18 PJ DEF DIR HUM AP COM CONF AG E FISC POL 399,67 0,00 0,00 0,00 0,00 0,00 399,67 0,00 0,00 0,00 0,00 399,67 0,00 0,00 28/02/2014
97 319500 BARBARA VELOSO GUIMARAES ESTAGIARIO ATIVO BELO HORIZONTE; PROC. JUSTICA DIR. DIFUSOS E COLETIVOS 545,00 0,00 0,00 0,00 0,00 0,00 545,00 0,00 0,00 0,00 0,00 545,00 121,90 0,00 28/02/2014
98 361300 BARBARA VIANA GUIMARAES ESTAGIARIO ATIVO RIBEIRAO DAS NEVES; RIBEIRAO DAS NEVES-08 PJ 545,00 0,00 0,00 0,00 0,00 0,00 545,00 0,00 0,00 0,00 0,00 545,00 121,90 0,00 28/02/2014
99 370000 BIANCA CARDOSO ABUD ESTAGIARIO ATIVO ARAGUARI; ARAGUARI-03 PJ 545,00 0,00 0,00 0,00 0,00 0,00 545,00 0,00 0,00 0,00 0,00 545,00 121,90 0,00 28/02/2014
100 344500 BIANCA GOMES MODAFFERI ESTAGIARIO ATIVO BELO HORIZONTE; PROC. JUSTICA DIR. DIFUSOS E COLETIVOS 545,00 0,00 0,00 0,00 0,00 0,00 545,00 0,00 0,00 0,00 0,00 545,00 111,30 0,00 28/02/2014
101 311200 BIANCA KELLY FERREIRA CAMPOS ESTAGIARIO ATIVO BARBACENA; BARBACENA-01 PJ 545,00 0,00 0,00 0,00 0,00 0,00 545,00 0,00 0,00 0,00 0,00 545,00 100,70 0,00 28/02/2014
102 239600 BIANCA MARTINELE RIBEIRO ESTAGIARIO ATIVO MANHUACU; MANHUACU-02 PJ 545,00 0,00 0,00 0,00 0,00 0,00 545,00 0,00 0,00 0,00 0,00 545,00 100,70 0,00 28/02/2014
103 307000 BRENDA PIMENTEL DE SOUZA VIANA ESTAGIARIO ATIVO MANHUMIRIM; MANHUMIRIM-02 PROMOTORIA DEJUSTICA 545,00 0,00 0,00 0,00 0,00 0,00 545,00 0,00 0,00 0,00 0,00 545,00 100,70 0,00 28/02/2014
104 371000 BRUNA ALVES MARTINS CIARALLO ESTAGIARIO ATIVO RIO POMBA; RIO POMBA - PJ ÚNICA 545,00 0,00 0,00 0,00 0,00 0,00 545,00 0,00 0,00 0,00 0,00 545,00 121,90 0,00 28/02/2014
105 388900 BRUNA ALVES OLIVEIRA DE ABREU ESTAGIARIO ATIVO PASSOS; PASSOS-04 PJ 272,50 0,00 0,00 0,00 0,00 0,00 272,50 0,00 0,00 0,00 0,00 272,50 58,30 0,00 28/02/2014
106 349800 BRUNA ARANTES VIEIRA ESTAGIARIO ATIVO UBERLANDIA; UBERLÂNDIA-14 PJ 545,00 0,00 0,00 0,00 0,00 0,00 545,00 0,00 0,00 0,00 0,00 545,00 121,90 0,00 28/02/2014
107 365400 BRUNA FIGUEIREDO DE OLIVEIRA ESTAGIARIO ATIVO BELO HORIZONTE; 23ª PJ DEF DIREITOS CRIANÇAS E ADOLESCENTES 399,67 0,00 0,00 0,00 0,00 0,00 399,67 0,00 0,00 0,00 0,00 399,67 84,80 0,00 28/02/2014
108 311300 BRUNA FINHOLD LAMBOGLIA PEREZ ESTAGIARIO ATIVO UBERABA; UBERABA-12 PJ 545,00 0,00 0,00 0,00 0,00 0,00 545,00 0,00 0,00 0,00 0,00 545,00 121,90 0,00 28/02/2014
109 374000 BRUNA GONCALVES DE OLIVEIRA ESTAGIARIO ATIVO UBERABA; UBERABA-05 PJ 545,00 0,00 0,00 0,00 0,00 0,00 545,00 0,00 0,00 0,00 0,00 545,00 121,90 0,00 28/02/2014
110 301600 BRUNA LUIZA CARVALHO NEVES ESTAGIARIO ATIVO CONGONHAS; CONGONHAS-01 PJ 545,00 0,00 0,00 0,00 0,00 0,00 545,00 0,00 0,00 0,00 0,00 545,00 121,90 0,00 28/02/2014
111 374100 BRUNA MARIA DE SOUSA OLIVEIRA ESTAGIARIO ATIVO FRUTAL; FRUTAL-03 PJ 545,00 0,00 0,00 0,00 0,00 0,00 545,00 0,00 0,00 0,00 0,00 545,00 121,90 0,00 28/02/2014
112 311400 BRUNA PIRES VILELA ESTAGIARIO ATIVO BELO HORIZONTE; PROC. JUSTICA DIR. DIFUSOS E COLETIVOS 545,00 0,00 0,00 0,00 0,00 0,00 545,00 0,00 0,00 0,00 0,00 545,00 95,40 0,00 28/02/2014
113 324400 BRUNA SILVA AZEVEDO ESTAGIARIO ATIVO CAMANDUCAIA; CAMANDUCAIA - PJ ÚNICA 545,00 0,00 0,00 0,00 0,00 0,00 545,00 0,00 0,00 0,00 0,00 545,00 121,90 0,00 28/02/2014
114 311500 BRUNO ABREU E SILVA ESTAGIARIO ATIVO BELO HORIZONTE; ASSESS JUR DO CONS SUPERIOR DO MINISTERIO PUB 545,00 0,00 0,00 0,00 0,00 0,00 545,00 0,00 0,00 0,00 0,00 545,00 121,90 0,00 28/02/2014
115 379400 BRUNO ALMEIDA AMARAL ESTAGIARIO ATIVO BELO HORIZONTE; SUPERINTENDENCIA DE COMUNICACAO INTEGRADA 817,50 0,00 0,00 0,00 0,00 0,00 817,50 0,00 0,00 0,00 0,00 817,50 47,70 0,00 28/02/2014
116 357000 BRUNO ALVARENGA GUIMARAES DA SILVA ESTAGIARIO ATIVO TEOFILO OTONI; COORD REG PJ DEF EDU DIR CRIAN ADOL JEQUI MUC 545,00 0,00 0,00 0,00 0,00 0,00 545,00 0,00 0,00 0,00 0,00 545,00 121,90 0,00 28/02/2014
117 259600 BRUNO ANDRE MARTNS VELOSO ESTAGIARIO ATIVO GOVERNADOR VALADARES; GOVERNADOR VALADARES-04 PJ 545,00 0,00 0,00 0,00 0,00 0,00 545,00 0,00 0,00 0,00 0,00 545,00 106,00 236,17 28/02/2014
118 389000 BRUNO CRUZ DE SOUZA ESTAGIARIO ATIVO CATAGUASES; CATAGUASES-01 PJ 254,33 0,00 0,00 0,00 0,00 0,00 254,33 0,00 0,00 0,00 0,00 254,33 53,00 0,00 28/02/2014
119 332200 BRUNO DALLA BERNARDINA THEDOLDI ESTAGIARIO ATIVO VICOSA; VICOSA-03 PJ 545,00 0,00 0,00 0,00 0,00 0,00 545,00 0,00 0,00 0,00 0,00 545,00 79,50 0,00 28/02/2014
120 319600 BRUNO DIAS ANTUNES ESTAGIARIO ATIVO CORACAO DE JESUS; CORACAO DE JESUS - PJ ÚNICA 545,00 0,00 0,00 0,00 0,00 0,00 545,00 0,00 0,00 0,00 0,00 545,00 95,40 0,00 28/02/2014
121 324500 BRUNO FERNANDES PINTO ESTAGIARIO ATIVO JUIZ DE FORA; JUIZ DE FORA-05 PJ 327,00 0,00 0,00 0,00 0,00 0,00 327,00 0,00 0,00 0,00 0,00 327,00 74,20 0,00 28/02/2014
122 86 BRUNO MENDES AMIANTI INVESTIGADOR DE POLICIA 2 ATIVO BELO HORIZONTE - COMARCA; CAO-CRIM EXEC PENAL TRIB JURI AUD MILITAR 1.139,99 0,00 0,00 0,00 380,00 0,00 1.519,99 0,00 0,00 0,00 0,00 1.519,99 457,00 0,00 28/02/2014
123 271300 BRUNO PEREIRA PASSOS ESTAGIARIO ATIVO PEDRO LEOPOLDO; PEDRO LEOPOLDO-03 PJ 545,00 0,00 0,00 0,00 0,00 0,00 545,00 0,00 0,00 0,00 0,00 545,00 121,90 0,00 28/02/2014
124 389100 BRUNO SOLDI LEITE ESTAGIARIO ATIVO PAINS; ALFENAS-01 PJ 272,50 0,00 0,00 0,00 0,00 0,00 272,50 0,00 0,00 0,00 0,00 272,50 58,30 0,00 28/02/2014
125 259700 BRUNO VINICIOS SILVA AMORIM ESTAGIARIO ATIVO ACUCENA; ACUCENA - PJ ÚNICA 545,00 0,00 0,00 0,00 0,00 0,00 545,00 0,00 0,00 0,00 0,00 545,00 63,60 0,00 28/02/2014
126 349900 CAMILA ALVES FERREIRA ESTAGIARIO ATIVO RIBEIRAO DAS NEVES; RIBEIRAO DAS NEVES-01 PJ 545,00 0,00 0,00 0,00 0,00 0,00 545,00 0,00 0,00 0,00 0,00 545,00 121,90 0,00 28/02/2014
127 379500 CAMILA ALVES INNECCO ESTAGIARIO ATIVO BELO HORIZONTE; 23ª PJ DEF DIREITOS CRIANÇAS E ADOLESCENTES 817,50 0,00 0,00 0,00 0,00 0,00 817,50 0,00 0,00 0,00 0,00 817,50 111,30 0,00 28/02/2014
128 379600 CAMILA CARVALHO ESTAGIARIO ATIVO BELO HORIZONTE; CENTRO DE ESTUDOS E APERFEICOAMENTO FUNCIONAL 817,50 0,00 0,00 0,00 0,00 0,00 817,50 0,00 0,00 0,00 0,00 817,50 121,90 0,00 28/02/2014
129 365500 CAMILA CELIS DA SILVA ESTAGIARIO ATIVO BETIM; BETIM-08 PJ-DEFESA DO CIDADAO 545,00 0,00 0,00 0,00 0,00 0,00 545,00 0,00 0,00 0,00 0,00 545,00 121,90 0,00 28/02/2014
130 374200 CAMILA DE FIGUEIREDO BAGATINI ESTAGIARIO ATIVO POUSO ALEGRE; POUSO ALEGRE-06 PJ 545,00 0,00 0,00 0,00 0,00 0,00 545,00 0,00 0,00 0,00 0,00 545,00 121,90 0,00 28/02/2014
131 339000 CAMILA LOPES CRISTINO ESTAGIARIO ATIVO Informação não disponível 545,00 0,00 0,00 0,00 0,00 0,00 545,00 0,00 0,00 0,00 0,00 545,00 121,90 0,00 28/02/2014
132 379700 CAMILA MIRANDA CAMANZI ESTAGIARIO ATIVO BELO HORIZONTE; CENTRO DE ESTUDOS E APERFEICOAMENTO FUNCIONAL 817,50 0,00 0,00 0,00 0,00 0,00 817,50 0,00 0,00 0,00 0,00 817,50 121,90 0,00 28/02/2014
133 277800 CAMILA MIRANDA FERREIRA ESTAGIARIO ATIVO CURVELO; CURVELO-02 PJ 545,00 0,00 0,00 0,00 0,00 0,00 545,00 0,00 0,00 0,00 0,00 545,00 121,90 0,00 28/02/2014
134 194700 CAMILA RODRIGUES MAURO ESTAGIARIO ATIVO CONTAGEM; CONTAGEM-13 PJ 181,67 0,00 0,00 0,00 0,00 0,00 181,67 0,00 0,00 0,00 0,00 181,67 42,40 0,00 28/02/2014
135 365600 CAMILA SALLUM ESTAGIARIO ATIVO Informação não disponível 545,00 0,00 0,00 0,00 0,00 0,00 545,00 0,00 0,00 0,00 0,00 545,00 121,90 0,00 28/02/2014
136 357100 CAMILLA MALTA SILVANO ESTAGIARIO ATIVO SAO JOAO DEL REI; SAO JOAO DEL REI-03 PJ 545,00 0,00 0,00 0,00 0,00 0,00 545,00 0,00 0,00 0,00 0,00 545,00 121,90 0,00 28/02/2014
137 389200 CARINE RODRIGUES DE OLIVEIRA ESTAGIARIO ATIVO DIVINOPOLIS; DIVINÓPOLIS - 07ª PJ 272,50 0,00 0,00 0,00 0,00 0,00 272,50 0,00 0,00 0,00 0,00 272,50 58,30 0,00 28/02/2014
138 389300 CARLA DOURADO MOURA ESTAGIARIO ATIVO JANAUBA; JANAUBA-01 PJ 272,50 0,00 0,00 0,00 0,00 0,00 272,50 0,00 0,00 0,00 0,00 272,50 58,30 0,00 28/02/2014
139 277900 CARLA REGGIANE DE CARVALHO ESTAGIARIO ATIVO CONTAGEM; CONTAGEM-17 PJ 545,00 0,00 0,00 0,00 0,00 0,00 545,00 0,00 0,00 0,00 0,00 545,00 116,60 0,00 28/02/2014
140 92 CARLOS ALBERTO SANTOS 2O.TENENTE ATIVO BELO HORIZONTE - COMARCA; GAECO - SECRETARIA 2.396,60 0,00 0,00 0,00 0,00 0,00 2.396,60 0,00 45,67 0,00 45,67 2.350,93 457,00 0,00 28/02/2014
141 278000 CARLOS ANDRE LOPES ESTAGIARIO ATIVO FORMIGA; FORMIGA-01 PJ 545,00 0,00 0,00 0,00 0,00 0,00 545,00 0,00 0,00 0,00 0,00 545,00 121,90 0,00 28/02/2014
142 271500 CARLOS EDUARDO FARIA DE CAMARGO ESTAGIARIO ATIVO JUIZ DE FORA; JUIZ DE FORA-22 PJ 545,00 0,00 0,00 0,00 0,00 0,00 545,00 0,00 0,00 0,00 0,00 545,00 121,90 36,33 28/02/2014
143 282500 CARLOS FREDERICO CARNEIRO REZENDE ESTAGIARIO ATIVO BELO HORIZONTE; MEIO AMB PATRIM HISTORICO E CULTURAL-15 PJ 545,00 0,00 0,00 0,00 0,00 0,00 545,00 0,00 0,00 0,00 0,00 545,00 47,70 199,83 28/02/2014
144 371100 CARLOS HENRIQUE BRANJAO ZONTA ESTAGIARIO ATIVO UBA; UBA-03 PJ 545,00 0,00 0,00 0,00 0,00 0,00 545,00 0,00 0,00 0,00 0,00 545,00 121,90 0,00 28/02/2014
145 89 CARLOS JOSE BRATILIERE TENENTE CORONEL ATIVO BELO HORIZONTE - COMARCA; CENTRAL DE APOIO TECNICO-SETOR DE INFORMATICA 3.842,96 0,00 0,00 0,00 0,00 0,00 3.842,96 0,00 261,71 0,00 261,71 3.581,25 457,00 0,00 28/02/2014
146 84 CARLOS PEREIRA JUNIOR INVESTIGADOR DE POLICIA 2 ATIVO BELO HORIZONTE - COMARCA; CAO-CRIM EXEC PENAL TRIB JURI AUD MILITAR 1.918,67 0,00 0,00 0,00 639,56 0,00 2.558,23 0,00 57,79 0,00 57,79 2.500,44 457,00 0,00 28/02/2014
147 55 CARLOS ROBERTO BARBOSA AGENTE DE POLICIA ATIVO BELO HORIZONTE - COMARCA; GAECO - SECRETARIA 2.110,53 0,00 0,00 0,00 0,00 0,00 2.110,53 0,00 24,21 0,00 24,21 2.086,32 457,00 0,00 28/02/2014
148 361400 CAROLINA ALMADA ARANTES ESTAGIARIO ATIVO PIUMHI; PIUMHI-01 PJ 545,00 0,00 0,00 0,00 0,00 0,00 545,00 0,00 0,00 0,00 0,00 545,00 121,90 0,00 28/02/2014
149 332400 CAROLINA COSTA LEONEL ESTAGIARIO ATIVO BELO HORIZONTE; FAZENDA PUBLICA E EXECUCOES FISCAIS-01 PJ 545,00 0,00 0,00 0,00 0,00 0,00 545,00 0,00 0,00 0,00 0,00 545,00 121,90 0,00 28/02/2014
150 389400 CAROLINA MURTA FARIA ESTAGIARIO ATIVO BELO HORIZONTE; JUIZADO ESPECIAL CÍVEL E CRIMINAL - 08ª PJ 272,50 0,00 0,00 0,00 0,00 0,00 272,50 0,00 0,00 0,00 0,00 272,50 58,30 0,00 28/02/2014
151 324800 CAROLINA VIEIRA CORREA ESTAGIARIO ATIVO BELO HORIZONTE; GABINETE DOS PROCURADORES 545,00 0,00 0,00 0,00 0,00 0,00 545,00 0,00 0,00 0,00 0,00 545,00 84,80 0,00 28/02/2014
152 344700 CAROLINE DOS SANTOS ALVES ESTAGIARIO ATIVO CONSELHEIRO PENA; CONSELHEIRO PENA-01 PJ 545,00 0,00 0,00 0,00 0,00 0,00 545,00 0,00 0,00 0,00 0,00 545,00 174,90 545,00 28/02/2014
153 344600 CAROLINE LIMA SANTOS ESTAGIARIO ATIVO BELO HORIZONTE; JUIZO CRIMINAL-12 PJ 545,00 0,00 0,00 0,00 0,00 0,00 545,00 0,00 0,00 0,00 0,00 545,00 121,90 0,00 28/02/2014
154 288500 CAROLINE RODRIGUES COSTA ESTAGIARIO ATIVO LAMBARI; LAMBARI - PJ ÚNICA 545,00 0,00 0,00 0,00 0,00 0,00 545,00 0,00 0,00 0,00 0,00 545,00 121,90 0,00 28/02/2014
155 281600 CASTER MACHADO DE CARVALHO ESTAGIARIO ATIVO SAO JOAO EVANGELISTA; SAO JOAO EVANGELISTA - PJ ÚNICA 545,00 0,00 0,00 0,00 0,00 0,00 545,00 0,00 0,00 0,00 0,00 545,00 121,90 0,00 28/02/2014
156 333500 CATARINA ANNONI CESAR ESTAGIARIO ATIVO BELO HORIZONTE; 18 PJ DEF DIR HUM AP COM CONF AG E FISC POL 545,00 0,00 0,00 0,00 0,00 0,00 545,00 0,00 0,00 0,00 0,00 545,00 121,90 0,00 28/02/2014
157 350200 CATIA BONSUCESSO FRANCO ESTAGIARIO ATIVO SABARA; SABARA-02 PJ 545,00 0,00 0,00 0,00 0,00 0,00 545,00 0,00 0,00 0,00 0,00 545,00 121,90 0,00 28/02/2014
158 374300 CESAR PACHECO LOUREIRO BATISTA ESTAGIARIO ATIVO Informação não disponível 545,00 0,00 0,00 0,00 0,00 0,00 545,00 0,00 0,00 0,00 0,00 545,00 121,90 0,00 28/02/2014
159 333600 CHADSON JHONANTHAN ANTONIO DIAS ESTAGIARIO ATIVO Informação não disponível 545,00 0,00 0,00 0,00 0,00 0,00 545,00 0,00 0,00 0,00 0,00 545,00 121,90 0,00 28/02/2014
160 311800 CHRISTIAN KIYOSHI MENDES KON ESTAGIARIO ATIVO BELO HORIZONTE; GABINETE DOS PROCURADORES 545,00 0,00 0,00 0,00 0,00 0,00 545,00 0,00 0,00 0,00 0,00 545,00 121,90 0,00 28/02/2014
161 379800 CHRISTOFER FERNANDO SIMOES MONTEIRO ESTAGIARIO ATIVO BELO HORIZONTE; DIRETORIA DE MANUTENCAO PREDIAL 817,50 0,00 0,00 0,00 0,00 0,00 817,50 0,00 0,00 0,00 0,00 817,50 121,90 0,00 28/02/2014
162 333700 CIBELE MARTINS CALDEIRA ESTAGIARIO ATIVO BETIM; BETIM-01 PJ 545,00 0,00 0,00 0,00 0,00 0,00 545,00 0,00 0,00 0,00 0,00 545,00 74,20 0,00 28/02/2014
163 265700 CINTHIA CARDOSO MOURA ESTAGIARIO ATIVO BORDA DA MATA; BORDA DA MATA - PJ ÚNICA 545,00 0,00 0,00 0,00 0,00 0,00 545,00 0,00 0,00 0,00 0,00 545,00 121,90 0,00 28/02/2014
164 361500 CINTIA NUNES LOURENCO ESTAGIARIO ATIVO UBERLANDIA; UBERLANDIA-18 PJ 545,00 0,00 0,00 0,00 0,00 0,00 545,00 0,00 0,00 0,00 0,00 545,00 121,90 0,00 28/02/2014
165 311900 CLARICE DOS ANJOS AMORIM ESTAGIARIO ATIVO Informação não disponível 545,00 0,00 0,00 0,00 0,00 0,00 545,00 0,00 0,00 0,00 0,00 545,00 121,90 0,00 28/02/2014
166 252800 CLAUDIA HILARIO ELISEI DA SILVA ESTAGIARIO ATIVO VARGINHA; VARGINHA-04 PJ 545,00 0,00 0,00 0,00 0,00 0,00 545,00 0,00 0,00 0,00 0,00 545,00 121,90 0,00 28/02/2014
167 319700 CLAUDIANE VIEIRA CRISPIM ESTAGIARIO ATIVO CURVELO; CURVELO-01 PJ 545,00 0,00 0,00 0,00 0,00 0,00 545,00 0,00 0,00 0,00 0,00 545,00 121,90 0,00 28/02/2014
168 374400 CLAUDILENE DA SILVA COELHO ESTAGIARIO ATIVO ALVINOPOLIS; ALVINOPOLIS - PJ ÚNICA 545,00 0,00 0,00 0,00 0,00 0,00 545,00 0,00 0,00 0,00 0,00 545,00 116,60 0,00 28/02/2014
169 40 CLAUDIO MANOEL FERNANDES AGENTE DE POLICIA ATIVO BELO HORIZONTE - COMARCA; GAECO - SECRETARIA 1.918,67 0,00 0,00 0,00 0,00 0,00 1.918,67 0,00 9,82 0,00 9,82 1.908,85 457,00 0,00 28/02/2014
170 398300 CLAYTON ATILA GOMES ESTAGIARIO ATIVO BELO HORIZONTE; 23ª PJ DEF DIREITOS CRIANÇAS E ADOLESCENTES 545,00 0,00 0,00 0,00 0,00 0,00 545,00 0,00 0,00 0,00 0,00 545,00 121,90 0,00 28/02/2014
171 301800 CLEBSON SILVA SANTOS ESTAGIARIO ATIVO VARGINHA; VARGINHA-05 PJ 545,00 0,00 0,00 0,00 0,00 0,00 545,00 0,00 0,00 0,00 0,00 545,00 58,30 0,00 28/02/2014
172 265800 CLESLAINE SUELEN COSTA ESTAGIARIO ATIVO CORONEL FABRICIANO; CORONEL FABRICIANO-03 PJ 545,00 0,00 0,00 0,00 0,00 0,00 545,00 0,00 0,00 0,00 0,00 545,00 121,90 0,00 28/02/2014
173 295800 CLEYDIANE LACERDA BARBOSA ESTAGIARIO ATIVO ITABIRA; ITABIRA-03 PJ 545,00 0,00 0,00 0,00 0,00 0,00 545,00 0,00 0,00 0,00 0,00 545,00 121,90 545,00 28/02/2014
174 344800 CONRADO LUIZ PIMENTA AZEVEDO ESTAGIARIO ATIVO ALEM PARAIBA; ALEM PARAIBA-02 PJ 545,00 0,00 0,00 0,00 0,00 0,00 545,00 0,00 0,00 0,00 0,00 545,00 121,90 0,00 28/02/2014
175 81 COSME COELHO TEIXEIRA 3O.SARGENTO ATIVO BELO HORIZONTE - COMARCA; CAO-ORDEM ECONOMICA E TRIBUTARIA 1.477,90 0,00 0,00 0,00 0,00 0,00 1.477,90 0,00 0,00 0,00 0,00 1.477,90 457,00 0,00 28/02/2014
176 240200 CRISTHIANE IMACULADA VENTURINI ESTAGIARIO ATIVO POUSO ALEGRE; POUSO ALEGRE-06 PJ 545,00 0,00 0,00 0,00 0,00 0,00 545,00 0,00 0,00 0,00 0,00 545,00 121,90 0,00 28/02/2014
177 325100 CRISTIAN TRISTAO DE ANDRADE ESTAGIARIO ATIVO TRES CORACOES; TRES CORACOES-01 PJ 545,00 0,00 0,00 0,00 0,00 0,00 545,00 0,00 0,00 0,00 0,00 545,00 121,90 0,00 28/02/2014
178 240400 CRISTIANE LUCIA COTA ESTAGIARIO ATIVO CONTAGEM; CONTAGEM-04 PJ 254,33 0,00 0,00 0,00 0,00 0,00 254,33 0,00 0,00 0,00 0,00 254,33 53,00 0,00 28/02/2014
179 344900 CRISTIANO MATHIAS DE OLIVEIRA ESTAGIARIO ATIVO BELO HORIZONTE; JUIZO CRIMINAL-12 PJ 545,00 0,00 0,00 0,00 0,00 0,00 545,00 0,00 0,00 0,00 0,00 545,00 121,90 0,00 28/02/2014
180 278100 CRISTINA REZENDE PONTES ESTAGIARIO ATIVO VARGINHA; VARGINHA-06 PJ 545,00 0,00 0,00 0,00 0,00 0,00 545,00 0,00 0,00 0,00 0,00 545,00 121,90 0,00 28/02/2014
181 325200 CYNTHIA CRISTINA CASSIMIRO ESTAGIARIO ATIVO BELO HORIZONTE; PROCON-MG-GAB DO COORDENADOR DO PROCON-MG 545,00 0,00 0,00 0,00 0,00 0,00 545,00 0,00 0,00 0,00 0,00 545,00 121,90 0,00 28/02/2014
182 310400 DAFINIE TALITA CANUTO ESTAGIARIO ATIVO SETE LAGOAS; SETE LAGOAS-10 PJ 545,00 0,00 0,00 0,00 0,00 0,00 545,00 0,00 0,00 0,00 0,00 545,00 121,90 0,00 28/02/2014
183 271800 DAIANA APARECIDA BORGES ESTAGIARIO ATIVO ARAXA; ARAXA-02 PJ/PROCON 545,00 0,00 0,00 0,00 0,00 0,00 545,00 0,00 0,00 0,00 0,00 545,00 121,90 0,00 28/02/2014
184 310200 DAIANE DAS GRACAS TEIXEIRA ESTAGIARIO ATIVO SETE LAGOAS; SETE LAGOAS-08 PJ 545,00 0,00 0,00 0,00 0,00 0,00 545,00 0,00 0,00 0,00 0,00 545,00 121,90 0,00 28/02/2014
185 246500 DALVA BRAGA BARROSO AZEVEDO ESTAGIARIO ATIVO CARATINGA; CARATINGA-03 PJ 545,00 0,00 0,00 0,00 0,00 0,00 545,00 0,00 0,00 0,00 0,00 545,00 63,60 0,00 28/02/2014
186 333800 DALVO MARTINS BEMFEITO ESTAGIARIO ATIVO BELO HORIZONTE; DEFESA DE HABITACAO E URBANISMO-16 PJ 545,00 0,00 0,00 0,00 0,00 0,00 545,00 0,00 0,00 0,00 0,00 545,00 121,90 0,00 28/02/2014
187 288600 DAMARIS CARVALHO DE OLIVEIRA ESTAGIARIO ATIVO BELO HORIZONTE; SUPERINTENDENCIA DOS ORGAOS COLEGIADOS 545,00 0,00 0,00 0,00 0,00 0,00 545,00 0,00 0,00 0,00 0,00 545,00 121,90 0,00 28/02/2014
188 374500 DANDARA ALEXANDRINA FELIPE OLIVEIRA ESTAGIARIO ATIVO DIVINOPOLIS; DIVINÓPOLIS - 02ª PJ 545,00 0,00 0,00 0,00 0,00 0,00 545,00 0,00 0,00 0,00 0,00 545,00 121,90 0,00 28/02/2014
189 266000 DANIEL AUGUSTO RODRIGUES FERREIRA FONTES ESTAGIARIO ATIVO GOVERNADOR VALADARES; GOVERNADOR VALADARES-07 PJ 545,00 0,00 0,00 0,00 0,00 0,00 545,00 0,00 0,00 0,00 0,00 545,00 116,60 0,00 28/02/2014
190 288700 DANIEL CONTARINI SALGADO FERREIRA ESTAGIARIO ATIVO BELO HORIZONTE; JUIZO CRIMINAL-12 PJ 545,00 0,00 0,00 0,00 0,00 0,00 545,00 0,00 0,00 0,00 0,00 545,00 174,90 545,00 28/02/2014
191 253100 DANIEL DE SA E CASTRO ESTAGIARIO ATIVO PARA DE MINAS; PARA DE MINAS-03 PJ 399,67 0,00 0,00 0,00 0,00 0,00 399,67 0,00 0,00 0,00 0,00 399,67 26,50 0,00 28/02/2014
192 339200 DANIEL FELIPE FERREIRA CARDOSO ESTAGIARIO ATIVO BELO HORIZONTE; JUIZO CRIMINAL-12 PJ 545,00 0,00 0,00 0,00 0,00 0,00 545,00 0,00 0,00 0,00 0,00 545,00 121,90 0,00 28/02/2014
193 389500 DANIEL FERREIRA BERNARDES ESTAGIARIO ATIVO CATAGUASES; CATAGUASES-04 PJ 272,50 0,00 0,00 0,00 0,00 0,00 272,50 0,00 0,00 0,00 0,00 272,50 58,30 0,00 28/02/2014
194 379900 DANIEL JOSE SIQUEIRA MARQUES ESTAGIARIO ATIVO BELO HORIZONTE; CENTRO DE ESTUDOS E APERFEICOAMENTO FUNCIONAL 817,50 0,00 0,00 0,00 0,00 0,00 817,50 0,00 0,00 0,00 0,00 817,50 121,90 0,00 28/02/2014
195 380000 DANIEL VITOR CORREA SOARES ESTAGIARIO ATIVO BELO HORIZONTE; DIRETORIA DE SUPORTE E MANUTENCAO 817,50 0,00 0,00 0,00 0,00 0,00 817,50 0,00 0,00 0,00 0,00 817,50 121,90 0,00 28/02/2014
196 374600 DANIELA BICALHO GODOY ESTAGIARIO ATIVO BELO HORIZONTE; COORD DE INCLUSAO E MOBILIZACAO SOCIAIS 545,00 0,00 0,00 0,00 0,00 0,00 545,00 0,00 0,00 0,00 0,00 545,00 121,90 0,00 28/02/2014
197 371200 DANIELA GAIO BESE ESTAGIARIO ATIVO DIVINOPOLIS; DIVINOPOLIS-08 PJ 545,00 0,00 0,00 0,00 0,00 0,00 545,00 0,00 0,00 0,00 0,00 545,00 121,90 0,00 28/02/2014
198 345000 DANIELA GOMES FONSECA ESTAGIARIO ATIVO BELO HORIZONTE; EXTINTA-COORD DEF MEIO AMB-BACIA RIO SAO FRAN 545,00 0,00 0,00 0,00 0,00 0,00 545,00 0,00 0,00 0,00 0,00 545,00 121,90 0,00 28/02/2014
199 333900 DANIELA NOGUEIRA GODOY ESTAGIARIO ATIVO SETE LAGOAS; SETE LAGOAS-09 PJ 526,83 0,00 0,00 0,00 0,00 0,00 526,83 0,00 0,00 0,00 0,00 526,83 116,60 0,00 28/02/2014
200 296000 DANIELE CERCEAU AVELINO ESTAGIARIO ATIVO BELO HORIZONTE; CAO-CRIMINAL-GABINETES 545,00 0,00 0,00 0,00 0,00 0,00 545,00 0,00 0,00 0,00 0,00 545,00 90,10 0,00 28/02/2014
201 288800 DANIELE GONCALVES ROCHA ESTAGIARIO ATIVO BETIM; BETIM-04 PJ 181,67 0,00 0,00 0,00 0,00 0,00 181,67 0,00 0,00 0,00 0,00 181,67 42,40 0,00 28/02/2014
202 350300 DANIELE SOARES E SILVA ESTAGIARIO ATIVO VARZEA DA PALMA; VARZEA DA PALMA-01 PJ 545,00 0,00 0,00 0,00 0,00 0,00 545,00 0,00 0,00 0,00 0,00 545,00 121,90 0,00 28/02/2014
203 345100 DANIELLA MORAES ZAMBONI ESTAGIARIO ATIVO ALEM PARAIBA; ALEM PARAIBA-02 PJ 545,00 0,00 0,00 0,00 0,00 0,00 545,00 0,00 0,00 0,00 0,00 545,00 121,90 0,00 28/02/2014
204 361600 DANIELLA PEREIRA DE ALMEIDA ESTAGIARIO ATIVO BARBACENA; BARBACENA-02 PJ 545,00 0,00 0,00 0,00 0,00 0,00 545,00 0,00 0,00 0,00 0,00 545,00 121,90 0,00 28/02/2014
205 325400 DANIELLA ROSA DE SOUZA ESTAGIARIO ATIVO BELO HORIZONTE; PROC. JUSTICA DIR. DIFUSOS E COLETIVOS 545,00 0,00 0,00 0,00 0,00 0,00 545,00 0,00 0,00 0,00 0,00 545,00 121,90 0,00 28/02/2014
206 282900 DANIELLE DE ASSIS SILVA ESTAGIARIO ATIVO BARBACENA; BARBACENA-04 PJ 545,00 0,00 0,00 0,00 0,00 0,00 545,00 0,00 0,00 0,00 0,00 545,00 121,90 0,00 28/02/2014
207 350400 DANIELLE DE FARIAS REGO OLIVEIRA ESTAGIARIO ATIVO JUIZ DE FORA; JUIZ DE FORA-20 PJ 545,00 0,00 0,00 0,00 0,00 0,00 545,00 0,00 0,00 0,00 0,00 545,00 121,90 0,00 28/02/2014
208 287600 DANILO GONCALVES BENFICA ESTAGIARIO ATIVO SETE LAGOAS; SETE LAGOAS-06 PJ 545,00 0,00 0,00 0,00 0,00 0,00 545,00 0,00 0,00 0,00 0,00 545,00 121,90 0,00 28/02/2014
209 361700 DANUSA VIANA DIAS ESTAGIARIO ATIVO RIBEIRAO DAS NEVES; RIBEIRAO DAS NEVES-04 PJ 545,00 0,00 0,00 0,00 0,00 0,00 545,00 0,00 0,00 0,00 0,00 545,00 121,90 0,00 28/02/2014
210 24 DARCI APARECIDA VIEIRA 2O. SARGENTO ATIVO BELO HORIZONTE - COMARCA; GAECO - SECRETARIA 1.674,87 0,00 0,00 0,00 558,29 0,00 2.233,16 0,00 33,41 0,00 33,41 2.199,75 457,00 0,00 28/02/2014
211 2 DARIO VITORINO DE CARVALHO SILVA TENENTE CORONEL ATIVO BELO HORIZONTE - COMARCA; GABINETE DE SEGURANCA E INTELIGENCIA 3.842,96 0,00 0,00 0,00 0,00 0,00 3.842,96 0,00 261,71 0,00 261,71 3.581,25 457,00 0,00 28/02/2014
212 296100 DAVI NOMINATO DALLA BERNARDINA ESTAGIARIO ATIVO GOVERNADOR VALADARES; GOVERNADOR VALADARES-11 PJ 545,00 0,00 0,00 0,00 0,00 0,00 545,00 0,00 0,00 0,00 0,00 545,00 116,60 0,00 28/02/2014
213 365700 DAYANE ALVES DA SILVA ESTAGIARIO ATIVO CALDAS; CALDAS - PJ ÚNICA 545,00 0,00 0,00 0,00 0,00 0,00 545,00 0,00 0,00 0,00 0,00 545,00 169,60 545,00 28/02/2014
214 393600 DAYANE SILVA COUTO ESTAGIARIO ATIVO UNAI; UNAI-02 PJ 272,50 0,00 0,00 0,00 0,00 0,00 272,50 0,00 0,00 0,00 0,00 272,50 58,30 0,00 28/02/2014
215 365800 DAYSE GRACIELLE SOARES ARAUJO DE FIGUEIREDO ESTAGIARIO ATIVO BELO HORIZONTE; JUIZO DE FAMILIA-02 PJ 545,00 0,00 0,00 0,00 0,00 0,00 545,00 0,00 0,00 0,00 0,00 545,00 116,60 308,83 28/02/2014
216 307100 DEBORA AZEVEDO DE SOUZA ESTAGIARIO ATIVO BELO HORIZONTE; JUIZO DE FAMILIA-02 PJ 545,00 0,00 0,00 0,00 0,00 0,00 545,00 0,00 0,00 0,00 0,00 545,00 121,90 0,00 28/02/2014
217 365900 DEBORA CAROLINE FERREIRA ESTAGIARIO ATIVO NOVA LIMA; NOVA LIMA-04 PJ 545,00 0,00 0,00 0,00 0,00 0,00 545,00 0,00 0,00 0,00 0,00 545,00 121,90 0,00 28/02/2014
218 302000 DEBORA FERREIRA ESTAGIARIO ATIVO PARA DE MINAS; PARA DE MINAS-02 PJ 545,00 0,00 0,00 0,00 0,00 0,00 545,00 0,00 0,00 0,00 0,00 545,00 121,90 0,00 28/02/2014
219 389600 DEBORA LOPES DE MORAIS ESTAGIARIO ATIVO BELO HORIZONTE; 18 PJ DEF DIR HUM AP COM CONF AG E FISC POL 254,33 0,00 0,00 0,00 0,00 0,00 254,33 0,00 0,00 0,00 0,00 254,33 53,00 0,00 28/02/2014
220 325500 DELVIRIA DAS DORES PERERIA OLIVEIRA ESTAGIARIO ATIVO CONTAGEM; CONTAGEM-09 PJ 545,00 0,00 0,00 0,00 0,00 0,00 545,00 0,00 0,00 0,00 0,00 545,00 121,90 0,00 28/02/2014
221 65 DENILSON DOS REIS GOMES DELEGADO DE POLICIA 1 ATIVO BELO HORIZONTE - COMARCA; CAO-ORDEM ECONOMICA E TRIBUTARIA 4.686,46 0,00 0,00 0,00 0,00 0,00 4.686,46 0,00 462,63 0,00 462,63 4.223,83 457,00 0,00 28/02/2014
222 39 DENILSON GONCALVES DE ASSIS INVESTIGADOR DE POLICIA 2 ATIVO BELO HORIZONTE - COMARCA; GAECO - SECRETARIA 1.918,66 0,00 0,00 0,00 0,00 0,00 1.918,66 0,00 9,82 0,00 9,82 1.908,84 457,00 0,00 28/02/2014
223 276500 DENISE DE SOUZA MORAES ESTAGIARIO ATIVO BELO HORIZONTE; 23ª PJ DEF DIREITOS CRIANÇAS E ADOLESCENTES 545,00 0,00 0,00 0,00 0,00 0,00 545,00 0,00 0,00 0,00 0,00 545,00 100,70 0,00 28/02/2014
224 302200 DIEGO DE FARIA BRAGA CHAGAS ESTAGIARIO ATIVO PITANGUI; PITANGUI-02 PJ 545,00 0,00 0,00 0,00 0,00 0,00 545,00 0,00 0,00 0,00 0,00 545,00 121,90 0,00 28/02/2014
225 253500 DIEGO FABRINY SIQUEIRA SABINO ESTAGIARIO ATIVO VARGINHA; VARGINHA-07 PJ 545,00 0,00 0,00 0,00 0,00 0,00 545,00 0,00 0,00 0,00 0,00 545,00 121,90 0,00 28/02/2014
226 334000 DIEGO LOURENCO ORLANDI DE MELO ESTAGIARIO ATIVO SABARA; SABARA-01 PJ 545,00 0,00 0,00 0,00 0,00 0,00 545,00 0,00 0,00 0,00 0,00 545,00 121,90 0,00 28/02/2014
227 380100 DIEGO LOURES DE OLIVEIRA ESTAGIARIO ATIVO BELO HORIZONTE 817,50 0,00 0,00 0,00 0,00 0,00 817,50 0,00 0,00 0,00 0,00 817,50 121,90 0,00 28/02/2014
228 272000 DIEGO NATANEL LOPES ESTAGIARIO ATIVO NEPOMUCENO; NEPOMUCENO - PJ ÚNICA 545,00 0,00 0,00 0,00 0,00 0,00 545,00 0,00 0,00 0,00 0,00 545,00 121,90 0,00 28/02/2014
229 380200 DIENE FONDA DA SILVA ESTAGIARIO ATIVO BELO HORIZONTE; DEFESA DA SAUDE-19 PJ 218,00 0,00 0,00 0,00 0,00 0,00 218,00 0,00 0,00 0,00 0,00 218,00 31,80 0,00 28/02/2014
230 325600 DIOGENES ARAUJO INACIO ESTAGIARIO ATIVO BELO HORIZONTE; JUIZADO ESPECIAL CÍVEL E CRIMINAL - 08ª PJ 545,00 0,00 0,00 0,00 0,00 0,00 545,00 0,00 0,00 0,00 0,00 545,00 121,90 0,00 28/02/2014
231 374700 DIOGO DOS SANTOS MARTINS ESTAGIARIO ATIVO GUAXUPE; GUAXUPE-03 PJ 545,00 0,00 0,00 0,00 0,00 0,00 545,00 0,00 0,00 0,00 0,00 545,00 121,90 0,00 28/02/2014
232 234900 DIOGO LEITE GAVIOLI ESTAGIARIO ATIVO JUIZ DE FORA; JUIZ DE FORA-23 PJ 54,50 0,00 0,00 0,00 0,00 0,00 54,50 0,00 0,00 0,00 0,00 54,50 15,90 0,00 28/02/2014
233 296200 DOUGLAS ANTONIO DA SILVA ESTAGIARIO ATIVO JUIZ DE FORA; JUIZ DE FORA-10 PJ 545,00 0,00 0,00 0,00 0,00 0,00 545,00 0,00 0,00 0,00 0,00 545,00 121,90 0,00 28/02/2014
234 380300 DOUGLAS AUGUSTO FERREIRA ARAUJO ESTAGIARIO ATIVO BELO HORIZONTE; SUPERINTENDENCIA DE TECNOLOGIA DA INFORMACAO 817,50 0,00 0,00 0,00 0,00 0,00 817,50 0,00 0,00 0,00 0,00 817,50 121,90 0,00 28/02/2014
235 361800 DOUGLAS NUNES DE OLIVEIRA ESTAGIARIO ATIVO FORMIGA; FORMIGA-01 PJ 545,00 0,00 0,00 0,00 0,00 0,00 545,00 0,00 0,00 0,00 0,00 545,00 121,90 0,00 28/02/2014
236 366000 DOUGLAS RAMON PIMENTEL ESTAGIARIO ATIVO MANHUACU; MANHUACU-03 PJ 545,00 0,00 0,00 0,00 0,00 0,00 545,00 0,00 0,00 0,00 0,00 545,00 121,90 0,00 28/02/2014
237 294400 DYHESSICA CRISTINA VIEIRA VINHAL ESTAGIARIO ATIVO PRESIDENTE OLEGARIO; PRESIDENTE OLEGARIO - PJ ÚNICA 545,00 0,00 0,00 0,00 0,00 0,00 545,00 0,00 0,00 0,00 0,00 545,00 84,80 0,00 28/02/2014
238 240700 EDILANE CARMO DE ASSIS ESTAGIARIO ATIVO BELO HORIZONTE; GABINETE DOS PROCURADORES 545,00 0,00 0,00 0,00 0,00 0,00 545,00 0,00 0,00 0,00 0,00 545,00 180,20 817,50 28/02/2014
239 3 EDILSON SOARES DE MELO SUB TENENTE ATIVO BELO HORIZONTE - COMARCA; GAECO - SECRETARIA 2.152,80 0,00 0,00 0,00 717,60 0,00 2.870,40 0,00 95,53 0,00 95,53 2.774,87 457,00 0,00 28/02/2014
240 269900 EDMILSON DIAS DA SILVA ESTAGIARIO ATIVO RIO VERMELHO; RIO VERMELHO - PJ ÚNICA 545,00 0,00 0,00 0,00 0,00 0,00 545,00 0,00 0,00 0,00 0,00 545,00 121,90 0,00 28/02/2014
241 366100 EDSOM CARLOS DE SOUZA ESTAGIARIO ATIVO ANDRADAS; ANDRADAS-02 PJ 545,00 0,00 0,00 0,00 0,00 0,00 545,00 0,00 0,00 0,00 0,00 545,00 121,90 0,00 28/02/2014
242 361900 EDSON BIANCHI JUNIOR ESTAGIARIO ATIVO PATROCINIO; PATROCINIO-04 PJ 545,00 0,00 0,00 0,00 0,00 0,00 545,00 0,00 0,00 0,00 0,00 545,00 121,90 0,00 28/02/2014
243 289300 EDUARDA SILVEIRA TEIXEIRA ESTAGIARIO ATIVO OLIVEIRA; OLIVEIRA-01 PJ 526,83 0,00 0,00 0,00 0,00 0,00 526,83 0,00 0,00 0,00 0,00 526,83 111,30 0,00 28/02/2014
244 289400 EDUARDO ANTONIO PRADO ESTAGIARIO ATIVO TRES CORACOES; TRES CORACOES-04 PJ 545,00 0,00 0,00 0,00 0,00 0,00 545,00 0,00 0,00 0,00 0,00 545,00 121,90 0,00 28/02/2014
245 302300 EDUARDO FERREIRA DE MELLO VAZ ESTAGIARIO ATIVO JUIZ DE FORA; JUIZ DE FORA-04 PJ 545,00 0,00 0,00 0,00 0,00 0,00 545,00 0,00 0,00 0,00 0,00 545,00 0,00 0,00 28/02/2014
246 331900 EDUARDO SOARES CAROLINO ESTAGIARIO ATIVO ITURAMA; ITURAMA-02 PJ 545,00 0,00 0,00 0,00 0,00 0,00 545,00 0,00 0,00 0,00 0,00 545,00 121,90 0,00 28/02/2014
247 307200 ELAINE CRISTINA DOS SANTOS ESTAGIARIO ATIVO CORONEL FABRICIANO; CORONEL FABRICIANO-04 PJ 545,00 0,00 0,00 0,00 0,00 0,00 545,00 0,00 0,00 0,00 0,00 545,00 121,90 0,00 28/02/2014
248 380400 ELAYNE APARECIDA COSTA ALMEIDA ESTAGIARIO ATIVO Informação não disponível 817,50 0,00 0,00 0,00 0,00 0,00 817,50 0,00 0,00 0,00 0,00 817,50 121,90 0,00 28/02/2014
249 41 ELI CESAR DE OLIVEIRA AGENTE DE POLICIA ATIVO BELO HORIZONTE - COMARCA; GAECO - SECRETARIA 1.918,67 0,00 0,00 0,00 0,00 0,00 1.918,67 0,00 9,82 0,00 9,82 1.908,85 457,00 0,00 28/02/2014
250 278300 ELIANE CORDEIRO FERNANDES ESTAGIARIO ATIVO IPATINGA; IPATINGA-03 PJ 545,00 0,00 0,00 0,00 0,00 0,00 545,00 0,00 0,00 0,00 0,00 545,00 121,90 0,00 28/02/2014
251 357200 ELIELCIO JOSE DE ABREU ESTAGIARIO ATIVO BARBACENA; BARBACENA-08 PJ 545,00 0,00 0,00 0,00 0,00 0,00 545,00 0,00 0,00 0,00 0,00 545,00 121,90 0,00 28/02/2014
252 345200 ELISA ALVES CORREA DE ABREU ESTAGIARIO ATIVO OURO PRETO; OURO PRETO-01 PJ 545,00 0,00 0,00 0,00 0,00 0,00 545,00 0,00 0,00 0,00 0,00 545,00 121,90 0,00 28/02/2014
253 366200 ELISA BORGES DE JESUS ESTAGIARIO ATIVO BETIM; BETIM-02 PJ 545,00 0,00 0,00 0,00 0,00 0,00 545,00 0,00 0,00 0,00 0,00 545,00 121,90 0,00 28/02/2014
254 357300 ELISA MATA MACHADO DE ALKIMIM BREDT ESTAGIARIO ATIVO BELO HORIZONTE; JUIZO DE FAMILIA-02 PJ 545,00 0,00 0,00 0,00 0,00 0,00 545,00 0,00 0,00 0,00 0,00 545,00 121,90 0,00 28/02/2014
255 334100 ELISAMA MARTINS GARCIA ESTAGIARIO ATIVO UBERABA; UBERABA-02 PJ 545,00 0,00 0,00 0,00 0,00 0,00 545,00 0,00 0,00 0,00 0,00 545,00 121,90 0,00 28/02/2014
256 380500 ELMITA XISTO DO VALLE ESTAGIARIO ATIVO BELO HORIZONTE; CENTRO DE ESTUDOS E APERFEICOAMENTO FUNCIONAL 817,50 0,00 0,00 0,00 0,00 0,00 817,50 0,00 0,00 0,00 0,00 817,50 121,90 0,00 28/02/2014
257 91 ELVIS SOUZA DA SILVA 3O.SARGENTO ATIVO BELO HORIZONTE - COMARCA; GAECO - SECRETARIA 1.477,90 0,00 0,00 0,00 0,00 0,00 1.477,90 0,00 0,00 0,00 0,00 1.477,90 457,00 0,00 28/02/2014
258 362000 EMANUELE MEIGA MAIA ESTAGIARIO ATIVO CONTAGEM; CONTAGEM-15 PJ 545,00 0,00 0,00 0,00 0,00 0,00 545,00 0,00 0,00 0,00 0,00 545,00 121,90 0,00 28/02/2014
259 289600 EMILIA BORGES DE SA ESTAGIARIO ATIVO LUZ; LUZ - PJ ÚNICA 545,00 0,00 0,00 0,00 0,00 0,00 545,00 0,00 0,00 0,00 0,00 545,00 121,90 0,00 28/02/2014
260 374800 EMILIA GONCALVES MARTINS CUNHA ESTAGIARIO ATIVO PARA DE MINAS; PARA DE MINAS-05 PJ 545,00 0,00 0,00 0,00 0,00 0,00 545,00 0,00 0,00 0,00 0,00 545,00 121,90 0,00 28/02/2014
261 380600 ENEDINA JENUSIA PRATES DE SOUZA ESTAGIARIO ATIVO BELO HORIZONTE; SUPERINTENDENCIA DE COMUNICACAO INTEGRADA 817,50 0,00 0,00 0,00 0,00 0,00 817,50 0,00 0,00 0,00 0,00 817,50 121,90 0,00 28/02/2014
262 380700 ERCILIA LEANDRO FERNARDES ESTAGIARIO ATIVO BELO HORIZONTE; CENTRO DE ESTUDOS E APERFEICOAMENTO FUNCIONAL 817,50 0,00 0,00 0,00 0,00 0,00 817,50 0,00 0,00 0,00 0,00 817,50 90,10 545,00 28/02/2014
263 357400 ERICA APARECIDA ROSA ESTAGIARIO ATIVO BRUMADINHO; BRUMADINHO-01 PJ 545,00 0,00 0,00 0,00 0,00 0,00 545,00 0,00 0,00 0,00 0,00 545,00 121,90 0,00 28/02/2014
264 334300 ERIKA MOURA E SILVA ESTAGIARIO ATIVO ITUIUTABA; ITUIUTABA-01 PJ 545,00 0,00 0,00 0,00 0,00 0,00 545,00 0,00 0,00 0,00 0,00 545,00 106,00 0,00 28/02/2014
265 302400 ESTEVAN SIMOES PASSERI DA SILVA ESTAGIARIO ATIVO SAO LOURENCO; SAO LOURENCO-03 PJ 545,00 0,00 0,00 0,00 0,00 0,00 545,00 0,00 0,00 0,00 0,00 545,00 121,90 0,00 28/02/2014
266 20 EVANDRO GERALDO FERREIRA BORGES MAJOR ATIVO BELO HORIZONTE - COMARCA; COORD DE PLANEJAMENTO INSTITUCIONAL 3.842,96 0,00 0,00 0,00 0,00 0,00 3.842,96 0,00 374,46 0,00 374,46 3.468,50 457,00 584,64 28/02/2014
267 380800 EVERSON GUIMARAES PEREIRA ESTAGIARIO ATIVO BELO HORIZONTE; JUIZO DE FAMILIA-02 PJ 817,50 0,00 0,00 0,00 0,00 0,00 817,50 0,00 0,00 0,00 0,00 817,50 121,90 0,00 28/02/2014
268 283400 FABIANA DAS GRACAS DE CASTRO ESTAGIARIO ATIVO PATROCINIO; PATROCINIO-04 PJ 545,00 0,00 0,00 0,00 0,00 0,00 545,00 0,00 0,00 0,00 0,00 545,00 121,90 0,00 28/02/2014
269 302500 FABIANA DE CASSIA CARLIN ESTAGIARIO ATIVO BELO HORIZONTE; GABINETE DOS PROCURADORES 545,00 0,00 0,00 0,00 0,00 0,00 545,00 0,00 0,00 0,00 0,00 545,00 121,90 0,00 28/02/2014
270 374900 FABIANA LOPES DE JESUS ESTAGIARIO ATIVO CONTAGEM; CONTAGEM-10 PJ 545,00 0,00 0,00 0,00 0,00 0,00 545,00 0,00 0,00 0,00 0,00 545,00 121,90 0,00 28/02/2014
271 302600 FABIANA MARA DE ALMEIDA ASSUNCAO ESTAGIARIO ATIVO CONGONHAS; CONGONHAS-02 PJ 545,00 0,00 0,00 0,00 0,00 0,00 545,00 0,00 0,00 0,00 0,00 545,00 121,90 0,00 28/02/2014
272 319800 FABIANE BARBOSA MARRA ESTAGIARIO ATIVO BELO HORIZONTE; 23ª PJ DEF DIREITOS CRIANÇAS E ADOLESCENTES 545,00 0,00 0,00 0,00 0,00 0,00 545,00 0,00 0,00 0,00 0,00 545,00 121,90 0,00 28/02/2014
273 302800 FABIO ALVES DE SOUZA ESTAGIARIO ATIVO Informação não disponível 545,00 0,00 0,00 0,00 0,00 0,00 545,00 0,00 0,00 0,00 0,00 545,00 106,00 545,00 28/02/2014
274 371300 FABIO BRANDAO DE AQUINO ESTAGIARIO ATIVO BELO HORIZONTE; JUIZO CRIMINAL-12 PJ 545,00 0,00 0,00 0,00 0,00 0,00 545,00 0,00 0,00 0,00 0,00 545,00 121,90 0,00 28/02/2014
275 296500 FABIO DIAS QUEIROZ ZAVITOSKI ESTAGIARIO ATIVO UBERLANDIA; UBERLANDIA-01 PJ 545,00 0,00 0,00 0,00 0,00 0,00 545,00 0,00 0,00 0,00 0,00 545,00 74,20 0,00 28/02/2014
276 323400 FABIO FERREIRA SANTOS ESTAGIARIO ATIVO PARACATU; PARACATU-02 PJ 545,00 0,00 0,00 0,00 0,00 0,00 545,00 0,00 0,00 0,00 0,00 545,00 121,90 0,00 28/02/2014
277 312300 FABIO FONSECA DO VALE ESTAGIARIO ATIVO BELO HORIZONTE; 03ª PJ - JUÍZO EMPRESARIAL 545,00 0,00 0,00 0,00 0,00 0,00 545,00 0,00 0,00 0,00 0,00 545,00 121,90 0,00 28/02/2014
278 325900 FABRICIO FERREIRA COSTA ESTAGIARIO ATIVO BELO HORIZONTE; PROCON-MG-GAB DO COORDENADOR DO PROCON-MG 545,00 0,00 0,00 0,00 0,00 0,00 545,00 0,00 0,00 0,00 0,00 545,00 111,30 0,00 28/02/2014
279 339300 FABRICIO FERREIRA DA COSTA ESTAGIARIO ATIVO BARBACENA; BARBACENA- 09 PJ 545,00 0,00 0,00 0,00 0,00 0,00 545,00 0,00 0,00 0,00 0,00 545,00 111,30 0,00 28/02/2014
280 100 FACEBER MENEZES ALVES SUB TENENTE ATIVO BELO HORIZONTE - COMARCA; NUCLEO DE OPERACOES DE SEGURANCA ORGANICA 2.152,80 0,00 0,00 0,00 0,00 0,00 2.152,80 0,00 27,38 0,00 27,38 2.125,42 457,00 0,00 28/02/2014
281 345300 FARLEY AUGUSTO LOPO OLIVEIRA ESTAGIARIO ATIVO MONTES CLAROS; MONTES CLAROS-12 PJ 545,00 0,00 0,00 0,00 0,00 0,00 545,00 0,00 0,00 0,00 0,00 545,00 121,90 0,00 28/02/2014
282 253700 FELIPE ALEXANDRE DA SILVEIRA BARBOSA ESTAGIARIO ATIVO LAVRAS; LAVRAS-01 PJ 545,00 0,00 0,00 0,00 0,00 0,00 545,00 0,00 0,00 0,00 0,00 545,00 121,90 0,00 28/02/2014
283 318200 FELIPE BARBOSA FERREIRA ESTAGIARIO ATIVO PATOS DE MINAS; PATOS DE MINAS-06 PJ 545,00 0,00 0,00 0,00 0,00 0,00 545,00 0,00 0,00 0,00 0,00 545,00 121,90 0,00 28/02/2014
284 241100 FELIPE BARBOSA PIRES DE SOUZA ESTAGIARIO ATIVO PEDRO LEOPOLDO; PEDRO LEOPOLDO-02 PJ 545,00 0,00 0,00 0,00 0,00 0,00 545,00 0,00 0,00 0,00 0,00 545,00 58,30 0,00 28/02/2014
285 345400 FELIPE CARDOSO DE MENEZES SOUTO ESTAGIARIO ATIVO BELO HORIZONTE; JUIZO CRIMINAL-12 PJ 545,00 0,00 0,00 0,00 0,00 0,00 545,00 0,00 0,00 0,00 0,00 545,00 121,90 0,00 28/02/2014
286 375000 FELIPE DUTRA QUEIROZ ESTAGIARIO ATIVO UBERABA; UBERABA - 06ª PJ 417,83 0,00 0,00 0,00 0,00 0,00 417,83 0,00 0,00 0,00 0,00 417,83 90,10 0,00 28/02/2014
287 326000 FELIPE FERRERIA FERRAZ ESTAGIARIO ATIVO TEOFILO OTONI; TEOFILO OTONI-07 PJ 545,00 0,00 0,00 0,00 0,00 0,00 545,00 0,00 0,00 0,00 0,00 545,00 95,40 0,00 28/02/2014
288 260500 FELIPE GOMES DE OLIVEIRA ESTAGIARIO ATIVO MANTENA; MANTENA-01 PJ 545,00 0,00 0,00 0,00 0,00 0,00 545,00 0,00 0,00 0,00 0,00 545,00 121,90 0,00 28/02/2014
289 366300 FELIPE MARQUES SALGADO ESTAGIARIO ATIVO BELO HORIZONTE; 18 PJ DEF DIR HUM AP COM CONF AG E FISC POL 545,00 0,00 0,00 0,00 0,00 0,00 545,00 0,00 0,00 0,00 0,00 545,00 121,90 0,00 28/02/2014
290 296600 FELIPE ROCHA DRUMOND ESTAGIARIO ATIVO BELO HORIZONTE; 03ª PJ JUÍZO EMPRESARIAL - ASSESSORIA TÉC 545,00 0,00 0,00 0,00 0,00 0,00 545,00 0,00 0,00 0,00 0,00 545,00 121,90 0,00 28/02/2014
291 345500 FELIPE VAZ DE MELO E SILVA ESTAGIARIO ATIVO BELO HORIZONTE; JUIZADO ESPECIAL CÍVEL E CRIMINAL - 08ª PJ 545,00 0,00 0,00 0,00 0,00 0,00 545,00 0,00 0,00 0,00 0,00 545,00 68,90 0,00 28/02/2014
292 241200 FELIPE VIANA SANTANA ESTAGIARIO ATIVO JANUARIA; JANUARIA-03 PJ 545,00 0,00 0,00 0,00 0,00 0,00 545,00 0,00 0,00 0,00 0,00 545,00 37,10 0,00 28/02/2014
293 357500 FERNANDA ANTUNES RODRIGUES ESTAGIARIO ATIVO BELO HORIZONTE; FAZENDA PUBLICA E EXECUCOES FISCAIS-01 PJ 545,00 0,00 0,00 0,00 0,00 0,00 545,00 0,00 0,00 0,00 0,00 545,00 121,90 0,00 28/02/2014
294 283500 FERNANDA APARECIDA MAIA CAMPOS ESTAGIARIO ATIVO PEDRO LEOPOLDO; PEDRO LEOPOLDO-01 PJ 545,00 0,00 0,00 0,00 0,00 0,00 545,00 0,00 0,00 0,00 0,00 545,00 95,40 0,00 28/02/2014
295 380900 FERNANDA CAROLINA DOS SANTOS FARIA ESTAGIARIO ATIVO BELO HORIZONTE; SUPERINTENDENCIA DE COMUNICACAO INTEGRADA 817,50 0,00 0,00 0,00 0,00 0,00 817,50 0,00 0,00 0,00 0,00 817,50 121,90 0,00 28/02/2014
296 375100 FERNANDA CRISTINA CORTEZ ESTAGIARIO ATIVO FRUTAL; FRUTAL-01 PJ 545,00 0,00 0,00 0,00 0,00 0,00 545,00 0,00 0,00 0,00 0,00 545,00 121,90 0,00 28/02/2014
297 312600 FERNANDA CRISTINA FROES SILVEIRA ESTAGIARIO ATIVO BELO HORIZONTE; JUIZADO ESPECIAL CÍVEL E CRIMINAL - 08ª PJ 545,00 0,00 0,00 0,00 0,00 0,00 545,00 0,00 0,00 0,00 0,00 545,00 121,90 0,00 28/02/2014
298 306800 FERNANDA CRISTINA PAGLIARINI TIBURZIO ESTAGIARIO ATIVO POUSO ALEGRE; POUSO ALEGRE-03 PJ 545,00 0,00 0,00 0,00 0,00 0,00 545,00 0,00 0,00 0,00 0,00 545,00 121,90 0,00 28/02/2014
299 253900 FERNANDA DE CASTRO BRAILE ESTAGIARIO ATIVO Informação não disponível 199,83 0,00 0,00 0,00 0,00 0,00 199,83 0,00 0,00 0,00 0,00 199,83 47,70 0,00 28/02/2014
300 260600 FERNANDA FIGUEIREDO PINTO ESTAGIARIO ATIVO Informação não disponível 545,00 0,00 0,00 0,00 0,00 0,00 545,00 0,00 0,00 0,00 0,00 545,00 121,90 0,00 28/02/2014
301 375200 FERNANDA GOMES LOPES TERRA ESTAGIARIO ATIVO BELO HORIZONTE; GABINETE DOS PROCURADORES 545,00 0,00 0,00 0,00 0,00 0,00 545,00 0,00 0,00 0,00 0,00 545,00 121,90 0,00 28/02/2014
302 371400 FERNANDA MARQUES DE SOUZA ESTAGIARIO ATIVO OURO FINO; OURO FINO-02 PJ 545,00 0,00 0,00 0,00 0,00 0,00 545,00 0,00 0,00 0,00 0,00 545,00 121,90 0,00 28/02/2014
303 350700 FERNANDA OLIVEIRA LAUDARES ESTAGIARIO ATIVO BELO HORIZONTE; JUIZO CRIMINAL-12 PJ 545,00 0,00 0,00 0,00 0,00 0,00 545,00 0,00 0,00 0,00 0,00 545,00 121,90 0,00 28/02/2014
304 278500 FERNANDA PAULA TERRA ROCHA ESTAGIARIO ATIVO JUIZ DE FORA; JUIZ DE FORA-03 PJ 545,00 0,00 0,00 0,00 0,00 0,00 545,00 0,00 0,00 0,00 0,00 545,00 121,90 0,00 28/02/2014
305 320000 FERNANDA RIBEIRO NOGUEIRA DE OLIVEIRA ESTAGIARIO ATIVO ITUIUTABA; ITUIUTABA-03 PJ 545,00 0,00 0,00 0,00 0,00 0,00 545,00 0,00 0,00 0,00 0,00 545,00 74,20 0,00 28/02/2014
306 357600 FERNANDA RIBEIRO PAPANDREA ESTAGIARIO ATIVO JUIZ DE FORA; JUIZ DE FORA-18 PJ 545,00 0,00 0,00 0,00 0,00 0,00 545,00 0,00 0,00 0,00 0,00 545,00 121,90 0,00 28/02/2014
307 375300 FERNANDA ROCHA RODRIGUES ESTAGIARIO ATIVO VICOSA; VICOSA-01 PJ 545,00 0,00 0,00 0,00 0,00 0,00 545,00 0,00 0,00 0,00 0,00 545,00 121,90 0,00 28/02/2014
308 278600 FERNANDA SABRINA SIQUEIRA CAMPOS ESTAGIARIO ATIVO CONTAGEM; CONTAGEM-01 PJ 545,00 0,00 0,00 0,00 0,00 0,00 545,00 0,00 0,00 0,00 0,00 545,00 121,90 0,00 28/02/2014
309 381000 FERNANDA SANTANA DE CAMPOS MATTAR ESTAGIARIO ATIVO BELO HORIZONTE; CENTRAL DE APOIO TECNICO-SETOR DE ENGENHARIA 817,50 0,00 0,00 0,00 0,00 0,00 817,50 0,00 0,00 0,00 0,00 817,50 121,90 0,00 28/02/2014
310 272400 FERNANDO DELFINO DA SILVA NETO ESTAGIARIO ATIVO BELO HORIZONTE; TRIBUNAL DO JURI-07 PJ 545,00 0,00 0,00 0,00 0,00 0,00 545,00 0,00 0,00 0,00 0,00 545,00 121,90 0,00 28/02/2014
311 357700 FERNANDO GONCALVES DE AQUINO ESTAGIARIO ATIVO JUIZ DE FORA; JUIZ DE FORA-09 PJ 545,00 0,00 0,00 0,00 0,00 0,00 545,00 0,00 0,00 0,00 0,00 545,00 121,90 0,00 28/02/2014
312 389700 FERNANDO HENRIQUE RIBEIRO ESTAGIARIO ATIVO ITAUNA; ITAUNA-01 PJ 272,50 0,00 0,00 0,00 0,00 0,00 272,50 0,00 0,00 0,00 0,00 272,50 58,30 0,00 28/02/2014
313 312900 FERNANDO TADEU VIEIRA NOGUEIRA ESTAGIARIO ATIVO BELO HORIZONTE; GABINETE DOS PROCURADORES 72,67 0,00 0,00 0,00 0,00 0,00 72,67 0,00 0,00 0,00 0,00 72,67 21,20 0,00 28/02/2014
314 272500 FLAVIA DIAS DUARTE E SILVA ESTAGIARIO ATIVO BELO HORIZONTE; PATRIMONIO PUBLICO-17 PJ 545,00 0,00 0,00 0,00 0,00 0,00 545,00 0,00 0,00 0,00 0,00 545,00 121,90 0,00 28/02/2014
315 283800 FLAVIA GISELE DA SILVA ESTAGIARIO ATIVO CONSELHEIRO LAFAIETE; CONSELHEIRO LAFAIETE-03 PJ 545,00 0,00 0,00 0,00 0,00 0,00 545,00 0,00 0,00 0,00 0,00 545,00 121,90 0,00 28/02/2014
316 362200 FLAVIA SILVERIO SILVA ESTAGIARIO ATIVO ALPINOPOLIS; ALPINOPOLIS - PJ ÚNICA 545,00 0,00 0,00 0,00 0,00 0,00 545,00 0,00 0,00 0,00 0,00 545,00 169,60 545,00 28/02/2014
317 82 FLAVIANE LENIMAR VIEIRA BRANDAO SILVA CABO ATIVO BELO HORIZONTE - COMARCA; COORD ESTADUAL COMBATE CRIMES CIBERNETICOS 1.280,94 0,00 0,00 0,00 0,00 0,00 1.280,94 0,00 0,00 0,00 0,00 1.280,94 457,00 0,00 28/02/2014
318 287400 FLAVIANY FARIA SOARES BRANDAO ESTAGIARIO ATIVO SETE LAGOAS; SETE LAGOAS-01 PJ 545,00 0,00 0,00 0,00 0,00 0,00 545,00 0,00 0,00 0,00 0,00 545,00 121,90 0,00 28/02/2014
319 381200 FLAVIO PEIXOTO DE ALMEIDA ESTAGIARIO ATIVO BELO HORIZONTE; DIRETORIA DE SUPORTE E MANUTENCAO 817,50 0,00 0,00 0,00 0,00 0,00 817,50 0,00 0,00 0,00 0,00 817,50 174,90 545,00 28/02/2014
320 375400 FLAVIO VALADARES MOREIRA ESTAGIARIO ATIVO DIVINOPOLIS; DIVINOPOLIS-04 PJ 545,00 0,00 0,00 0,00 0,00 0,00 545,00 0,00 0,00 0,00 0,00 545,00 100,70 0,00 28/02/2014
321 90 FORTUNATO TOBIAS SUB TENENTE ATIVO BELO HORIZONTE - COMARCA; GAECO - SECRETARIA 2.152,80 0,00 0,00 0,00 0,00 0,00 2.152,80 0,00 27,38 0,00 27,38 2.125,42 457,00 0,00 28/02/2014
322 313000 FRANCIANE CAROLINA DE SOUZA ESTAGIARIO ATIVO GALILEIA; GALILEIA - PJ ÚNICA 545,00 0,00 0,00 0,00 0,00 0,00 545,00 0,00 0,00 0,00 0,00 545,00 121,90 0,00 28/02/2014
323 345700 FRANCIANE ELIAS FERREIRA ESTAGIARIO ATIVO BELO HORIZONTE; DEFESA DA SAUDE-19 PJ 545,00 0,00 0,00 0,00 0,00 0,00 545,00 0,00 0,00 0,00 0,00 545,00 121,90 0,00 28/02/2014
324 389900 FRANCIELLE LAIA ROCHA ESTAGIARIO ATIVO GOVERNADOR VALADARES; GOVERNADOR VALADARES-15 PJ 272,50 0,00 0,00 0,00 0,00 0,00 272,50 0,00 0,00 0,00 0,00 272,50 58,30 0,00 28/02/2014
325 345800 FRANCIELLY DE PAIVA OLIVEIRA ESTAGIARIO ATIVO BETIM; BETIM-11 PJ 526,83 0,00 0,00 0,00 0,00 0,00 526,83 0,00 0,00 0,00 0,00 526,83 116,60 0,00 28/02/2014
326 381300 FRANCINELE DA SILVA TOMAZ ESTAGIARIO ATIVO BELO HORIZONTE; PROCON-MG-GAB DO COORDENADOR DO PROCON-MG 817,50 0,00 0,00 0,00 0,00 0,00 817,50 0,00 0,00 0,00 0,00 817,50 121,90 0,00 28/02/2014
327 375500 FRANCINI APARECIDA DE OLIVEIRA ESTAGIARIO ATIVO JOAO MONLEVADE; JOAO MONLEVADE-01 PJ 545,00 0,00 0,00 0,00 0,00 0,00 545,00 0,00 0,00 0,00 0,00 545,00 121,90 0,00 28/02/2014
328 381400 GABRIEL BICALHO DE OLIVEIRA ESTAGIARIO ATIVO BELO HORIZONTE; SUPERINTENDENCIA DE TECNOLOGIA DA INFORMACAO 817,50 0,00 0,00 0,00 0,00 0,00 817,50 0,00 0,00 0,00 0,00 817,50 121,90 0,00 28/02/2014
329 272700 GABRIEL GERALDO DE OLIVEIRA ESTAGIARIO ATIVO ITAUNA; ITAUNA-02 PJ 545,00 0,00 0,00 0,00 0,00 0,00 545,00 0,00 0,00 0,00 0,00 545,00 121,90 0,00 28/02/2014
330 272800 GABRIEL JOSE DE OLIVEIRA ESTAGIARIO ATIVO SANTO ANTONIO DO MONTE; SANTO ANTONIO DO MONTE - PJ ÚNICA 545,00 0,00 0,00 0,00 0,00 0,00 545,00 0,00 0,00 0,00 0,00 545,00 121,90 0,00 28/02/2014
331 366400 GABRIEL OLIVEIRA DE AGUIAR BORGES ESTAGIARIO ATIVO UBERLANDIA; UBERLANDIA-03 PJ 545,00 0,00 0,00 0,00 0,00 0,00 545,00 0,00 0,00 0,00 0,00 545,00 121,90 0,00 28/02/2014
332 381500 GABRIEL PEREIRA DE SOUZA ESTAGIARIO ATIVO BELO HORIZONTE; CENTRO DE ESTUDOS E APERFEICOAMENTO FUNCIONAL 817,50 0,00 0,00 0,00 0,00 0,00 817,50 0,00 0,00 0,00 0,00 817,50 121,90 0,00 28/02/2014
333 345900 GABRIELA ALVES LIMA JALES BRAGA ESTAGIARIO ATIVO ITABIRITO; ITABIRITO-01 PJ 545,00 0,00 0,00 0,00 0,00 0,00 545,00 0,00 0,00 0,00 0,00 545,00 121,90 0,00 28/02/2014
334 276900 GABRIELA APARECIDA RODRIGUES ESTAGIARIO ATIVO SANTA LUZIA; SANTA LUZIA-02 PJ 545,00 0,00 0,00 0,00 0,00 0,00 545,00 0,00 0,00 0,00 0,00 545,00 116,60 0,00 28/02/2014
335 339600 GABRIELA ASSIS VAZ BATISTA ESTAGIARIO ATIVO NOVA LIMA; NOVA LIMA-03 PJ 545,00 0,00 0,00 0,00 0,00 0,00 545,00 0,00 0,00 0,00 0,00 545,00 121,90 0,00 28/02/2014
336 320100 GABRIELA CRISTINA FERREIRA DA SILVA ESTAGIARIO ATIVO OURO PRETO; OURO PRETO-04 PJ 545,00 0,00 0,00 0,00 0,00 0,00 545,00 0,00 0,00 0,00 0,00 545,00 121,90 0,00 28/02/2014
337 350800 GABRIELA CRISTINA SILVA DE ARAUJO ESTAGIARIO ATIVO JUIZ DE FORA; JUIZ DE FORA-08 PJ 545,00 0,00 0,00 0,00 0,00 0,00 545,00 0,00 0,00 0,00 0,00 545,00 121,90 0,00 28/02/2014
338 254200 GABRIELA MONTEIRO LEITE ESTAGIARIO ATIVO CARANGOLA; CARANGOLA-03 PJ 545,00 0,00 0,00 0,00 0,00 0,00 545,00 0,00 0,00 0,00 0,00 545,00 121,90 0,00 28/02/2014
339 339500 GABRIELLA APARECIDA DE CASTRO DUTRA ESTAGIARIO ATIVO DIVINOPOLIS; DIVINOPOLIS-09 PJ 545,00 0,00 0,00 0,00 0,00 0,00 545,00 0,00 0,00 0,00 0,00 545,00 121,90 0,00 28/02/2014
340 339700 GABRIELLA DE PAULA MACIEL ESTAGIARIO ATIVO BELO HORIZONTE; JUIZO DE FAMILIA-02 PJ 545,00 0,00 0,00 0,00 0,00 0,00 545,00 0,00 0,00 0,00 0,00 545,00 121,90 0,00 28/02/2014
341 375600 GABRIELLE MORAIS COSTA DIAS ESTAGIARIO ATIVO MACHADO; MACHADO-02 PJ 545,00 0,00 0,00 0,00 0,00 0,00 545,00 0,00 0,00 0,00 0,00 545,00 121,90 0,00 28/02/2014
342 278700 GEORGIA MARIA BATISTA DA SILVA LUCAS ESTAGIARIO ATIVO TIMOTEO; TIMOTEO-02 PJ 545,00 0,00 0,00 0,00 0,00 0,00 545,00 0,00 0,00 0,00 0,00 545,00 121,90 0,00 28/02/2014
343 371500 GEOVANI COELHO DE OLIVEIRA ESTAGIARIO ATIVO GOVERNADOR VALADARES; GOVERNADOR VALADARES-12 PJ 545,00 0,00 0,00 0,00 0,00 0,00 545,00 0,00 0,00 0,00 0,00 545,00 116,60 0,00 28/02/2014
344 381600 GERANA SANTOS VIEIRA ESTAGIARIO ATIVO BELO HORIZONTE; CENTRAL DE APOIO TECNICO-SETOR CONTABIL 817,50 0,00 0,00 0,00 0,00 0,00 817,50 0,00 0,00 0,00 0,00 817,50 121,90 0,00 28/02/2014
345 355900 GERLAINE MARIA DO CARMO TOMAZ ESTAGIARIO ATIVO SERRO; SERRO - PJ ÚNICA 545,00 0,00 0,00 0,00 0,00 0,00 545,00 0,00 0,00 0,00 0,00 545,00 121,90 0,00 28/02/2014
346 334500 GESSICA BARROSO GUIMARAES ESTAGIARIO ATIVO ARACUAI; EXTINTA-COORD BACIAS JEQUITINHONHA E PARDO 454,17 0,00 0,00 0,00 0,00 0,00 454,17 0,00 0,00 0,00 0,00 454,17 47,70 0,00 28/02/2014
347 326100 GESSICA CAROLINE ALVES DE SOUZA ESTAGIARIO ATIVO JANAUBA; JANAUBA-02 PJ 545,00 0,00 0,00 0,00 0,00 0,00 545,00 0,00 0,00 0,00 0,00 545,00 121,90 0,00 28/02/2014
348 357800 GESSICA NAIRA BATISTA FERREIRA ESTAGIARIO ATIVO CARATINGA; CARATINGA-04 PJ 545,00 0,00 0,00 0,00 0,00 0,00 545,00 0,00 0,00 0,00 0,00 545,00 121,90 0,00 28/02/2014
349 266300 GESSIKA SAMPAIO DA FONSECA ESTAGIARIO ATIVO UBERLANDIA; UBERLANDIA-10 PJ 545,00 0,00 0,00 0,00 0,00 0,00 545,00 0,00 0,00 0,00 0,00 545,00 121,90 0,00 28/02/2014
350 364600 GETULIO DE SOUSA BATISTA ESTAGIARIO ATIVO CABO VERDE; CABO VERDE - PJ ÚNICA 545,00 0,00 0,00 0,00 0,00 0,00 545,00 0,00 0,00 0,00 0,00 545,00 121,90 0,00 28/02/2014
351 303000 GIANY DE SOUSA SOUTO ESTAGIARIO ATIVO CAMPO BELO; CAMPO BELO-03 PJ 545,00 0,00 0,00 0,00 0,00 0,00 545,00 0,00 0,00 0,00 0,00 545,00 121,90 0,00 28/02/2014
352 320200 GIL SCHIAVON MACHADO ESTAGIARIO ATIVO BELO HORIZONTE; JUIZO CRIMINAL-12 PJ 36,33 0,00 0,00 0,00 0,00 0,00 36,33 0,00 0,00 0,00 0,00 36,33 10,60 0,00 28/02/2014
353 346100 GILDO FRANCISCO DA SILVA ESTAGIARIO ATIVO BELO HORIZONTE; PROC. JUSTICA DIR. DIFUSOS E COLETIVOS 545,00 0,00 0,00 0,00 0,00 0,00 545,00 0,00 0,00 0,00 0,00 545,00 95,40 0,00 28/02/2014
354 334600 GILSON EZEQUIEL DO COUTO ESTAGIARIO ATIVO JUIZ DE FORA; JUIZ DE FORA-24 PJ 545,00 0,00 0,00 0,00 0,00 0,00 545,00 0,00 0,00 0,00 0,00 545,00 121,90 0,00 28/02/2014
355 21 GILVAN DA COSTA LIMA 3O.SARGENTO ATIVO BELO HORIZONTE - COMARCA; COORD DE PLANEJAMENTO INSTITUCIONAL 1.477,90 0,00 0,00 0,00 0,00 0,00 1.477,90 0,00 0,00 0,00 0,00 1.477,90 457,00 0,00 28/02/2014
356 375700 GIOVANA ANDREIA GONTIJO LESE ESTAGIARIO ATIVO UBERLANDIA; UBERLANDIA-21 PJ 545,00 0,00 0,00 0,00 0,00 0,00 545,00 0,00 0,00 0,00 0,00 545,00 121,90 0,00 28/02/2014
357 273100 GIOVANA APARECIDA SABINO ESTAGIARIO ATIVO BELO HORIZONTE; 18 PJ DEF DIR HUM AP COM CONF AG E FISC POL 399,67 0,00 0,00 0,00 0,00 0,00 399,67 0,00 0,00 0,00 0,00 399,67 0,00 0,00 28/02/2014
358 326200 GIOVANNA LEITE NUNES COELHO ESTAGIARIO ATIVO BELO HORIZONTE; DEFESA DE HABITACAO E URBANISMO-16 PJ 545,00 0,00 0,00 0,00 0,00 0,00 545,00 0,00 0,00 0,00 0,00 545,00 121,90 0,00 28/02/2014
359 270300 GIOVANNI DE SALLES COSTA ESTAGIARIO ATIVO BELO HORIZONTE; JUIZO DE FAMILIA-02 PJ 545,00 0,00 0,00 0,00 0,00 0,00 545,00 0,00 0,00 0,00 0,00 545,00 121,90 0,00 28/02/2014
360 273000 GISELE KAROLINE MARTINS VIEIRA ESTAGIARIO ATIVO BELO HORIZONTE; JUIZO CRIMINAL-12 PJ 145,33 0,00 0,00 0,00 0,00 0,00 145,33 0,00 0,00 0,00 0,00 145,33 31,80 0,00 28/02/2014
361 381700 GISLENE FERRAZ MARTINS ESTAGIARIO ATIVO BELO HORIZONTE; CRIANÇAS E ADOLESCENTES-23 PJ-INFRACIONAL 817,50 0,00 0,00 0,00 0,00 0,00 817,50 0,00 0,00 0,00 0,00 817,50 121,90 0,00 28/02/2014
362 339800 GLAUCIA DANIELA ALVES ESTAGIARIO ATIVO UBERABA; UBERABA-10 PJ 545,00 0,00 0,00 0,00 0,00 0,00 545,00 0,00 0,00 0,00 0,00 545,00 121,90 0,00 28/02/2014
363 303100 GLEISON JOSE PEREIRA MARTINS ESTAGIARIO ATIVO BRUMADINHO; BRUMADINHO-02 PJ 545,00 0,00 0,00 0,00 0,00 0,00 545,00 0,00 0,00 0,00 0,00 545,00 121,90 0,00 28/02/2014
364 303200 GLEISSA MENDONCA FRIA CARDOSO ESTAGIARIO ATIVO CANAPOLIS; CANAPOLIS - PJ ÚNICA 436,00 0,00 0,00 0,00 0,00 0,00 436,00 0,00 0,00 0,00 0,00 436,00 90,10 0,00 28/02/2014
365 290000 GLEYCIELE GOMES ALVES SILVA ESTAGIARIO ATIVO UNAI; UNAI-03 PJ 545,00 0,00 0,00 0,00 0,00 0,00 545,00 0,00 0,00 0,00 0,00 545,00 121,90 0,00 28/02/2014
366 381800 GRACIANA DE ALMEIDA DOS SANTOS ESTAGIARIO ATIVO BELO HORIZONTE; EXTINTA - DIRETORIA SERVIÇOS GERAIS E TRANS 817,50 0,00 0,00 0,00 0,00 0,00 817,50 0,00 0,00 0,00 0,00 817,50 121,90 0,00 28/02/2014
367 320300 GRAZIELA CUPERTINO DE OLIVEIRA ESTAGIARIO ATIVO BELO HORIZONTE; DEFESA DA SAUDE-19 PJ 508,67 0,00 0,00 0,00 0,00 0,00 508,67 0,00 0,00 0,00 0,00 508,67 111,30 0,00 28/02/2014
368 303300 GRAZIELE MENDES DE FREITAS ESTAGIARIO ATIVO RIBEIRAO DAS NEVES; RIBEIRAO DAS NEVES-02 PJ 545,00 0,00 0,00 0,00 0,00 0,00 545,00 0,00 0,00 0,00 0,00 545,00 31,80 0,00 28/02/2014
369 390000 GREICIELLE FARIA PIRES ESTAGIARIO ATIVO CAMPOS ALTOS; CAMPOS ALTOS - PJ ÚNICA 272,50 0,00 0,00 0,00 0,00 0,00 272,50 0,00 0,00 0,00 0,00 272,50 58,30 0,00 28/02/2014
370 381900 GUILHERME BONSANTO DERIZ ESTAGIARIO ATIVO BELO HORIZONTE; DIRETORIA DE PRODUCAO EDITORIAL 817,50 0,00 0,00 0,00 0,00 0,00 817,50 0,00 0,00 0,00 0,00 817,50 121,90 0,00 28/02/2014
371 296900 GUILHERME CASELHONE CHAGAS ESTAGIARIO ATIVO UBERLANDIA; UBERLANDIA-01 PJ 545,00 0,00 0,00 0,00 0,00 0,00 545,00 0,00 0,00 0,00 0,00 545,00 121,90 0,00 28/02/2014
372 326300 GUILHERME DE OLIVEIRAS RAMOS ESTAGIARIO ATIVO UBERABA; UBERABA-08 PJ 545,00 0,00 0,00 0,00 0,00 0,00 545,00 0,00 0,00 0,00 0,00 545,00 121,90 0,00 28/02/2014
373 307300 GUILHERME FERREIRA GUIMARAES ESTAGIARIO ATIVO JOAO MONLEVADE; JOAO MONLEVADE-02 PJ 545,00 0,00 0,00 0,00 0,00 0,00 545,00 0,00 0,00 0,00 0,00 545,00 116,60 0,00 28/02/2014
374 339900 GUILHERME FRANCISCO SOUZA AMARAL ESTAGIARIO ATIVO BELO HORIZONTE; JUIZO CRIMINAL-12 PJ 545,00 0,00 0,00 0,00 0,00 0,00 545,00 0,00 0,00 0,00 0,00 545,00 121,90 0,00 28/02/2014
375 351000 GUILHERME NOGUEIRA SANTOS ESTAGIARIO ATIVO JUIZ DE FORA; JUIZ DE FORA-13 PJ 545,00 0,00 0,00 0,00 0,00 0,00 545,00 0,00 0,00 0,00 0,00 545,00 121,90 0,00 28/02/2014
376 357900 GUILHERME PERERIA DA FONSECA ESTAGIARIO ATIVO BELO HORIZONTE; TOXICOS-13 PJ 545,00 0,00 0,00 0,00 0,00 0,00 545,00 0,00 0,00 0,00 0,00 545,00 121,90 0,00 28/02/2014
377 362300 GUILHERME SOUZA VICTOR DE CARVALHO ESTAGIARIO ATIVO BELO HORIZONTE; GABINETE DOS PROCURADORES 545,00 0,00 0,00 0,00 0,00 0,00 545,00 0,00 0,00 0,00 0,00 545,00 121,90 0,00 28/02/2014
378 340000 GUILHERME VIEIRA DE MAGALHAES ESTAGIARIO ATIVO POCOS DE CALDAS; POCOS DE CALDAS-01 PJ 545,00 0,00 0,00 0,00 0,00 0,00 545,00 0,00 0,00 0,00 0,00 545,00 121,90 0,00 28/02/2014
379 346300 GUNTHER ASSUNCAO COSTA ESTAGIARIO ATIVO BELO HORIZONTE; JUIZADO ESPECIAL CÍVEL E CRIMINAL - 08ª PJ 545,00 0,00 0,00 0,00 0,00 0,00 545,00 0,00 0,00 0,00 0,00 545,00 121,90 0,00 28/02/2014
380 320500 GUSTAVO AGUIAR LOPES ESTAGIARIO ATIVO MANHUACU; MANHUACU-04 PJ 545,00 0,00 0,00 0,00 0,00 0,00 545,00 0,00 0,00 0,00 0,00 545,00 121,90 0,00 28/02/2014
381 261000 GUSTAVO DOS REIS NETO GUIMARAES ESTAGIARIO ATIVO LAVRAS; LAVRAS- SECRETARIA DAS PROMOTORIAS 545,00 0,00 0,00 0,00 0,00 0,00 545,00 0,00 0,00 0,00 0,00 545,00 121,90 0,00 28/02/2014
382 375800 GUSTAVO RIBEIRO BARROSO ALVARENGA ESTAGIARIO ATIVO SAO GOTARDO; SAO GOTARDO - PJ ÚNICA 545,00 0,00 0,00 0,00 0,00 0,00 545,00 0,00 0,00 0,00 0,00 545,00 121,90 0,00 28/02/2014
383 382000 HEBERT GERSON SOARES JUNIOR ESTAGIARIO ATIVO BELO HORIZONTE; MEIO AMB PATRIM HISTORICO E CULTURAL-15 PJ 817,50 0,00 0,00 0,00 0,00 0,00 817,50 0,00 0,00 0,00 0,00 817,50 121,90 0,00 28/02/2014
384 358000 HECTOR CHAVES RIBEIRO FRANCA GUIMARAES ESTAGIARIO ATIVO JUIZ DE FORA; JUIZ DE FORA-15 PJ 545,00 0,00 0,00 0,00 0,00 0,00 545,00 0,00 0,00 0,00 0,00 545,00 121,90 0,00 28/02/2014
385 273200 HECTOR LUIZ REIS ESTAGIARIO ATIVO VARGINHA; VARGINHA-02 PJ 545,00 0,00 0,00 0,00 0,00 0,00 545,00 0,00 0,00 0,00 0,00 545,00 121,90 0,00 28/02/2014
386 375900 HEITOR CAIXETA RESENDE ESTAGIARIO ATIVO UBERLANDIA; UBERLANDIA-09 PJ 545,00 0,00 0,00 0,00 0,00 0,00 545,00 0,00 0,00 0,00 0,00 545,00 121,90 0,00 28/02/2014
387 358100 HEITOR JANUZZI DELFINO DE PAULA ESTAGIARIO ATIVO BELO HORIZONTE; GABINETE DOS PROCURADORES 545,00 0,00 0,00 0,00 0,00 0,00 545,00 0,00 0,00 0,00 0,00 545,00 121,90 0,00 28/02/2014
388 326400 HELCIO VILELA SILVA JUNIOR ESTAGIARIO ATIVO SAO GONCALO DO SAPUCAI; SAO GONCALO DO SAPUCAI-01 PJ 545,00 0,00 0,00 0,00 0,00 0,00 545,00 0,00 0,00 0,00 0,00 545,00 121,90 0,00 28/02/2014
389 351100 HELIDA DE CASSIA MOURA RICARDO ESTAGIARIO ATIVO IPATINGA; IPATINGA-04 PJ 545,00 0,00 0,00 0,00 0,00 0,00 545,00 0,00 0,00 0,00 0,00 545,00 121,90 0,00 28/02/2014
390 390100 HELIO REIS FARIA JUNIOR ESTAGIARIO ATIVO Informação não disponível 272,50 0,00 0,00 0,00 0,00 0,00 272,50 0,00 0,00 0,00 0,00 272,50 58,30 0,00 28/02/2014
391 261200 HELIO VINICIUS LIMA DUTRA ESTAGIARIO ATIVO ITANHOMI; ITANHOMI - PJ ÚNICA 545,00 0,00 0,00 0,00 0,00 0,00 545,00 0,00 0,00 0,00 0,00 545,00 121,90 0,00 28/02/2014
392 297100 HENRIQUE CEOLA ESTAGIARIO ATIVO UNAI; UNAI-04 PJ 545,00 0,00 0,00 0,00 0,00 0,00 545,00 0,00 0,00 0,00 0,00 545,00 116,60 545,00 28/02/2014
393 320600 HENRIQUE DE OLIVEIRA RIBEIRO ESTAGIARIO ATIVO MONTES CLAROS; MONTES CLAROS-04 PJ 545,00 0,00 0,00 0,00 0,00 0,00 545,00 0,00 0,00 0,00 0,00 545,00 121,90 0,00 28/02/2014
394 376000 HENRIQUE MACIEL KHIPP ESTAGIARIO ATIVO BELO HORIZONTE; COMBATE AO CRIME ORGANIZADO-11 PJ- SECRETARIA 545,00 0,00 0,00 0,00 0,00 0,00 545,00 0,00 0,00 0,00 0,00 545,00 121,90 0,00 28/02/2014
395 273300 HENRIQUE PEREIRA RIBEIRO ESTAGIARIO ATIVO BELO HORIZONTE; GABINETE DOS PROCURADORES 545,00 0,00 0,00 0,00 0,00 0,00 545,00 0,00 0,00 0,00 0,00 545,00 121,90 0,00 28/02/2014
396 390200 HENRIQUE SILVEIRA NOGUEIRA ESTAGIARIO ATIVO TEIXEIRAS; TEIXEIRAS - PJ ÚNICA 272,50 0,00 0,00 0,00 0,00 0,00 272,50 0,00 0,00 0,00 0,00 272,50 58,30 0,00 28/02/2014
397 326500 HENRIQUE TELES GALVAO ESTAGIARIO ATIVO BELO HORIZONTE; CRIANÇAS E ADOLESCENTES-23 PJ-CIVEL 545,00 0,00 0,00 0,00 0,00 0,00 545,00 0,00 0,00 0,00 0,00 545,00 121,90 0,00 28/02/2014
398 79 HERICK GUILHERME DE MELO ESCRIVAO DE POLICIA ATIVO 1.526,44 0,00 0,00 0,00 508,81 0,00 2.035,25 0,00 18,56 0,00 18,56 2.016,69 457,00 0,00 28/02/2014
399 58 HERIKA ALONSO CICARELLI FONSECA 1O. SARGENTO ATIVO BELO HORIZONTE - COMARCA; COORD ESTADUAL COMBATE CRIMES CIBERNETICOS 1.918,66 0,00 0,00 0,00 0,00 0,00 1.918,66 0,00 9,82 0,00 9,82 1.908,84 457,00 0,00 28/02/2014
400 34 HUDSON SILVA GOMES 1O. SARGENTO ATIVO BELO HORIZONTE - COMARCA; GAECO - SECRETARIA 1.918,66 0,00 0,00 0,00 0,00 0,00 1.918,66 0,00 9,82 0,00 9,82 1.908,84 457,00 0,00 28/02/2014
401 358200 HUGO DE SOUZA REIS ESTAGIARIO ATIVO BELO HORIZONTE; JUIZO CRIMINAL-12 PJ 545,00 0,00 0,00 0,00 0,00 0,00 545,00 0,00 0,00 0,00 0,00 545,00 121,90 0,00 28/02/2014
402 382100 HUGO LEONARDO ALVES FLORES ESTAGIARIO ATIVO BELO HORIZONTE; SUPERINTENDENCIA DE TECNOLOGIA DA INFORMACAO 817,50 0,00 0,00 0,00 0,00 0,00 817,50 0,00 0,00 0,00 0,00 817,50 121,90 0,00 28/02/2014
403 297300 HYLANA CARVALHO MOTTA ESTAGIARIO ATIVO UBERLANDIA; UBERLANDIA-01 PJ 545,00 0,00 0,00 0,00 0,00 0,00 545,00 0,00 0,00 0,00 0,00 545,00 121,90 0,00 28/02/2014
404 366500 IARA CARLOTA LOURENCO EUCLYDES DE SOUSA ESTAGIARIO ATIVO BELO HORIZONTE; GABINETE DOS PROCURADORES 545,00 0,00 0,00 0,00 0,00 0,00 545,00 0,00 0,00 0,00 0,00 545,00 121,90 0,00 28/02/2014
405 284000 IGHOR MATTOS GRANADO ESTAGIARIO ATIVO BICAS; BICAS - PJ ÚNICA 545,00 0,00 0,00 0,00 0,00 0,00 545,00 0,00 0,00 0,00 0,00 545,00 100,70 0,00 28/02/2014
406 376100 IGOR ANDRADE CARVALHO ESTAGIARIO ATIVO VISCONDE DO RIO BRANCO; VISCONDE DO RIO BRANCO-03 PJ 545,00 0,00 0,00 0,00 0,00 0,00 545,00 0,00 0,00 0,00 0,00 545,00 121,90 0,00 28/02/2014
407 340100 IGOR FONSECA AFONSO ESTAGIARIO ATIVO ARAGUARI; ARAGUARI-02 PJ 545,00 0,00 0,00 0,00 0,00 0,00 545,00 0,00 0,00 0,00 0,00 545,00 121,90 0,00 28/02/2014
408 390300 IGOR FRANZINI CARRARA ESTAGIARIO ATIVO CATAGUASES; CATAGUASES-01 PJ 254,33 0,00 0,00 0,00 0,00 0,00 254,33 0,00 0,00 0,00 0,00 254,33 53,00 0,00 28/02/2014
409 358300 IGOR MORAES SANTOS ESTAGIARIO ATIVO BELO HORIZONTE; AUDITORIA MILITAR-09 PJ 545,00 0,00 0,00 0,00 0,00 0,00 545,00 0,00 0,00 0,00 0,00 545,00 121,90 0,00 28/02/2014
410 376200 IGOR XAVIER PONTES ESTAGIARIO ATIVO DIVINOPOLIS; DIVINOPOLIS-01 PJ 545,00 0,00 0,00 0,00 0,00 0,00 545,00 0,00 0,00 0,00 0,00 545,00 121,90 0,00 28/02/2014
411 273400 ILIHA KAROLIN-KERR NOGUEIRA ESTAGIARIO ATIVO CONTAGEM; CONTAGEM-22 PJ 545,00 0,00 0,00 0,00 0,00 0,00 545,00 0,00 0,00 0,00 0,00 545,00 100,70 0,00 28/02/2014
412 273500 ILYDIA FONSECA DE MORAES ESTAGIARIO ATIVO BELO HORIZONTE; TRIBUNAL DO JURI-07 PJ 545,00 0,00 0,00 0,00 0,00 0,00 545,00 0,00 0,00 0,00 0,00 545,00 121,90 0,00 28/02/2014
413 351300 INGRID DAYANE MARQUES ESTAGIARIO ATIVO NOVA LIMA; NOVA LIMA-03 PJ 545,00 0,00 0,00 0,00 0,00 0,00 545,00 0,00 0,00 0,00 0,00 545,00 100,70 0,00 28/02/2014
414 351400 INGRID LAYRA DA SILVA XAVIER ESTAGIARIO ATIVO Informação não disponível 545,00 0,00 0,00 0,00 0,00 0,00 545,00 0,00 0,00 0,00 0,00 545,00 121,90 0,00 28/02/2014
415 250900 INGRID MACHADO ROQUE ESTAGIARIO ATIVO CONGONHAS; CONGONHAS-01 PJ 545,00 0,00 0,00 0,00 0,00 0,00 545,00 0,00 0,00 0,00 0,00 545,00 121,90 0,00 28/02/2014
416 382200 IRADE NAAMA DE OLIVEIRA ESTAGIARIO ATIVO BELO HORIZONTE; CENTRAL DE APOIO TECNICO-SETOR CONTABIL 817,50 0,00 0,00 0,00 0,00 0,00 817,50 0,00 0,00 0,00 0,00 817,50 121,90 299,75 28/02/2014
417 340300 ISABELA ALVES CARDOSO ESTAGIARIO ATIVO BELO HORIZONTE; JUIZO CRIMINAL-12 PJ 545,00 0,00 0,00 0,00 0,00 0,00 545,00 0,00 0,00 0,00 0,00 545,00 121,90 0,00 28/02/2014
418 258700 ISABELA CAMPOS SILVA ESTAGIARIO ATIVO BELO HORIZONTE; COORD DE CONTROLE DA CONSTITUCIONALIDADE 545,00 0,00 0,00 0,00 0,00 0,00 545,00 0,00 0,00 0,00 0,00 545,00 111,30 0,00 28/02/2014
419 313200 ISABELA CARVALHO LOURENCO ESTAGIARIO ATIVO MURIAE; MURIAE-03 PJ 545,00 0,00 0,00 0,00 0,00 0,00 545,00 0,00 0,00 0,00 0,00 545,00 121,90 0,00 28/02/2014
420 340400 ISABELA CRISTIANE DE SIQUEIRA OLIVEIRA ESTAGIARIO ATIVO BELO HORIZONTE; PROMOT ESTADUAL DE DEF PATRI CULT E TUR DE MG 545,00 0,00 0,00 0,00 0,00 0,00 545,00 0,00 0,00 0,00 0,00 545,00 121,90 0,00 28/02/2014
421 320900 ISABELA DORNELAS DE OLIVEIRA FERREIRA PRADO ESTAGIARIO ATIVO Informação não disponível 545,00 0,00 0,00 0,00 0,00 0,00 545,00 0,00 0,00 0,00 0,00 545,00 121,90 0,00 28/02/2014
422 326600 ISABELA FRANCA FARIA ESTAGIARIO ATIVO BELO HORIZONTE; 23ª PJ DEF DIREITOS CRIANÇAS E ADOLESCENTES 545,00 0,00 0,00 0,00 0,00 0,00 545,00 0,00 0,00 0,00 0,00 545,00 121,90 0,00 28/02/2014
423 366600 ISABELA LUCENA ANTUNES ESTAGIARIO ATIVO BELO HORIZONTE; PROC. JUSTICA DIR. DIFUSOS E COLETIVOS 545,00 0,00 0,00 0,00 0,00 0,00 545,00 0,00 0,00 0,00 0,00 545,00 121,90 0,00 28/02/2014
424 351500 ISABELA MARTINS MAIA ESTAGIARIO ATIVO CONTAGEM; CONTAGEM-12 PJ 545,00 0,00 0,00 0,00 0,00 0,00 545,00 0,00 0,00 0,00 0,00 545,00 121,90 0,00 28/02/2014
425 107 ISABELLA PINTO INVESTIGADOR DE POLICIA 2 ATIVO CONTAGEM - COMARCA; COORD REG DEF ORDEM ECONOMICA TRIB CONTAGEM 1.345,78 0,00 0,00 0,00 0,00 0,00 1.345,78 0,00 0,00 0,00 0,00 1.345,78 457,00 0,00 28/02/2014
426 366700 ISABELLA PRISCILA GONCALVES LAGE ESTAGIARIO ATIVO BELO HORIZONTE; 23ª PJ DEF DIREITOS CRIANÇAS E ADOLESCENTES 327,00 0,00 0,00 0,00 0,00 0,00 327,00 0,00 0,00 0,00 0,00 327,00 68,90 0,00 28/02/2014
427 266500 ISABELLA RODRIGUES JERONIMO ESTAGIARIO ATIVO LAVRAS; LAVRAS-04 PJ 545,00 0,00 0,00 0,00 0,00 0,00 545,00 0,00 0,00 0,00 0,00 545,00 121,90 0,00 28/02/2014
428 366800 ISABELLA SANTOS GUIMARAES ESTAGIARIO ATIVO Informação não disponível 545,00 0,00 0,00 0,00 0,00 0,00 545,00 0,00 0,00 0,00 0,00 545,00 121,90 0,00 28/02/2014
429 362400 ISADORA FERNANDES MARIOZA ESTAGIARIO ATIVO OURO BRANCO; OURO BRANCO - PJ ÚNICA 545,00 0,00 0,00 0,00 0,00 0,00 545,00 0,00 0,00 0,00 0,00 545,00 121,90 0,00 28/02/2014
430 351600 ISADORA LISBOA MASSULA ESTAGIARIO ATIVO BELO HORIZONTE; JUIZO CRIMINAL-12 PJ 199,83 0,00 0,00 0,00 0,00 0,00 199,83 0,00 0,00 0,00 0,00 199,83 47,70 0,00 28/02/2014
431 334800 ISAIAS DANIEL FERNANDES LUCAS ESTAGIARIO ATIVO Informação não disponível 545,00 0,00 0,00 0,00 0,00 0,00 545,00 0,00 0,00 0,00 0,00 545,00 121,90 0,00 28/02/2014
432 382300 ISIS CASTRO COSTA ESTAGIARIO ATIVO BELO HORIZONTE; SUPERINTENDENCIA DE COMUNICACAO INTEGRADA 545,00 0,00 0,00 0,00 0,00 0,00 545,00 0,00 0,00 0,00 0,00 545,00 121,90 0,00 28/02/2014
433 351700 IVAN TANURE SANTANNA ESTAGIARIO ATIVO BELO HORIZONTE; TOXICOS-13 PJ 545,00 0,00 0,00 0,00 0,00 0,00 545,00 0,00 0,00 0,00 0,00 545,00 121,90 0,00 28/02/2014
434 358400 IVANILDA DE MELO OLIVEIRA ESTAGIARIO ATIVO CARATINGA; CARATINGA-02 PJ 545,00 0,00 0,00 0,00 0,00 0,00 545,00 0,00 0,00 0,00 0,00 545,00 121,90 0,00 28/02/2014
435 284100 IVONE RAFAELA DA COSTA LUIZ ESTAGIARIO ATIVO PATOS DE MINAS; PATOS DE MINAS-05 PJ 454,17 0,00 0,00 0,00 0,00 0,00 454,17 0,00 0,00 0,00 0,00 454,17 100,70 0,00 28/02/2014
436 348600 IZABEL FURTADO COELHO ESTAGIARIO ATIVO JUIZ DE FORA; JUIZ DE FORA-23 PJ 545,00 0,00 0,00 0,00 0,00 0,00 545,00 0,00 0,00 0,00 0,00 545,00 121,90 0,00 28/02/2014
437 346500 IZABELLA BOTELHO SANTOS ESTAGIARIO ATIVO VESPASIANO; VESPASIANO-01 PJ 545,00 0,00 0,00 0,00 0,00 0,00 545,00 0,00 0,00 0,00 0,00 545,00 116,60 0,00 28/02/2014
438 351800 IZABELLA DE SOUZA SALES ESTAGIARIO ATIVO Informação não disponível 545,00 0,00 0,00 0,00 0,00 0,00 545,00 0,00 0,00 0,00 0,00 545,00 121,90 0,00 28/02/2014
439 326700 IZABELLA MELO FERREIRA ESTAGIARIO ATIVO BELO HORIZONTE; JUIZADO ESPECIAL CÍVEL E CRIMINAL - 08ª PJ 545,00 0,00 0,00 0,00 0,00 0,00 545,00 0,00 0,00 0,00 0,00 545,00 121,90 0,00 28/02/2014
440 366900 IZADORA DE CASTRO CARDOSO ESTAGIARIO ATIVO UBERLANDIA; UBERLANDIA-22 PJ 545,00 0,00 0,00 0,00 0,00 0,00 545,00 0,00 0,00 0,00 0,00 545,00 121,90 0,00 28/02/2014
441 104 JACKSON BATISTA EMBURANA ESCRIVAO DE POLICIA ATIVO BELO HORIZONTE - COMARCA; COMB CRIMES PRAT POR AG POL MUN-PROC JUST ESP 1.209,41 0,00 0,00 0,00 0,00 0,00 1.209,41 0,00 0,00 0,00 0,00 1.209,41 457,00 0,00 28/02/2014
442 313400 JACQUELINE GONCALVES ARAUJO SANTOS ESTAGIARIO ATIVO DIVINOPOLIS; DIVINOPOLIS-11 PJ 545,00 0,00 0,00 0,00 0,00 0,00 545,00 0,00 0,00 0,00 0,00 545,00 121,90 0,00 28/02/2014
443 351900 JAIANNY KAROLLINNY SOARES SILVA ESTAGIARIO ATIVO GOVERNADOR VALADARES; GOVERNADOR VALADARES - 16ª PROMOTORIA DE JUST 545,00 0,00 0,00 0,00 0,00 0,00 545,00 0,00 0,00 0,00 0,00 545,00 111,30 0,00 28/02/2014
444 248000 JAQUELINE APARECIDA DE SOUZA ESTAGIARIO ATIVO PIUMHI; PIUMHI-02 PJ 545,00 0,00 0,00 0,00 0,00 0,00 545,00 0,00 0,00 0,00 0,00 545,00 121,90 0,00 28/02/2014
445 376300 JAQUELINE GIRALDELLI REZENDE ESTAGIARIO ATIVO POCOS DE CALDAS; POCOS DE CALDAS-03 PJ 545,00 0,00 0,00 0,00 0,00 0,00 545,00 0,00 0,00 0,00 0,00 545,00 121,90 0,00 28/02/2014
446 242200 JAQUELINE VIEIRA DE ANDRADE ESTAGIARIO ATIVO GUANHAES; GUANHAES-02 PJ 545,00 0,00 0,00 0,00 0,00 0,00 545,00 0,00 0,00 0,00 0,00 545,00 116,60 0,00 28/02/2014
447 254800 JEANNI HELENA COELHO ESTAGIARIO ATIVO BOM SUCESSO; BOM SUCESSO - PJ ÚNICA 199,83 0,00 0,00 0,00 0,00 0,00 199,83 0,00 0,00 0,00 0,00 199,83 47,70 0,00 28/02/2014
448 261300 JENIFER NOVAES ESTAGIARIO ATIVO GOVERNADOR VALADARES; GOVERNADOR VALADARES-05 PJ 90,83 0,00 0,00 0,00 0,00 0,00 90,83 0,00 0,00 0,00 0,00 90,83 0,00 0,00 28/02/2014
449 326800 JENIFFER MARINHO RODRIGUES ESTAGIARIO ATIVO BELO HORIZONTE; 18 PJ DEF DIR HUM AP COM CONF AG E FISC POL 545,00 0,00 0,00 0,00 0,00 0,00 545,00 0,00 0,00 0,00 0,00 545,00 121,90 0,00 28/02/2014
450 346600 JESSICA ALTIVA LOPES ESTAGIARIO ATIVO BAMBUI; BAMBUI - PJ ÚNICA 545,00 0,00 0,00 0,00 0,00 0,00 545,00 0,00 0,00 0,00 0,00 545,00 121,90 0,00 28/02/2014
451 266700 JESSICA ALVARENGA SOARES ESTAGIARIO ATIVO BELO HORIZONTE; JUIZO CRIMINAL-12 PJ 545,00 0,00 0,00 0,00 0,00 0,00 545,00 0,00 0,00 0,00 0,00 545,00 106,00 0,00 28/02/2014
452 358500 JESSICA ALVES DE SOUZA ESTAGIARIO ATIVO BELO HORIZONTE; JUIZO CRIMINAL-12 PJ 545,00 0,00 0,00 0,00 0,00 0,00 545,00 0,00 0,00 0,00 0,00 545,00 121,90 0,00 28/02/2014
453 321000 JESSICA AMORIM ASSIS ESTAGIARIO ATIVO BONFIM; BONFIM - PJ ÚNICA 545,00 0,00 0,00 0,00 0,00 0,00 545,00 0,00 0,00 0,00 0,00 545,00 121,90 0,00 28/02/2014
454 376500 JESSICA CRISTINA DO NASCIMENTO ESTAGIARIO ATIVO BARROSO; BARROSO-01 PJ 545,00 0,00 0,00 0,00 0,00 0,00 545,00 0,00 0,00 0,00 0,00 545,00 121,90 0,00 28/02/2014
455 248100 JESSICA DA SILVA REHDER ESTAGIARIO ATIVO UBERLANDIA; UBERLANDIA-24 PJ 545,00 0,00 0,00 0,00 0,00 0,00 545,00 0,00 0,00 0,00 0,00 545,00 121,90 0,00 28/02/2014
456 376600 JESSICA DAMASCENO RIBEIRO GOMES ESTAGIARIO ATIVO IPATINGA; IPATINGA-05 PJ 545,00 0,00 0,00 0,00 0,00 0,00 545,00 0,00 0,00 0,00 0,00 545,00 121,90 0,00 28/02/2014
457 382400 JESSICA DE SOUZA DIAS ESTAGIARIO ATIVO BELO HORIZONTE; OUVIDORIA DO MPMG 817,50 0,00 0,00 0,00 0,00 0,00 817,50 0,00 0,00 0,00 0,00 817,50 121,90 0,00 28/02/2014
458 276700 JESSICA DO NASCIMENTO FARIA ESTAGIARIO ATIVO Informação não disponível 545,00 0,00 0,00 0,00 0,00 0,00 545,00 0,00 0,00 0,00 0,00 545,00 121,90 0,00 28/02/2014
459 362500 JESSICA FERNANDA ALVES DE OLIVEIRA ESTAGIARIO ATIVO UBERABA; UBERABA-03 PJ 545,00 0,00 0,00 0,00 0,00 0,00 545,00 0,00 0,00 0,00 0,00 545,00 121,90 0,00 28/02/2014
460 284200 JESSICA FERNANDA SILVA ESTAGIARIO ATIVO BARBACENA; EXTINTA-BARBACENA - 06ª PJ EXECUÇÃO PENAL 545,00 0,00 0,00 0,00 0,00 0,00 545,00 0,00 0,00 0,00 0,00 545,00 121,90 0,00 28/02/2014
461 346700 JESSICA GONCALVES LARA ESTAGIARIO ATIVO PRATAPOLIS; PRATAPOLIS - PJ ÚNICA 545,00 0,00 0,00 0,00 0,00 0,00 545,00 0,00 0,00 0,00 0,00 545,00 121,90 0,00 28/02/2014
462 362600 JESSICA JUNQUEIRA SANTOS DA SILVA ESTAGIARIO ATIVO POUSO ALEGRE; POUSO ALEGRE-05 PJ 545,00 0,00 0,00 0,00 0,00 0,00 545,00 0,00 0,00 0,00 0,00 545,00 121,90 0,00 28/02/2014
463 369900 JESSICA MAYARA VIEIRA COELHO ESTAGIARIO ATIVO CONSELHEIRO LAFAIETE; CONSELHEIRO LAFAIETE-07 PJ 545,00 0,00 0,00 0,00 0,00 0,00 545,00 0,00 0,00 0,00 0,00 545,00 116,60 0,00 28/02/2014
464 367000 JESSICA NOGUEIRA DE CARVALHO ESTAGIARIO ATIVO Informação não disponível 545,00 0,00 0,00 0,00 0,00 0,00 545,00 0,00 0,00 0,00 0,00 545,00 121,90 0,00 28/02/2014
465 307800 JESSICA RODRIGUES GODINHO ESTAGIARIO ATIVO BELO HORIZONTE; DEFESA DA SAUDE-19 PJ 545,00 0,00 0,00 0,00 0,00 0,00 545,00 0,00 0,00 0,00 0,00 545,00 121,90 0,00 28/02/2014
466 376700 JESSICA RODRIGUES PARDINI SABILA ESTAGIARIO ATIVO BELO HORIZONTE; 23ª PJ DEF DIREITOS CRIANÇAS E ADOLESCENTES 545,00 0,00 0,00 0,00 0,00 0,00 545,00 0,00 0,00 0,00 0,00 545,00 121,90 0,00 28/02/2014
467 367100 JESSICA SANTIAGO SOARES ESTAGIARIO ATIVO TIMOTEO; TIMOTEO-01 PJ 545,00 0,00 0,00 0,00 0,00 0,00 545,00 0,00 0,00 0,00 0,00 545,00 121,90 0,00 28/02/2014
468 290400 JESSICA SARA BRUNO SPOSITO ESTAGIARIO ATIVO BELO HORIZONTE; AUDITORIA MILITAR-09 PJ 545,00 0,00 0,00 0,00 0,00 0,00 545,00 0,00 0,00 0,00 0,00 545,00 68,90 0,00 28/02/2014
469 367200 JHONATAN CANDIDO FELIX ESTAGIARIO ATIVO UBERLANDIA; UBERLANDIA-03 PJ 545,00 0,00 0,00 0,00 0,00 0,00 545,00 0,00 0,00 0,00 0,00 545,00 121,90 0,00 28/02/2014
470 340600 JOANA BETHONICO BRAGA ESTAGIARIO ATIVO Informação não disponível 381,50 0,00 0,00 0,00 0,00 0,00 381,50 0,00 0,00 0,00 0,00 381,50 21,20 0,00 28/02/2014
471 83 JOAO ALVES DE MIRANDA INVESTIGADOR DE POLICIA 2 ATIVO BELO HORIZONTE - COMARCA; CAO-CRIM EXEC PENAL TRIB JURI AUD MILITAR 1.918,67 0,00 0,00 0,00 0,00 0,00 1.918,67 0,00 9,82 0,00 9,82 1.908,85 457,00 0,00 28/02/2014
472 4 JOAO ALVES MARTINS 1O. SARGENTO EXONERADO BELO HORIZONTE - COMARCA; GAECO - SECRETARIA 0,00 0,00 0,00 159,89 0,00 0,00 159,89 0,00 0,00 0,00 0,00 159,89 0,00 319,78 28/02/2014
473 261600 JOAO ATAYDE DE BRITO ESTAGIARIO ATIVO RIO PARDO DE MINAS; RIO PARDO DE MINAS - PJ ÚNICA 545,00 0,00 0,00 0,00 0,00 0,00 545,00 0,00 0,00 0,00 0,00 545,00 121,90 0,00 28/02/2014
474 106 JOAO CARLOS DE FARIA LIMA INVESTIGADOR DE POLICIA 2 ATIVO CONTAGEM - COMARCA; COORD REG DEF ORDEM ECONOMICA TRIB CONTAGEM 1.139,98 0,00 0,00 0,00 0,00 0,00 1.139,98 0,00 0,00 0,00 0,00 1.139,98 457,00 0,00 28/02/2014
475 248300 JOAO CARLOS MAGESTE DUTRA ESTAGIARIO ATIVO MANHUACU; MANHUACU-02 PJ 545,00 0,00 0,00 0,00 0,00 0,00 545,00 0,00 0,00 0,00 0,00 545,00 121,90 0,00 28/02/2014
476 297600 JOAO CARLOS SILVA ESTAGIARIO ATIVO CARMO DO RIO CLARO; CARMO DO RIO CLARO - PJ ÚNICA 545,00 0,00 0,00 0,00 0,00 0,00 545,00 0,00 0,00 0,00 0,00 545,00 121,90 0,00 28/02/2014
477 307600 JOAO HENRIQUE GONCALVES BALMANT ESTAGIARIO ATIVO MANTENA; MANTENA-02 PJ 545,00 0,00 0,00 0,00 0,00 0,00 545,00 0,00 0,00 0,00 0,00 545,00 121,90 0,00 28/02/2014
478 313500 JOAO MARCOS ARAUJO TOME ESTAGIARIO ATIVO SETE LAGOAS; SETE LAGOAS-04 PJ 545,00 0,00 0,00 0,00 0,00 0,00 545,00 0,00 0,00 0,00 0,00 545,00 121,90 0,00 28/02/2014
479 307700 JOAO PAULO GOMES LIMA CORDEIRO ESTAGIARIO ATIVO MEDINA; MEDINA - PJ ÚNICA 545,00 0,00 0,00 0,00 0,00 0,00 545,00 0,00 0,00 0,00 0,00 545,00 121,90 0,00 28/02/2014
480 321200 JOAO RAFFAEL VELOSO SOARES ESTAGIARIO ATIVO Informação não disponível 545,00 0,00 0,00 0,00 0,00 0,00 545,00 0,00 0,00 0,00 0,00 545,00 121,90 0,00 28/02/2014
481 273600 JOAO VICTOR GIMENES SANTOS AIRES DO NASCIMENTO ESTAGIARIO ATIVO CONTAGEM; CONTAGEM-13 PJ 545,00 0,00 0,00 0,00 0,00 0,00 545,00 0,00 0,00 0,00 0,00 545,00 121,90 0,00 28/02/2014
482 242400 JOAO VICTOR SILVA NOGUEIRA ESTAGIARIO ATIVO UBERLANDIA; UBERLANDIA-03 PJ 545,00 0,00 0,00 0,00 0,00 0,00 545,00 0,00 0,00 0,00 0,00 545,00 0,00 199,83 28/02/2014
483 261700 JOCILENE CRISTINA DA CRUZ ASSIS ESTAGIARIO ATIVO TRES CORACOES; TRES CORACOES-02 PJ 545,00 0,00 0,00 0,00 0,00 0,00 545,00 0,00 0,00 0,00 0,00 545,00 121,90 0,00 28/02/2014
484 358600 JOHNNY SANTOS VILLAR ESTAGIARIO ATIVO JUIZ DE FORA; JUIZ DE FORA-09 PJ 545,00 0,00 0,00 0,00 0,00 0,00 545,00 0,00 0,00 0,00 0,00 545,00 121,90 0,00 28/02/2014
485 390400 JOICE CRISTINA DE PAULA ESTAGIARIO ATIVO DIVINOPOLIS; DIVINÓPOLIS - 06ª PJ 272,50 0,00 0,00 0,00 0,00 0,00 272,50 0,00 0,00 0,00 0,00 272,50 58,30 0,00 28/02/2014
486 290500 JORDANA VERISSIMO MESQUITA ESTAGIARIO ATIVO MONTES CLAROS; MONTES CLAROS-11 PJ 545,00 0,00 0,00 0,00 0,00 0,00 545,00 0,00 0,00 0,00 0,00 545,00 121,90 0,00 28/02/2014
487 308000 JORDANNY SANTAN DE OLIVEIRA ESTAGIARIO ATIVO NOVA SERRANA; NOVA SERRANA-01 PJ 545,00 0,00 0,00 0,00 0,00 0,00 545,00 0,00 0,00 0,00 0,00 545,00 121,90 0,00 28/02/2014
488 326900 JOSE BORGES PEREIRA COSTA ESTAGIARIO ATIVO CACHOEIRA DE MINAS; CACHOEIRA DE MINAS - PJ ÚNICA 545,00 0,00 0,00 0,00 0,00 0,00 545,00 0,00 0,00 0,00 0,00 545,00 121,90 0,00 28/02/2014
489 93 JOSE CRISTIANO DE OLIVEIRA SAMPAIO CABO ATIVO BELO HORIZONTE - COMARCA; GAECO - SECRETARIA 1.280,94 0,00 0,00 0,00 0,00 0,00 1.280,94 0,00 0,00 0,00 0,00 1.280,94 457,00 0,00 28/02/2014
490 376800 JOSE DE ARIMATEA DUARTE JUNIOR ESTAGIARIO ATIVO UBERLANDIA; UBERLANDIA-06 PJ 545,00 0,00 0,00 0,00 0,00 0,00 545,00 0,00 0,00 0,00 0,00 545,00 121,90 0,00 28/02/2014
491 94 JOSE DO CARMO BARBOSA CAPITAO ATIVO BELO HORIZONTE - COMARCA; COORD DE PLANEJAMENTO INSTITUCIONAL 3.170,67 0,00 0,00 0,00 0,00 0,00 3.170,67 0,00 140,57 0,00 140,57 3.030,10 457,00 0,00 28/02/2014
492 382500 JOSE GERALDO DE OLIVEIRA NETO ESTAGIARIO ATIVO BELO HORIZONTE; DIRETORIA DE MANUTENCAO PREDIAL 817,50 0,00 0,00 0,00 0,00 0,00 817,50 0,00 0,00 0,00 0,00 817,50 121,90 0,00 28/02/2014
493 73 JOSE WALTER REGINA CABO ATIVO BELO HORIZONTE - COMARCA; GAECO - SECRETARIA 1.280,94 0,00 0,00 0,00 0,00 0,00 1.280,94 0,00 0,00 0,00 0,00 1.280,94 457,00 0,00 28/02/2014
494 290600 JOSIANE CRISTINA MENDONCA ESTAGIARIO ATIVO LAVRAS; COORD REG DO MA DA BACIA DO RIO GRANDE 545,00 0,00 0,00 0,00 0,00 0,00 545,00 0,00 0,00 0,00 0,00 545,00 121,90 0,00 28/02/2014
495 382700 JOYCE MIRIAM FERREIRA ESTAGIARIO ATIVO Informação não disponível 681,25 0,00 0,00 0,00 0,00 0,00 681,25 0,00 0,00 0,00 0,00 681,25 100,70 0,00 28/02/2014
496 313700 JULIA BARROS DE ARAUJO ESTAGIARIO ATIVO DIVINOPOLIS; DIVINOPOLIS-12 PJ 545,00 0,00 0,00 0,00 0,00 0,00 545,00 0,00 0,00 0,00 0,00 545,00 121,90 0,00 28/02/2014
497 358700 JULIA CARNEIRO COLARES ESTAGIARIO ATIVO BELO HORIZONTE; GABINETE DOS PROCURADORES 545,00 0,00 0,00 0,00 0,00 0,00 545,00 0,00 0,00 0,00 0,00 545,00 121,90 0,00 28/02/2014
498 279300 JULIA GRUPPIONI PASSOS ESTAGIARIO ATIVO PONTE NOVA; PONTE NOVA-04 PJ 545,00 0,00 0,00 0,00 0,00 0,00 545,00 0,00 0,00 0,00 0,00 545,00 121,90 0,00 28/02/2014
499 352100 JULIANA ALVES BELO ESTAGIARIO ATIVO BELO HORIZONTE; DEFESA DA SAUDE-19 PJ 545,00 0,00 0,00 0,00 0,00 0,00 545,00 0,00 0,00 0,00 0,00 545,00 121,90 0,00 28/02/2014
500 266800 JULIANA DE MESQUITA SARDINHA ESTAGIARIO ATIVO SAO LOURENCO; SAO LOURENCO-04 PJ 545,00 0,00 0,00 0,00 0,00 0,00 545,00 0,00 0,00 0,00 0,00 545,00 121,90 0,00 28/02/2014
501 346800 JULIANA FELIX PENIDO ESTAGIARIO ATIVO MURIAE; MURIAÉ - 01ª PJ 545,00 0,00 0,00 0,00 0,00 0,00 545,00 0,00 0,00 0,00 0,00 545,00 121,90 0,00 28/02/2014
502 248500 JULIANA KENIA DINIZ EUSTAQUIO ESTAGIARIO ATIVO CONTAGEM; CONTAGEM-20 PJ 545,00 0,00 0,00 0,00 0,00 0,00 545,00 0,00 0,00 0,00 0,00 545,00 95,40 0,00 28/02/2014
503 382800 JULIANA PAULA DE OLIVEIRA ESTAGIARIO ATIVO BELO HORIZONTE; 22ª PJ DEF DIREITO PESSOAS DEFICIENCIA IDOSOS 817,50 0,00 0,00 0,00 0,00 0,00 817,50 0,00 0,00 0,00 0,00 817,50 121,90 0,00 28/02/2014
504 390500 JULIANA VIEIRA DAVID ESTAGIARIO ATIVO JUIZ DE FORA; JUIZ DE FORA-23 PJ 272,50 0,00 0,00 0,00 0,00 0,00 272,50 0,00 0,00 0,00 0,00 272,50 58,30 0,00 28/02/2014
505 382900 JULIANE CRISTINA GUIMARAES SILVA ESTAGIARIO ATIVO Informação não disponível 1.171,75 0,00 0,00 0,00 0,00 0,00 1.171,75 0,00 0,00 0,00 0,00 1.171,75 106,00 0,00 28/02/2014
506 313800 JULIANO GONCALVES NUNES TEIXEIRA ESTAGIARIO ATIVO PATOS DE MINAS; PATOS DE MINAS-02 PJ 545,00 0,00 0,00 0,00 0,00 0,00 545,00 0,00 0,00 0,00 0,00 545,00 121,90 0,00 28/02/2014
507 303900 JULIO CESAR FLEMING ALMEIDA DE MORAES ESTAGIARIO ATIVO POUSO ALEGRE; POUSO ALEGRE-07 PJ 545,00 0,00 0,00 0,00 0,00 0,00 545,00 0,00 0,00 0,00 0,00 545,00 121,90 0,00 28/02/2014
508 5 JULIO CESAR GOMES MENEGUITE MAJOR ATIVO BELO HORIZONTE - COMARCA; GAECO - SECRETARIA 3.425,36 0,00 0,00 0,00 0,00 0,00 3.425,36 0,00 178,77 0,00 178,77 3.246,59 457,00 0,00 28/02/2014
509 331800 KAMILA FONSECA RANGE ESTAGIARIO ATIVO JUATUBA; AIMORES - PJ ÚNICA 545,00 0,00 0,00 0,00 0,00 0,00 545,00 0,00 0,00 0,00 0,00 545,00 121,90 0,00 28/02/2014
510 273900 KAREN DANTAS ARAUJO ESTAGIARIO ATIVO FORMIGA; FORMIGA-03 PJ 545,00 0,00 0,00 0,00 0,00 0,00 545,00 0,00 0,00 0,00 0,00 545,00 121,90 0,00 28/02/2014
511 308300 KAREN MEDEIROS CHAVES ESTAGIARIO ATIVO UBERLANDIA; UBERLANDIA-08 PJ 545,00 0,00 0,00 0,00 0,00 0,00 545,00 0,00 0,00 0,00 0,00 545,00 63,60 36,33 28/02/2014
512 255100 KAREN STEFANE GARCIA ESTAGIARIO ATIVO PARAOPEBA; PARAOPEBA - PJ ÚNICA 545,00 0,00 0,00 0,00 0,00 0,00 545,00 0,00 0,00 0,00 0,00 545,00 121,90 0,00 28/02/2014
513 255200 KAREN TAHYS ROSA AVILA ESTAGIARIO ATIVO JUIZ DE FORA; JUIZ DE FORA-23 PJ 545,00 0,00 0,00 0,00 0,00 0,00 545,00 0,00 0,00 0,00 0,00 545,00 121,90 0,00 28/02/2014
514 304000 KARINA AMELIA DE OLIVEIRA ESTAGIARIO ATIVO POUSO ALEGRE; POUSO ALEGRE-01 PJ 545,00 0,00 0,00 0,00 0,00 0,00 545,00 0,00 0,00 0,00 0,00 545,00 121,90 0,00 28/02/2014
515 321300 KARINE MAGALHAES SANTOS ESTAGIARIO ATIVO BELO HORIZONTE; JUIZADO ESPECIAL CÍVEL E CRIMINAL - 08ª PJ 545,00 0,00 0,00 0,00 0,00 0,00 545,00 0,00 0,00 0,00 0,00 545,00 121,90 0,00 28/02/2014
516 308200 KARINE RIBEIRO CARDOSO ESTAGIARIO ATIVO PERDIZES; PERDIZES - PJ ÚNICA 545,00 0,00 0,00 0,00 0,00 0,00 545,00 0,00 0,00 0,00 0,00 545,00 121,90 0,00 28/02/2014
517 376900 KARLLA MOREIRA CARVALHO ESTAGIARIO ATIVO Informação não disponível 545,00 0,00 0,00 0,00 0,00 0,00 545,00 0,00 0,00 0,00 0,00 545,00 121,90 0,00 28/02/2014
518 274000 KAROLINA DE OLIVERIA LANA ESTAGIARIO ATIVO CATAGUASES; CATAGUASES-01 PJ 545,00 0,00 0,00 0,00 0,00 0,00 545,00 0,00 0,00 0,00 0,00 545,00 121,90 0,00 28/02/2014
519 390600 KASSILEIA APARECIDA DE SOUZA ESTAGIARIO ATIVO IBIA; IBIA - PJ ÚNICA 272,50 0,00 0,00 0,00 0,00 0,00 272,50 0,00 0,00 0,00 0,00 272,50 58,30 0,00 28/02/2014
520 352400 KATLLY ALVES FONSECA ESTAGIARIO ATIVO MONTE CARMELO; MONTE CARMELO-01 PJ 545,00 0,00 0,00 0,00 0,00 0,00 545,00 0,00 0,00 0,00 0,00 545,00 121,90 0,00 28/02/2014
521 352200 KAYRO DEIVID GOMES DE OLIVEIRA ESTAGIARIO ATIVO ARAGUARI; ARAGUARI-02 PJ 545,00 0,00 0,00 0,00 0,00 0,00 545,00 0,00 0,00 0,00 0,00 545,00 121,90 0,00 28/02/2014
522 255400 KELLY ALVES DE LIMA ESTAGIARIO ATIVO PAINS; ALFENAS-04 PJ 526,83 0,00 0,00 0,00 0,00 0,00 526,83 0,00 0,00 0,00 0,00 526,83 116,60 0,00 28/02/2014
523 367300 KENIA CAROLINA MARTINS DE SOUZA ESTAGIARIO ATIVO BELO HORIZONTE; AUDITORIA MILITAR-09 PJ 545,00 0,00 0,00 0,00 0,00 0,00 545,00 0,00 0,00 0,00 0,00 545,00 121,90 0,00 28/02/2014
524 335100 KEREN JOQUEBERDE DOS SANTOS ESTAGIARIO ATIVO BELO HORIZONTE; JUIZO CRIMINAL-12 PJ 545,00 0,00 0,00 0,00 0,00 0,00 545,00 0,00 0,00 0,00 0,00 545,00 121,90 0,00 28/02/2014
525 327000 KESIA LAIS PAGANI DA FONSECA ESTAGIARIO ATIVO TRES CORACOES; TRES CORACOES-03 PJ 545,00 0,00 0,00 0,00 0,00 0,00 545,00 0,00 0,00 0,00 0,00 545,00 121,90 0,00 28/02/2014
526 352600 KEZIA DE CASSIA ANTUNES CARDOSO ESTAGIARIO ATIVO SAO JOAO DA PONTE; SÃO JOÃO DA PONTE - PJ ÚNICA 545,00 0,00 0,00 0,00 0,00 0,00 545,00 0,00 0,00 0,00 0,00 545,00 100,70 0,00 28/02/2014
527 367400 KEZIA TELES GONCALVES ESTAGIARIO ATIVO Informação não disponível 545,00 0,00 0,00 0,00 0,00 0,00 545,00 0,00 0,00 0,00 0,00 545,00 121,90 0,00 28/02/2014
528 274200 KIMINY SANTOS OLIVEIRA ESTAGIARIO ATIVO NOVA LIMA; NOVA LIMA-02 PJ 545,00 0,00 0,00 0,00 0,00 0,00 545,00 0,00 0,00 0,00 0,00 545,00 121,90 0,00 28/02/2014
529 321400 KLAYTON ROGERIO DE OLIVEIRA ESTAGIARIO ATIVO SACRAMENTO; SACRAMENTO-01 PJ 545,00 0,00 0,00 0,00 0,00 0,00 545,00 0,00 0,00 0,00 0,00 545,00 121,90 0,00 28/02/2014
530 377000 KLEISON FABIANO NILO ESTAGIARIO ATIVO BELO HORIZONTE; JUIZADO ESPECIAL CÍVEL E CRIMINAL - 08ª PJ 545,00 0,00 0,00 0,00 0,00 0,00 545,00 0,00 0,00 0,00 0,00 545,00 121,90 0,00 28/02/2014
531 335200 KRIS KRISTOFERSON PEREIRA ESTAGIARIO ATIVO BELO HORIZONTE; JUIZADO ESPECIAL CÍVEL E CRIMINAL - 08ª PJ 545,00 0,00 0,00 0,00 0,00 0,00 545,00 0,00 0,00 0,00 0,00 545,00 121,90 0,00 28/02/2014
532 377100 LAIANA SANTANA RIBEIRO ESTAGIARIO ATIVO MARIANA; MARIANA-02 PJ 545,00 0,00 0,00 0,00 0,00 0,00 545,00 0,00 0,00 0,00 0,00 545,00 121,90 0,00 28/02/2014
533 327100 LAIENY FERREIRA BERG ESTAGIARIO ATIVO SANTOS DUMONT; SANTOS DUMONT-03 PJ 545,00 0,00 0,00 0,00 0,00 0,00 545,00 0,00 0,00 0,00 0,00 545,00 121,90 0,00 28/02/2014
534 371700 LAIS ALMEIDA DE SOUZA LOPES ESTAGIARIO ATIVO JUIZ DE FORA; JUIZ DE FORA-02 PJ 545,00 0,00 0,00 0,00 0,00 0,00 545,00 0,00 0,00 0,00 0,00 545,00 121,90 0,00 28/02/2014
535 262000 LAIS APARECIDA FONSECA ESTAGIARIO ATIVO LAGOA SANTA; LAGOA SANTA-02 PJ 545,00 0,00 0,00 0,00 0,00 0,00 545,00 0,00 0,00 0,00 0,00 545,00 68,90 18,17 28/02/2014
536 367500 LAIS CANEDO SANTIAGO ESTAGIARIO ATIVO DIVINOPOLIS; DIVINÓPOLIS - 02ª PJ 545,00 0,00 0,00 0,00 0,00 0,00 545,00 0,00 0,00 0,00 0,00 545,00 121,90 0,00 28/02/2014
537 313900 LAIS MEDEIROS DANTAS ESTAGIARIO ATIVO CAPINOPOLIS; CAPINOPOLIS - PJ ÚNICA 545,00 0,00 0,00 0,00 0,00 0,00 545,00 0,00 0,00 0,00 0,00 545,00 121,90 0,00 28/02/2014
538 340800 LAIS PECORA RIBEIRO ESTAGIARIO ATIVO UBERLANDIA; UBERLANDIA-15 PJ 545,00 0,00 0,00 0,00 0,00 0,00 545,00 0,00 0,00 0,00 0,00 545,00 121,90 0,00 28/02/2014
539 383000 LAISA SILVA CAMPOS ESTAGIARIO ATIVO BELO HORIZONTE; CAO-DIREITOS HUMANOS E APOIO COMUNITARIO 363,33 0,00 0,00 0,00 0,00 0,00 363,33 0,00 0,00 0,00 0,00 363,33 58,30 0,00 28/02/2014
540 335300 LAISSA EMENS MORAES PEREIRA ESTAGIARIO ATIVO BELO HORIZONTE; COORD EST APOIO PROMOTORES ELEITORAIS - SEC 545,00 0,00 0,00 0,00 0,00 0,00 545,00 0,00 0,00 0,00 0,00 545,00 121,90 272,50 28/02/2014
541 26 LANA SAYONARA PEIXOTO 1O. SARGENTO ATIVO BELO HORIZONTE - COMARCA; COORD DE PLANEJAMENTO INSTITUCIONAL 1.918,66 0,00 0,00 0,00 0,00 0,00 1.918,66 0,00 9,82 0,00 9,82 1.908,84 457,00 0,00 28/02/2014
542 362700 LANDRE RAFAEL DE CARVALHO ESTAGIARIO ATIVO CURVELO; CURVELO-03 PJ 545,00 0,00 0,00 0,00 0,00 0,00 545,00 0,00 0,00 0,00 0,00 545,00 121,90 0,00 28/02/2014
543 255600 LARISSA ALVARENGA MARINGUES DE AQUINO ESTAGIARIO ATIVO Informação não disponível 545,00 0,00 0,00 0,00 0,00 0,00 545,00 0,00 0,00 0,00 0,00 545,00 121,90 0,00 28/02/2014
544 290700 LARISSA CARMO LESSA PIRES ESTAGIARIO ATIVO MONTES CLAROS; MONTES CLAROS-08 PJ 545,00 0,00 0,00 0,00 0,00 0,00 545,00 0,00 0,00 0,00 0,00 545,00 95,40 0,00 28/02/2014
545 383100 LARISSA COELHO ALBERTIN ESTAGIARIO ATIVO BELO HORIZONTE; CAO-DIREITOS HUMANOS E APOIO COMUNITARIO 545,00 0,00 0,00 0,00 0,00 0,00 545,00 0,00 0,00 0,00 0,00 545,00 121,90 0,00 28/02/2014
546 371800 LARISSA FERNANDA BATISTA RESENDE ESTAGIARIO ATIVO RIO PARANAIBA; RIO PARANAIBA - PJ ÚNICA 545,00 0,00 0,00 0,00 0,00 0,00 545,00 0,00 0,00 0,00 0,00 545,00 174,90 254,33 28/02/2014
547 255700 LARISSA ROMILDA RODRIGUES PIRES ESTAGIARIO ATIVO NOVA LIMA; NOVA LIMA-01 PJ 545,00 0,00 0,00 0,00 0,00 0,00 545,00 0,00 0,00 0,00 0,00 545,00 121,90 0,00 28/02/2014
548 347000 LARISSA YASMIN FIGUEIREDO REIS ESTAGIARIO ATIVO BELO HORIZONTE; JUIZO CRIMINAL-12 PJ 545,00 0,00 0,00 0,00 0,00 0,00 545,00 0,00 0,00 0,00 0,00 545,00 121,90 0,00 28/02/2014
549 352700 LAURA CANEDO SANTIAGO ESTAGIARIO ATIVO Informação não disponível 545,00 0,00 0,00 0,00 0,00 0,00 545,00 0,00 0,00 0,00 0,00 545,00 121,90 0,00 28/02/2014
550 327300 LAURA CAROLINA DE PULA ROSA ESTAGIARIO ATIVO BELO HORIZONTE; JUIZADO ESPECIAL CÍVEL E CRIMINAL - 08ª PJ 545,00 0,00 0,00 0,00 0,00 0,00 545,00 0,00 0,00 0,00 0,00 545,00 68,90 0,00 28/02/2014
551 321500 LAURA QUIICK LOURENCO DE LIMA ESTAGIARIO ATIVO BELO HORIZONTE; PROC. JUSTICA DIR. DIFUSOS E COLETIVOS 545,00 0,00 0,00 0,00 0,00 0,00 545,00 0,00 0,00 0,00 0,00 545,00 121,90 0,00 28/02/2014
552 304100 LAYRA DIAS DE OLIVEIRA BRAZ ESTAGIARIO ATIVO CATAGUASES; CATAGUASES-03 PJ 545,00 0,00 0,00 0,00 0,00 0,00 545,00 0,00 0,00 0,00 0,00 545,00 95,40 0,00 28/02/2014
553 383200 LAYSLA NATALIA AMARO DE OLIVEIRA ESTAGIARIO ATIVO BELO HORIZONTE; DIRET DE INFORMACAO E CONHECIMENTO-DINC/CEAF 817,50 0,00 0,00 0,00 0,00 0,00 817,50 0,00 0,00 0,00 0,00 817,50 121,90 0,00 28/02/2014
554 362800 LEANDRO JOSE RIBEIRO ESTAGIARIO ATIVO PATROCINIO; PATROCINIO-03 PJ 545,00 0,00 0,00 0,00 0,00 0,00 545,00 0,00 0,00 0,00 0,00 545,00 121,90 0,00 28/02/2014
555 335400 LEDA ELETO FRANCA ESTAGIARIO ATIVO BELO HORIZONTE; JUIZO CRIMINAL-12 PJ 545,00 0,00 0,00 0,00 0,00 0,00 545,00 0,00 0,00 0,00 0,00 545,00 121,90 0,00 28/02/2014
556 362900 LELIANE FELISBINA DA CRUZ SILVA ESTAGIARIO ATIVO NOVA RESENDE; NOVA RESENDE - PJ ÚNICA 545,00 0,00 0,00 0,00 0,00 0,00 545,00 0,00 0,00 0,00 0,00 545,00 121,90 0,00 28/02/2014
557 383300 LEMUEL CAVALHEIRO DE ALMEIDA ESTAGIARIO ATIVO BELO HORIZONTE; CENTRO DE ESTUDOS E APERFEICOAMENTO FUNCIONAL 817,50 0,00 0,00 0,00 0,00 0,00 817,50 0,00 0,00 0,00 0,00 817,50 121,90 0,00 28/02/2014
558 390800 LEONAM ODRACIR DA SILVA CAMPOS ESTAGIARIO ATIVO BELO HORIZONTE; AUDITORIA MILITAR-09 PJ 272,50 0,00 0,00 0,00 0,00 0,00 272,50 0,00 0,00 0,00 0,00 272,50 58,30 0,00 28/02/2014
559 340900 LEONARDO AZEVEDO ESTAGIARIO ATIVO GOVERNADOR VALADARES; GOVERNADOR VALADARES-14 PJ 545,00 0,00 0,00 0,00 0,00 0,00 545,00 0,00 0,00 0,00 0,00 545,00 58,30 0,00 28/02/2014
560 377200 LEONARDO CUSTODIO DA SILVA ESTAGIARIO ATIVO BELO HORIZONTE; COORD DE INCLUSAO E MOBILIZACAO SOCIAIS 545,00 0,00 0,00 0,00 0,00 0,00 545,00 0,00 0,00 0,00 0,00 545,00 121,90 0,00 28/02/2014
561 367800 LEONARDO DE OLIVEIRA MARCHEZINI ESTAGIARIO ATIVO Informação não disponível 545,00 0,00 0,00 0,00 0,00 0,00 545,00 0,00 0,00 0,00 0,00 545,00 121,90 0,00 28/02/2014
562 363000 LEONARDO PEREIRA DE SOUZA ESTAGIARIO ATIVO BELO HORIZONTE; TOXICOS-13 PJ 545,00 0,00 0,00 0,00 0,00 0,00 545,00 0,00 0,00 0,00 0,00 545,00 121,90 0,00 28/02/2014
563 359000 LEONARDO SETTE PINHEIRO ESTAGIARIO ATIVO BELO HORIZONTE; CAO-CRIMINAL-GABINETES 545,00 0,00 0,00 0,00 0,00 0,00 545,00 0,00 0,00 0,00 0,00 545,00 121,90 0,00 28/02/2014
564 371900 LETICIA ALONSO DO ESPIRITO SANTO ESTAGIARIO ATIVO JUIZ DE FORA; JUIZ DE FORA-12 PJ 545,00 0,00 0,00 0,00 0,00 0,00 545,00 0,00 0,00 0,00 0,00 545,00 121,90 0,00 28/02/2014
565 304200 LETICIA CAIXETA LIMA BOSSI ESTAGIARIO ATIVO TEOFILO OTONI; TEOFILO OTONI-05 PJ 545,00 0,00 0,00 0,00 0,00 0,00 545,00 0,00 0,00 0,00 0,00 545,00 121,90 0,00 28/02/2014
566 372000 LETICIA DOS SANTOS COUTO ESTAGIARIO ATIVO PAINS; ALFENAS-03 PJ 545,00 0,00 0,00 0,00 0,00 0,00 545,00 0,00 0,00 0,00 0,00 545,00 174,90 254,33 28/02/2014
567 352800 LETICIA FATIMA GOMES ESTAGIARIO ATIVO BELO HORIZONTE; TRIBUNAL DO JURI-07 PJ 545,00 0,00 0,00 0,00 0,00 0,00 545,00 0,00 0,00 0,00 0,00 545,00 121,90 0,00 28/02/2014
568 287300 LETICIA GODOY RIBEIRO ESTAGIARIO ATIVO POCOS DE CALDAS; POCOS DE CALDAS-05 PJ 545,00 0,00 0,00 0,00 0,00 0,00 545,00 0,00 0,00 0,00 0,00 545,00 47,70 0,00 28/02/2014
569 367600 LETICIA GRAZIELLE SOARES ESTAGIARIO ATIVO JABOTICATUBAS; JABOTICATUBAS - PJ ÚNICA 545,00 0,00 0,00 0,00 0,00 0,00 545,00 0,00 0,00 0,00 0,00 545,00 121,90 0,00 28/02/2014
570 377300 LETICIA MULLER DE ABREU OLIVEIRA ESTAGIARIO ATIVO BELO HORIZONTE; JUIZO CRIMINAL-12 PJ 545,00 0,00 0,00 0,00 0,00 0,00 545,00 0,00 0,00 0,00 0,00 545,00 121,90 0,00 28/02/2014
571 377400 LETICIA PEREIRA MONTEIRO ESTAGIARIO ATIVO PARAISOPOLIS; PARAISÓPOLIS - PJ ÚNICA 545,00 0,00 0,00 0,00 0,00 0,00 545,00 0,00 0,00 0,00 0,00 545,00 121,90 0,00 28/02/2014
572 398200 LETICIA PRUDENTE MIRANDA ESTAGIARIO ATIVO ITAJUBA; ITAJUBA-01 PJ 545,00 0,00 0,00 0,00 0,00 0,00 545,00 0,00 0,00 0,00 0,00 545,00 121,90 0,00 28/02/2014
573 304300 LETICIA PUCCINI COBRA BORGES ESTAGIARIO ATIVO POUSO ALEGRE; POUSO ALEGRE-04 PJ 545,00 0,00 0,00 0,00 0,00 0,00 545,00 0,00 0,00 0,00 0,00 545,00 121,90 0,00 28/02/2014
574 355800 LETICIA SALLES FERNANDES ESTAGIARIO ATIVO LEOPOLDINA; LEOPOLDINA-02 PJ 545,00 0,00 0,00 0,00 0,00 0,00 545,00 0,00 0,00 0,00 0,00 545,00 121,90 0,00 28/02/2014
575 363100 LETICIA SILVEIRA SANTANA ESTAGIARIO ATIVO ERVALIA; ERVALIA - PJ ÚNICA 545,00 0,00 0,00 0,00 0,00 0,00 545,00 0,00 0,00 0,00 0,00 545,00 90,10 0,00 28/02/2014
576 314000 LIARA ALMEIDA MACARINI BALDINI ESTAGIARIO ATIVO PASSOS; PASSOS-01 PJ 327,00 0,00 0,00 0,00 0,00 0,00 327,00 0,00 0,00 0,00 0,00 327,00 74,20 0,00 28/02/2014
577 308400 LIDIANE DAS DORES SILVA PEREIRA ESTAGIARIO ATIVO BONFINOPOLIS DE MINAS; BONFINOPOLIS DE MINAS - PJ ÚNICA 545,00 0,00 0,00 0,00 0,00 0,00 545,00 0,00 0,00 0,00 0,00 545,00 121,90 0,00 28/02/2014
578 274600 LIGIA ARANHA PUIG MALDONADO ESTAGIARIO ATIVO BELO HORIZONTE; TRIBUNAL DO JURI-07 PJ 545,00 0,00 0,00 0,00 0,00 0,00 545,00 0,00 0,00 0,00 0,00 545,00 121,90 0,00 28/02/2014
579 363200 LIGIA TEIXEIRA ESTAGIARIO ATIVO CONSELHEIRO LAFAIETE; CONSELHEIRO LAFAIETE-06 PJ 545,00 0,00 0,00 0,00 0,00 0,00 545,00 0,00 0,00 0,00 0,00 545,00 121,90 0,00 28/02/2014
580 102 LILIAN ALVES DE CARVALHO INVESTIGADOR DE POLICIA 2 ATIVO BELO HORIZONTE - COMARCA; CAO-CRIM EXEC PENAL TRIB JURI AUD MILITAR 1.572,24 0,00 0,00 0,00 0,00 0,00 1.572,24 0,00 0,00 0,00 0,00 1.572,24 457,00 0,00 28/02/2014
581 290900 LILIAN SARAH DOS ANJOS AMARAL ESTAGIARIO ATIVO DIVINOPOLIS; DIVINOPOLIS-04 PJ 545,00 0,00 0,00 0,00 0,00 0,00 545,00 0,00 0,00 0,00 0,00 545,00 74,20 0,00 28/02/2014
582 352900 LILIAN VILAS BOAS NOVAES ESTAGIARIO ATIVO BELO HORIZONTE; EXTINTA - GRUPO ESP PJ DEF PAT CULT CIDADES 526,83 0,00 0,00 0,00 0,00 0,00 526,83 0,00 0,00 0,00 0,00 526,83 116,60 0,00 28/02/2014
583 281500 LINDA DAIMOND ESTAGIARIO ATIVO DIVINOPOLIS; DIVINOPOLIS-03 PJ 545,00 0,00 0,00 0,00 0,00 0,00 545,00 0,00 0,00 0,00 0,00 545,00 121,90 0,00 28/02/2014
584 327400 LINDAMARIA GRASSELLI LIMA ESTAGIARIO ATIVO CONTAGEM; CONTAGEM-24 PJ 545,00 0,00 0,00 0,00 0,00 0,00 545,00 0,00 0,00 0,00 0,00 545,00 121,90 0,00 28/02/2014
585 298200 LIVIA MARIA ASSIS CAMPOS ESTAGIARIO ATIVO BELO HORIZONTE; PROC. JUSTICA DIR. DIFUSOS E COLETIVOS 545,00 0,00 0,00 0,00 0,00 0,00 545,00 0,00 0,00 0,00 0,00 545,00 121,90 0,00 28/02/2014
586 372100 LIVIA MARIA DIAS ANDRADE ESTAGIARIO ATIVO ITAUNA; ITAUNA-03 PJ 545,00 0,00 0,00 0,00 0,00 0,00 545,00 0,00 0,00 0,00 0,00 545,00 121,90 0,00 28/02/2014
587 372200 LOANE MARTINS URBANO ESTAGIARIO ATIVO UBERABA; UBERABA-01 PJ 545,00 0,00 0,00 0,00 0,00 0,00 545,00 0,00 0,00 0,00 0,00 545,00 121,90 0,00 28/02/2014
588 377500 LORENA FRANCIELE CORREA ROSA ESTAGIARIO ATIVO MURIAE; MURIAE-02 PJ 545,00 0,00 0,00 0,00 0,00 0,00 545,00 0,00 0,00 0,00 0,00 545,00 121,90 0,00 28/02/2014
589 367900 LORENA FRANCO DE OLIVEIRA ESTAGIARIO ATIVO UBERLANDIA; UBERLANDIA-06 PJ 545,00 0,00 0,00 0,00 0,00 0,00 545,00 0,00 0,00 0,00 0,00 545,00 121,90 0,00 28/02/2014
590 383400 LORENA GRAZIELE DOS REIS ALVES ESTAGIARIO ATIVO BELO HORIZONTE; SUPERINTENDENCIA DE COMUNICACAO INTEGRADA 817,50 0,00 0,00 0,00 0,00 0,00 817,50 0,00 0,00 0,00 0,00 817,50 121,90 0,00 28/02/2014
591 264700 LORENA RIBEIRO DE CARVALHO SOUSA ESTAGIARIO ATIVO ARCOS; ARCOS-01 PJ 545,00 0,00 0,00 0,00 0,00 0,00 545,00 0,00 0,00 0,00 0,00 545,00 121,90 0,00 28/02/2014
592 347100 LORENA SANTANA DE ALMEIDA ESTAGIARIO ATIVO IPATINGA; IPATINGA-02 PJ 545,00 0,00 0,00 0,00 0,00 0,00 545,00 0,00 0,00 0,00 0,00 545,00 121,90 0,00 28/02/2014
593 335500 LUAN SOARES BOTELHO ESTAGIARIO ATIVO MONTES CLAROS; MONTES CLAROS-10 PJ 545,00 0,00 0,00 0,00 0,00 0,00 545,00 0,00 0,00 0,00 0,00 545,00 121,90 0,00 28/02/2014
594 284600 LUANA APARECIDA ARAUJO MAGALHAES ESTAGIARIO ATIVO BELO HORIZONTE; 18 PJ DEF DIR HUM AP COM CONF AG E FISC POL 545,00 0,00 0,00 0,00 0,00 0,00 545,00 0,00 0,00 0,00 0,00 545,00 121,90 0,00 28/02/2014
595 383600 LUANA BARBOSA VIEIRA ESTAGIARIO ATIVO BELO HORIZONTE; DIRETORIA DE PRODUCAO EDITORIAL 817,50 0,00 0,00 0,00 0,00 0,00 817,50 0,00 0,00 0,00 0,00 817,50 121,90 0,00 28/02/2014
596 304600 LUANA CAETANO DREYER ESTAGIARIO ATIVO TEOFILO OTONI; TEOFILO OTONI-04 PJ 545,00 0,00 0,00 0,00 0,00 0,00 545,00 0,00 0,00 0,00 0,00 545,00 111,30 0,00 28/02/2014
597 298300 LUANA COSTA FILGUEIRAS ESTAGIARIO ATIVO VISCONDE DO RIO BRANCO; VISCONDE DO RIO BRANCO-02 PJ 545,00 0,00 0,00 0,00 0,00 0,00 545,00 0,00 0,00 0,00 0,00 545,00 174,90 545,00 28/02/2014
598 243200 LUANA COSTA MARTINS ESTAGIARIO ATIVO CARATINGA; CARATINGA-01 PJ 545,00 0,00 0,00 0,00 0,00 0,00 545,00 0,00 0,00 0,00 0,00 545,00 121,90 218,00 28/02/2014
599 243300 LUANA CRISTINA RODRIGUES DE ANDRADE ESTAGIARIO ATIVO ARAGUARI; ARAGUARI-04 PJ 545,00 0,00 0,00 0,00 0,00 0,00 545,00 0,00 0,00 0,00 0,00 545,00 137,80 54,50 28/02/2014
600 219800 LUANA FONSECA PEREIRA RIBEIRO ESTAGIARIO ATIVO JUIZ DE FORA; JUIZ DE FORA-16 PJ 545,00 0,00 0,00 0,00 0,00 0,00 545,00 0,00 0,00 0,00 0,00 545,00 121,90 581,33 28/02/2014
601 262200 LUANA GABRIELA LEAL CARDOSO ESTAGIARIO ATIVO BOCAIUVA; BOCAIUVA-01 PJ 545,00 0,00 0,00 0,00 0,00 0,00 545,00 0,00 0,00 0,00 0,00 545,00 63,60 0,00 28/02/2014
602 383700 LUCAS BORGES DAVID ESTAGIARIO ATIVO BELO HORIZONTE; SUPERINTENDENCIA DE COMUNICACAO INTEGRADA 817,50 0,00 0,00 0,00 0,00 0,00 817,50 0,00 0,00 0,00 0,00 817,50 121,90 0,00 28/02/2014
603 284800 LUCAS BORGES DE AVILA ESTAGIARIO ATIVO UBERLANDIA; UBERLANDIA-17 PJ 545,00 0,00 0,00 0,00 0,00 0,00 545,00 0,00 0,00 0,00 0,00 545,00 121,90 0,00 28/02/2014
604 298400 LUCAS DANIEL SOUZA SANTOS ESTAGIARIO ATIVO BELO HORIZONTE; TOXICOS-13 PJ 545,00 0,00 0,00 0,00 0,00 0,00 545,00 0,00 0,00 0,00 0,00 545,00 121,90 0,00 28/02/2014
605 372300 LUCAS FIGUEIREDO CAVALCANTI ESTAGIARIO ATIVO BETIM; BETIM-06 PJ 545,00 0,00 0,00 0,00 0,00 0,00 545,00 0,00 0,00 0,00 0,00 545,00 121,90 0,00 28/02/2014
606 383800 LUCAS FIORINE MOREIRA ESTAGIARIO ATIVO BELO HORIZONTE; DIRETORIA DE MANUTENCAO PREDIAL 872,00 0,00 0,00 0,00 0,00 0,00 872,00 0,00 0,00 0,00 0,00 872,00 53,00 0,00 28/02/2014
607 341200 LUCAS MOSTARO DE OLIVEIRA ESTAGIARIO ATIVO JUIZ DE FORA; JUIZ DE FORA-06 PJ 545,00 0,00 0,00 0,00 0,00 0,00 545,00 0,00 0,00 0,00 0,00 545,00 121,90 0,00 28/02/2014
608 304700 LUCAS ROGERIO ESTAGIARIO ATIVO SAO SEBASTIAO DO PARAISO; SAO SEBASTIAO DO PARAISO-02 PJ 545,00 0,00 0,00 0,00 0,00 0,00 545,00 0,00 0,00 0,00 0,00 545,00 121,90 0,00 28/02/2014
609 267400 LUCAS TAGLIALEGNA MARQUES ESTAGIARIO ATIVO UBERLANDIA; UBERLANDIA-08 PJ 545,00 0,00 0,00 0,00 0,00 0,00 545,00 0,00 0,00 0,00 0,00 545,00 74,20 127,17 28/02/2014
610 390900 LUCIA HELENA FARIA BARBOSA ESTAGIARIO ATIVO CATAGUASES; CATAGUASES-04 PJ 272,50 0,00 0,00 0,00 0,00 0,00 272,50 0,00 0,00 0,00 0,00 272,50 58,30 0,00 28/02/2014
611 368000 LUCIANO MENDONCA DA SILVA ESTAGIARIO ATIVO Informação não disponível 545,00 0,00 0,00 0,00 0,00 0,00 545,00 0,00 0,00 0,00 0,00 545,00 121,90 0,00 28/02/2014
612 264500 LUDIMILA CRISTINA DE OLIVEIRA ESTAGIARIO ATIVO SETE LAGOAS; SETE LAGOAS-07 PJ 545,00 0,00 0,00 0,00 0,00 0,00 545,00 0,00 0,00 0,00 0,00 545,00 121,90 0,00 28/02/2014
613 321700 LUDMILA DE OLIVEIRA ESTAGIARIO ATIVO MANHUACU; MANHUACU-01 PJ 545,00 0,00 0,00 0,00 0,00 0,00 545,00 0,00 0,00 0,00 0,00 545,00 74,20 0,00 28/02/2014
614 335700 LUDYMILA SARAIVA DO AMARAL ESTAGIARIO ATIVO BETIM; BETIM-09 PJ 545,00 0,00 0,00 0,00 0,00 0,00 545,00 0,00 0,00 0,00 0,00 545,00 121,90 0,00 28/02/2014
615 353100 LUIS AUGUSTO DE OLIVEIRA ESTAGIARIO ATIVO UBERABA; UBERABA-09 PJ 545,00 0,00 0,00 0,00 0,00 0,00 545,00 0,00 0,00 0,00 0,00 545,00 121,90 0,00 28/02/2014
616 314200 LUIS FABIANO COELHO PANSANI ESTAGIARIO ATIVO UBERLANDIA; UBERLANDIA-01 PJ 545,00 0,00 0,00 0,00 0,00 0,00 545,00 0,00 0,00 0,00 0,00 545,00 121,90 0,00 28/02/2014
617 359300 LUIS FERNANDO ALVES DE SOUSA ESTAGIARIO ATIVO PATOS DE MINAS; PATOS DE MINAS-06 PJ 545,00 0,00 0,00 0,00 0,00 0,00 545,00 0,00 0,00 0,00 0,00 545,00 121,90 0,00 28/02/2014
618 335800 LUIS FERNANDO RESI E SILVA ESTAGIARIO ATIVO BELO HORIZONTE; JUIZO CRIMINAL-12 PJ 545,00 0,00 0,00 0,00 0,00 0,00 545,00 0,00 0,00 0,00 0,00 545,00 121,90 0,00 28/02/2014
619 372400 LUISA COSTA DA SILVA ESTAGIARIO ATIVO JUIZ DE FORA; JUIZ DE FORA-04 PJ 545,00 0,00 0,00 0,00 0,00 0,00 545,00 0,00 0,00 0,00 0,00 545,00 121,90 0,00 28/02/2014
620 359100 LUISA DE CARDOSO OLIVEIRA ESTAGIARIO ATIVO BELO HORIZONTE; JUIZO DE FAMILIA-02 PJ 545,00 0,00 0,00 0,00 0,00 0,00 545,00 0,00 0,00 0,00 0,00 545,00 121,90 0,00 28/02/2014
621 359200 LUISA VASCONELLOS THEODORO ESTAGIARIO ATIVO BELO HORIZONTE; GABINETE DOS PROCURADORES 545,00 0,00 0,00 0,00 0,00 0,00 545,00 0,00 0,00 0,00 0,00 545,00 121,90 0,00 28/02/2014
622 363300 LUIZ ARMANDO AMARAL KANGUSSU ESTAGIARIO ATIVO CARMO DA MATA; CARMO DA MATA - PJ ÚNICA 545,00 0,00 0,00 0,00 0,00 0,00 545,00 0,00 0,00 0,00 0,00 545,00 121,90 0,00 28/02/2014
623 22 LUIZ CLAUDIO FERREIRA DO NASCIMENTO 3O.SARGENTO ATIVO BELO HORIZONTE - COMARCA; GAECO - SECRETARIA 1.477,90 0,00 0,00 0,00 0,00 0,00 1.477,90 0,00 0,00 0,00 0,00 1.477,90 457,00 0,00 28/02/2014
624 331400 LUIZ FELIPE SILVA DE PAULA ESTAGIARIO ATIVO SETE LAGOAS; SETE LAGOAS-09 PJ 545,00 0,00 0,00 0,00 0,00 0,00 545,00 0,00 0,00 0,00 0,00 545,00 121,90 0,00 28/02/2014
625 298600 LUIZ FERNANDO RODRIGUES OLIVEIRA ESTAGIARIO ATIVO BELO HORIZONTE; GABINETE DOS PROCURADORES 545,00 0,00 0,00 0,00 0,00 0,00 545,00 0,00 0,00 0,00 0,00 545,00 121,90 0,00 28/02/2014
626 343800 LUIZ GUILHERME SALLES BARBOSA ESTAGIARIO ATIVO POCOS DE CALDAS; POCOS DE CALDAS-07 PJ 545,00 0,00 0,00 0,00 0,00 0,00 545,00 0,00 0,00 0,00 0,00 545,00 111,30 0,00 28/02/2014
627 327800 LUIZA PIRES BATISTA ESTAGIARIO ATIVO UBERLANDIA; UBERLÂNDIA-14 PJ 545,00 0,00 0,00 0,00 0,00 0,00 545,00 0,00 0,00 0,00 0,00 545,00 121,90 0,00 28/02/2014
628 327900 LUIZA SOARES GUIMARAES ESTAGIARIO ATIVO BELO HORIZONTE; JUIZO CRIMINAL-12 PJ 545,00 0,00 0,00 0,00 0,00 0,00 545,00 0,00 0,00 0,00 0,00 545,00 100,70 90,83 28/02/2014
629 359400 MAERCIO HERCULANO DIAS ESTAGIARIO ATIVO BELO HORIZONTE; CAO-CRIMINAL-GABINETES 545,00 0,00 0,00 0,00 0,00 0,00 545,00 0,00 0,00 0,00 0,00 545,00 121,90 0,00 28/02/2014
630 262500 MAICON HENRIQUE SILVA BATISTA ESTAGIARIO ATIVO LUZ; LUZ - PJ ÚNICA 545,00 0,00 0,00 0,00 0,00 0,00 545,00 0,00 0,00 0,00 0,00 545,00 121,90 0,00 28/02/2014
631 328000 MAIRON HENRIQUE RODRIGUES BRANQUINHO ESTAGIARIO ATIVO CARMO DO PARANAIBA; CARMO DO PARANAIBA-01 PJ 545,00 0,00 0,00 0,00 0,00 0,00 545,00 0,00 0,00 0,00 0,00 545,00 121,90 0,00 28/02/2014
632 363400 MAISA BATISTA DE MELO ESTAGIARIO ATIVO CARMO DO CAJURU; CARMO DO CAJURU - PJ ÚNICA 545,00 0,00 0,00 0,00 0,00 0,00 545,00 0,00 0,00 0,00 0,00 545,00 121,90 0,00 28/02/2014
633 279900 MAISA DE SOUZA LOPES SIQUEIRA ESTAGIARIO ATIVO BURITIS; BURITIS - PJ ÚNICA 545,00 0,00 0,00 0,00 0,00 0,00 545,00 0,00 0,00 0,00 0,00 545,00 121,90 0,00 28/02/2014
634 285000 MAISA TERCIA ALMEIDA SOUZA ESTAGIARIO ATIVO Informação não disponível 545,00 0,00 0,00 0,00 0,00 0,00 545,00 0,00 0,00 0,00 0,00 545,00 121,90 0,00 28/02/2014
635 321800 MARCELA APARECIDA SILVA CAMPOS ESTAGIARIO ATIVO IGUATAMA; IGUATAMA - PJ ÚNICA 545,00 0,00 0,00 0,00 0,00 0,00 545,00 0,00 0,00 0,00 0,00 545,00 121,90 0,00 28/02/2014
636 347200 MARCELA DUARTE ROSA ESTAGIARIO ATIVO BELO HORIZONTE; JUIZO DE FAMILIA-02 PJ 545,00 0,00 0,00 0,00 0,00 0,00 545,00 0,00 0,00 0,00 0,00 545,00 121,90 0,00 28/02/2014
637 359500 MARCELA FIRME SILVA ESTAGIARIO ATIVO PATOS DE MINAS; PATOS DE MINAS-03 PJ 545,00 0,00 0,00 0,00 0,00 0,00 545,00 0,00 0,00 0,00 0,00 545,00 121,90 0,00 28/02/2014
638 328100 MARCELA MOREIRA DE DEUS ESTAGIARIO ATIVO CARMO DO PARANAIBA; CARMO DO PARANAIBA-01 PJ 545,00 0,00 0,00 0,00 0,00 0,00 545,00 0,00 0,00 0,00 0,00 545,00 121,90 0,00 28/02/2014
639 267600 MARCELINO DA SILVA BARRETO ESTAGIARIO ATIVO TOMBOS; TOMBOS - PJ ÚNICA 545,00 0,00 0,00 0,00 0,00 0,00 545,00 0,00 0,00 0,00 0,00 545,00 121,90 0,00 28/02/2014
640 363500 MARCELLA OLIVEIRA DUARTE ESTAGIARIO ATIVO LAGOA DA PRATA; LAGOA DA PRATA-01 PJ 545,00 0,00 0,00 0,00 0,00 0,00 545,00 0,00 0,00 0,00 0,00 545,00 121,90 0,00 28/02/2014
641 314400 MARCELLO RODRIGUES TARTAGLIA ESTAGIARIO ATIVO CATAGUASES; CATAGUASES-03 PJ 545,00 0,00 0,00 0,00 0,00 0,00 545,00 0,00 0,00 0,00 0,00 545,00 121,90 0,00 28/02/2014
642 368100 MARCELO DELLISOLA DE VASCONCELLOS ESTAGIARIO ATIVO BELO HORIZONTE; JUIZADO ESPECIAL CÍVEL E CRIMINAL - 08ª PJ 545,00 0,00 0,00 0,00 0,00 0,00 545,00 0,00 0,00 0,00 0,00 545,00 106,00 0,00 28/02/2014
643 368200 MARCELO HENRIQUE SOARES DA CRUZ ESTAGIARIO ATIVO BELO HORIZONTE; GABINETE DOS PROCURADORES 545,00 0,00 0,00 0,00 0,00 0,00 545,00 0,00 0,00 0,00 0,00 545,00 121,90 0,00 28/02/2014
644 71 MARCIA FARINA DE SANTANA ESCRIVAO DE POLICIA ATIVO BELO HORIZONTE - COMARCA; CAO-ORDEM ECONOMICA E TRIBUTARIA 2.110,53 0,00 0,00 0,00 0,00 0,00 2.110,53 0,00 24,21 0,00 24,21 2.086,32 457,00 0,00 28/02/2014
645 384000 MARCIAL DE SOUZA PENIDO ESTAGIARIO ATIVO BELO HORIZONTE; OUVIDORIA DO MPMG 817,50 0,00 0,00 0,00 0,00 0,00 817,50 0,00 0,00 0,00 0,00 817,50 121,90 0,00 28/02/2014
646 72 MARCIO CANDIDO VENTURA INVESTIGADOR DE POLICIA 2 ATIVO BELO HORIZONTE - COMARCA; CAO-ORDEM ECONOMICA E TRIBUTARIA 1.918,66 0,00 0,00 0,00 0,00 0,00 1.918,66 0,00 9,82 0,00 9,82 1.908,84 457,00 0,00 28/02/2014
647 76 MARCO TULIO ALVERNE DE ABREU INVESTIGADOR DE POLICIA 2 ATIVO BELO HORIZONTE - COMARCA; COORD DE PLANEJAMENTO INSTITUCIONAL 1.918,66 0,00 0,00 0,00 0,00 0,00 1.918,66 0,00 9,82 0,00 9,82 1.908,84 457,00 0,00 28/02/2014
648 243600 MARCO TULIO DE CASTRO CALIMAN ESTAGIARIO ATIVO UBERLANDIA; UBERLANDIA-10 PJ 545,00 0,00 0,00 0,00 0,00 0,00 545,00 0,00 0,00 0,00 0,00 545,00 10,60 0,00 28/02/2014
649 384100 MARCONE DIAS SOUZA ESTAGIARIO ATIVO Informação não disponível 817,50 0,00 0,00 0,00 0,00 0,00 817,50 0,00 0,00 0,00 0,00 817,50 127,20 299,75 28/02/2014
650 384200 MARCOS JOSE RIBEIRO JUNIOR ESTAGIARIO ATIVO BELO HORIZONTE; CENTRAL DE APOIO TECNICO-SETOR CONTABIL 817,50 0,00 0,00 0,00 0,00 0,00 817,50 0,00 0,00 0,00 0,00 817,50 121,90 0,00 28/02/2014
651 370200 MARCOS MARTINS RIBEIRO JUNIOR ESTAGIARIO ATIVO BELO HORIZONTE; CAO-DIREITOS HUMANOS E APOIO COMUNITARIO 825,05 0,00 0,00 0,00 0,00 0,00 825,05 0,00 0,00 0,00 0,00 825,05 106,00 0,00 28/02/2014
652 368300 MARCOS PAULO DE OLIVEIRA ESTAGIARIO ATIVO ANDRADAS; ANDRADAS-01 PJ 545,00 0,00 0,00 0,00 0,00 0,00 545,00 0,00 0,00 0,00 0,00 545,00 121,90 0,00 28/02/2014
653 328200 MARCOS PAULO SOARES RODRIGUES ESTAGIARIO ATIVO PATOS DE MINAS; PATOS DE MINAS-06 PJ 545,00 0,00 0,00 0,00 0,00 0,00 545,00 0,00 0,00 0,00 0,00 545,00 111,30 0,00 28/02/2014
654 377700 MARESSA DA SILVA MONTEIRO ESTAGIARIO ATIVO Informação não disponível 545,00 0,00 0,00 0,00 0,00 0,00 545,00 0,00 0,00 0,00 0,00 545,00 121,90 0,00 28/02/2014
655 372500 MARIA APARECIDA AMARAL ESTAGIARIO ATIVO MONTE CARMELO; MONTE CARMELO-02 PJ 545,00 0,00 0,00 0,00 0,00 0,00 545,00 0,00 0,00 0,00 0,00 545,00 121,90 0,00 28/02/2014
656 280100 MARIA EUNICE FONSECA ESTAGIARIO ATIVO BOM DESPACHO; BOM DESPACHO-01 PJ 545,00 0,00 0,00 0,00 0,00 0,00 545,00 0,00 0,00 0,00 0,00 545,00 111,30 0,00 28/02/2014
657 391100 MARIA HILDA ANDRADE JUNQUEIRA LEAO CARNEIRO ESTAGIARIO ATIVO UBERLANDIA; UBERLANDIA-04 PJ 272,50 0,00 0,00 0,00 0,00 0,00 272,50 0,00 0,00 0,00 0,00 272,50 58,30 0,00 28/02/2014
658 363600 MARIA LIDIANE SALES SOUSA ESTAGIARIO ATIVO BELO HORIZONTE; DEFESA DE HABITACAO E URBANISMO-16 PJ 545,00 0,00 0,00 0,00 0,00 0,00 545,00 0,00 0,00 0,00 0,00 545,00 116,60 0,00 28/02/2014
659 262700 MARIA LUCIA DE FATIMA ROSA ESTAGIARIO ATIVO BOCAIUVA; BOCAIUVA-02 PJ 545,00 0,00 0,00 0,00 0,00 0,00 545,00 0,00 0,00 0,00 0,00 545,00 121,90 0,00 28/02/2014
660 359600 MARIA LUISA VIEIRA NEVES ESTAGIARIO ATIVO BELO HORIZONTE; JUIZO CRIMINAL-12 PJ 545,00 0,00 0,00 0,00 0,00 0,00 545,00 0,00 0,00 0,00 0,00 545,00 121,90 0,00 28/02/2014
661 363700 MARIA LUIZA MACHADO DE BARROS ESTAGIARIO ATIVO BELO HORIZONTE; COORD DE INCLUSAO E MOBILIZACAO SOCIAIS 545,00 0,00 0,00 0,00 0,00 0,00 545,00 0,00 0,00 0,00 0,00 545,00 121,90 0,00 28/02/2014
662 291300 MARIA LUIZA PINTO RODRIGUES DE MIRANDA ESTAGIARIO ATIVO BARAO DE COCAIS; BARAO DE COCAIS - PJ ÚNICA 545,00 0,00 0,00 0,00 0,00 0,00 545,00 0,00 0,00 0,00 0,00 545,00 121,90 0,00 28/02/2014
663 397900 MARIA SUELI MIRANDA VIEIRA ESTAGIARIO ATIVO ESPERA FELIZ; ESPERA FELIZ - PJ ÚNICA 545,00 0,00 0,00 0,00 0,00 0,00 545,00 0,00 0,00 0,00 0,00 545,00 121,90 0,00 28/02/2014
664 377800 MARIANA APARECIDA BENTO ESTAGIARIO ATIVO CLAUDIO; CLAUDIO - PJ ÚNICA 545,00 0,00 0,00 0,00 0,00 0,00 545,00 0,00 0,00 0,00 0,00 545,00 121,90 0,00 28/02/2014
665 384300 MARIANA APARECIDA SOARES ESTAGIARIO ATIVO BELO HORIZONTE; CAO-TS-TERCEIRO SETOR-APOIO TECNICO 817,50 0,00 0,00 0,00 0,00 0,00 817,50 0,00 0,00 0,00 0,00 817,50 121,90 0,00 28/02/2014
666 363800 MARIANA BRAGA TEIXEIRA ESTAGIARIO ATIVO JUIZ DE FORA; JUIZ DE FORA-21 PJ 545,00 0,00 0,00 0,00 0,00 0,00 545,00 0,00 0,00 0,00 0,00 545,00 121,90 0,00 28/02/2014
667 308700 MARIANA CAMILA DE MELO ESTAGIARIO ATIVO UBERLANDIA; UBERLANDIA-19 PJ 545,00 0,00 0,00 0,00 0,00 0,00 545,00 0,00 0,00 0,00 0,00 545,00 121,90 0,00 28/02/2014
668 243700 MARIANA DINIZ MONTEIRO ESTAGIARIO ATIVO CURVELO; CURVELO-03 PJ 545,00 0,00 0,00 0,00 0,00 0,00 545,00 0,00 0,00 0,00 0,00 545,00 121,90 272,50 28/02/2014
669 336100 MARIANA DO NASCIMENTO PEREIRA ESTAGIARIO ATIVO CARANGOLA; CARANGOLA-02 PJ 545,00 0,00 0,00 0,00 0,00 0,00 545,00 0,00 0,00 0,00 0,00 545,00 121,90 0,00 28/02/2014
670 368400 MARIANA GOUVEA LADEIRA ESTAGIARIO ATIVO CONTAGEM; CONTAGEM-05 PJ 545,00 0,00 0,00 0,00 0,00 0,00 545,00 0,00 0,00 0,00 0,00 545,00 121,90 0,00 28/02/2014
671 331500 MARIANA JULIA ESTEVAM CORREA ESTAGIARIO ATIVO DIVINOPOLIS; DIVINÓPOLIS - 07ª PJ 545,00 0,00 0,00 0,00 0,00 0,00 545,00 0,00 0,00 0,00 0,00 545,00 121,90 0,00 28/02/2014
672 328300 MARIANA MENDES MONTEIRO DE GODOI ESTAGIARIO ATIVO UBERLANDIA; UBERLANDIA-12 PJ 545,00 0,00 0,00 0,00 0,00 0,00 545,00 0,00 0,00 0,00 0,00 545,00 68,90 0,00 28/02/2014
673 341300 MARIANA PRISCILA DE OLIVEIRA RAMOS ESTAGIARIO ATIVO Informação não disponível 545,00 0,00 0,00 0,00 0,00 0,00 545,00 0,00 0,00 0,00 0,00 545,00 121,90 0,00 28/02/2014
674 359700 MARIANA RIBEIRO VIEIRA ESTAGIARIO ATIVO JUIZ DE FORA; JUIZ DE FORA-21 PJ 545,00 0,00 0,00 0,00 0,00 0,00 545,00 0,00 0,00 0,00 0,00 545,00 121,90 0,00 28/02/2014
675 341400 MARIANA VIGGIANO LARA ESTAGIARIO ATIVO BELO HORIZONTE; 23ª PJ DEF DIREITOS CRIANÇAS E ADOLESCENTES 327,00 0,00 0,00 0,00 0,00 0,00 327,00 0,00 0,00 0,00 0,00 327,00 74,20 0,00 28/02/2014
676 314700 MARIANA VILHENA COSTA NEVES ESTAGIARIO ATIVO BELO HORIZONTE; JUIZO DE FAMILIA-02 PJ 545,00 0,00 0,00 0,00 0,00 0,00 545,00 0,00 0,00 0,00 0,00 545,00 121,90 0,00 28/02/2014
677 398000 MARIANE APARECIDA REZENDE DE SAO JOSE ESTAGIARIO ATIVO ITAUNA; ITAUNA-05 PJ 545,00 0,00 0,00 0,00 0,00 0,00 545,00 0,00 0,00 0,00 0,00 545,00 121,90 0,00 28/02/2014
678 298900 MARIANE FERREIRA MOTA ESTAGIARIO ATIVO PRESIDENTE OLEGARIO; PRESIDENTE OLEGARIO - PJ ÚNICA 545,00 0,00 0,00 0,00 0,00 0,00 545,00 0,00 0,00 0,00 0,00 545,00 121,90 0,00 28/02/2014
679 314800 MARILIA ANELLO DE OLIVEIRA ESTAGIARIO ATIVO UBERLANDIA; UBERLANDIA-20 PJ 545,00 0,00 0,00 0,00 0,00 0,00 545,00 0,00 0,00 0,00 0,00 545,00 121,90 0,00 28/02/2014
680 328400 MARILIA SANTANA DA SILVA ESTAGIARIO ATIVO GUAXUPE; GUAXUPE-01 PJ 545,00 0,00 0,00 0,00 0,00 0,00 545,00 0,00 0,00 0,00 0,00 545,00 121,90 0,00 28/02/2014
681 328500 MARINA GROPEN COUTO ESTAGIARIO ATIVO CONTAGEM; CONTAGEM-02 PJ 545,00 0,00 0,00 0,00 0,00 0,00 545,00 0,00 0,00 0,00 0,00 545,00 121,90 0,00 28/02/2014
682 384400 MARINA MIRANDA PEREIRA CAVALEIRO ESTAGIARIO ATIVO BELO HORIZONTE; OUVIDORIA DO MPMG 817,50 0,00 0,00 0,00 0,00 0,00 817,50 0,00 0,00 0,00 0,00 817,50 121,90 0,00 28/02/2014
683 336200 MARINA NOGUEIRA RESENDE SILVA ESTAGIARIO ATIVO Informação não disponível 545,00 0,00 0,00 0,00 0,00 0,00 545,00 0,00 0,00 0,00 0,00 545,00 116,60 72,67 28/02/2014
684 377900 MARINA PENNA COUTO ESTAGIARIO ATIVO MURIAE; MURIAE-06 PJ 545,00 0,00 0,00 0,00 0,00 0,00 545,00 0,00 0,00 0,00 0,00 545,00 121,90 0,00 28/02/2014
685 75 MARIO HENRIQUE NASCIMENTO SILVEIRA INVESTIGADOR DE POLICIA 2 ATIVO BELO HORIZONTE - COMARCA; ORDEM ECONOMICA E TRIBUTARIA-20 PJ 1.312,96 0,00 0,00 0,00 0,00 0,00 1.312,96 0,00 0,00 0,00 0,00 1.312,96 457,00 0,00 28/02/2014
686 262800 MARIO SERGIO GUIMARAES MUNHOZ ESTAGIARIO ATIVO RIBEIRAO DAS NEVES; RIBEIRAO DAS NEVES-08 PJ 308,83 0,00 0,00 0,00 0,00 0,00 308,83 0,00 0,00 0,00 0,00 308,83 0,00 0,00 28/02/2014
687 336300 MARISA DELFINO ESTAGIARIO ATIVO Informação não disponível 545,00 0,00 0,00 0,00 0,00 0,00 545,00 0,00 0,00 0,00 0,00 545,00 116,60 0,00 28/02/2014
688 105 MARLENE APARECIDA DE ANDRADE ESCRIVAO DE POLICIA ATIVO CONTAGEM - COMARCA; COORD REG DEF ORDEM ECONOMICA TRIB CONTAGEM 1.477,92 0,00 0,00 0,00 0,00 0,00 1.477,92 0,00 0,00 0,00 0,00 1.477,92 457,00 0,00 28/02/2014
689 291400 MARLON STEFANO CAMPOS CARVALHO ESTAGIARIO ATIVO VIRGINOPOLIS; VIRGINOPOLIS - PJ ÚNICA 545,00 0,00 0,00 0,00 0,00 0,00 545,00 0,00 0,00 0,00 0,00 545,00 121,90 0,00 28/02/2014
690 275100 MARTA BRAZ DA SILVA FERREIRA ESTAGIARIO ATIVO CAMPINA VERDE; CAMPINA VERDE - PJ ÚNICA 545,00 0,00 0,00 0,00 0,00 0,00 545,00 0,00 0,00 0,00 0,00 545,00 74,20 0,00 28/02/2014
691 308900 MARYELLE MACHADO PEREIRA ESTAGIARIO ATIVO BELO HORIZONTE; JUIZO DE FAMILIA-02 PJ 545,00 0,00 0,00 0,00 0,00 0,00 545,00 0,00 0,00 0,00 0,00 545,00 121,90 0,00 28/02/2014
692 308600 MATEUS AUGUSTO DE SOUZA ESTAGIARIO ATIVO TRES PONTAS; TRES PONTAS-02 PJ 545,00 0,00 0,00 0,00 0,00 0,00 545,00 0,00 0,00 0,00 0,00 545,00 121,90 0,00 28/02/2014
693 309000 MATHEUS HENRIQUE GARCIA ESTAGIARIO ATIVO CAMPO BELO; CAMPO BELO-04 PJ 545,00 0,00 0,00 0,00 0,00 0,00 545,00 0,00 0,00 0,00 0,00 545,00 121,90 0,00 28/02/2014
694 315100 MATHEUS HERMANO SILVA ESTAGIARIO ATIVO LAVRAS; LAVRAS-03 PJ 545,00 0,00 0,00 0,00 0,00 0,00 545,00 0,00 0,00 0,00 0,00 545,00 121,90 0,00 28/02/2014
695 384600 MATHEUS MUNIZ DE OLIVEIRA ESTAGIARIO ATIVO BELO HORIZONTE; SUPERINTENDENCIA DE TECNOLOGIA DA INFORMACAO 817,50 0,00 0,00 0,00 0,00 0,00 817,50 0,00 0,00 0,00 0,00 817,50 121,90 0,00 28/02/2014
696 315200 MATHEUS NEVES SANTOS ESTAGIARIO ATIVO ITAMBACURI; ITAMBACURI-02 PJ 545,00 0,00 0,00 0,00 0,00 0,00 545,00 0,00 0,00 0,00 0,00 545,00 95,40 127,17 28/02/2014
697 322100 MATHEUS PHILLIPE QUADROS DE CASTRO ESTAGIARIO ATIVO DIVINOPOLIS; DIVINÓPOLIS - 07ª PJ 545,00 0,00 0,00 0,00 0,00 0,00 545,00 0,00 0,00 0,00 0,00 545,00 121,90 0,00 28/02/2014
698 280300 MAURO MAIA SATHLER ESTAGIARIO ATIVO Informação não disponível 545,00 0,00 0,00 0,00 0,00 0,00 545,00 0,00 0,00 0,00 0,00 545,00 121,90 0,00 28/02/2014
699 336400 MAX IURY SANTIAGO ALVES ESTAGIARIO ATIVO MONTES CLAROS; MONTES CLAROS-10 PJ 545,00 0,00 0,00 0,00 0,00 0,00 545,00 0,00 0,00 0,00 0,00 545,00 121,90 0,00 28/02/2014
700 315300 MAXMILLER AZARIAS SILVA ESTAGIARIO ATIVO ITUMIRIM; ITUMIRIM - PJ ÚNICA 545,00 0,00 0,00 0,00 0,00 0,00 545,00 0,00 0,00 0,00 0,00 545,00 121,90 0,00 28/02/2014
701 256600 MAYARA CORDEIRO LIMA ESTAGIARIO ATIVO GOVERNADOR VALADARES; GOVERNADOR VALADARES-02 PJ 272,50 0,00 0,00 0,00 0,00 0,00 272,50 0,00 0,00 0,00 0,00 272,50 0,00 0,00 28/02/2014
702 315400 MAYARA PEREIRA DE ANDRADE ESTAGIARIO ATIVO PATOS DE MINAS; PATOS DE MINAS-01 PJ 545,00 0,00 0,00 0,00 0,00 0,00 545,00 0,00 0,00 0,00 0,00 545,00 121,90 0,00 28/02/2014
703 391200 MAYARA STEFANI DE SOUZA ESTAGIARIO ATIVO SAO JOAO DEL REI; SAO JOAO DEL REI-01 PJ 272,50 0,00 0,00 0,00 0,00 0,00 272,50 0,00 0,00 0,00 0,00 272,50 53,00 0,00 28/02/2014
704 256900 MAYRA LAZZARINI SILVEIRA RIBEIRO ESTAGIARIO ATIVO BELO HORIZONTE; TOXICOS-13 PJ 545,00 0,00 0,00 0,00 0,00 0,00 545,00 0,00 0,00 0,00 0,00 545,00 47,70 0,00 28/02/2014
705 341500 MAYTON MENDONCA DA SILVA ESTAGIARIO ATIVO MONTES CLAROS; COORD REG PJ DEF EDUC DIR CRIANCA ADOL NORTE 545,00 0,00 0,00 0,00 0,00 0,00 545,00 0,00 0,00 0,00 0,00 545,00 111,30 0,00 28/02/2014
706 353500 MEIRY CLAUDIA DE MELO BERNARDES ESTAGIARIO ATIVO ARAXA; ARAXA-01 PJ 545,00 0,00 0,00 0,00 0,00 0,00 545,00 0,00 0,00 0,00 0,00 545,00 121,90 0,00 28/02/2014
707 347300 MELINA FERREIRA RODRIGUES ESTAGIARIO ATIVO RIO NOVO; RIO NOVO - PJ ÚNICA 545,00 0,00 0,00 0,00 0,00 0,00 545,00 0,00 0,00 0,00 0,00 545,00 121,90 0,00 28/02/2014
708 299200 MELISSA TARCILA CRISTELLI SILVA ESTAGIARIO ATIVO BELO HORIZONTE; PROC. JUSTICA DIR. DIFUSOS E COLETIVOS 545,00 0,00 0,00 0,00 0,00 0,00 545,00 0,00 0,00 0,00 0,00 545,00 68,90 0,00 28/02/2014
709 347400 MICHAEL AUGUSTO LUIZ ESTAGIARIO ATIVO JACUTINGA; JACUTINGA - PJ ÚNICA 545,00 0,00 0,00 0,00 0,00 0,00 545,00 0,00 0,00 0,00 0,00 545,00 121,90 0,00 28/02/2014
710 384700 MICHELE SOARES DA SILVA ESTAGIARIO ATIVO BELO HORIZONTE; JUIZO DE FAMILIA-02 PJ 817,50 0,00 0,00 0,00 0,00 0,00 817,50 0,00 0,00 0,00 0,00 817,50 121,90 0,00 28/02/2014
711 322200 MICHELLE BRAGA DINIZ DE OLIVEIRA ESTAGIARIO ATIVO SANTA LUZIA; SANTA LUZIA-05 PJ 545,00 0,00 0,00 0,00 0,00 0,00 545,00 0,00 0,00 0,00 0,00 545,00 121,90 0,00 28/02/2014
712 384800 MICHELLE TATIANE DE CAMPOS ESTAGIARIO ATIVO BELO HORIZONTE; SUPERINTENDENCIA DE TECNOLOGIA DA INFORMACAO 817,50 0,00 0,00 0,00 0,00 0,00 817,50 0,00 0,00 0,00 0,00 817,50 121,90 0,00 28/02/2014
713 353600 MICHELLI MUSSE JACOB ESTAGIARIO ATIVO Informação não disponível 545,00 0,00 0,00 0,00 0,00 0,00 545,00 0,00 0,00 0,00 0,00 545,00 121,90 0,00 28/02/2014
714 384900 MIKEL RODRIGO DE PAULA PINTO ESTAGIARIO ATIVO BELO HORIZONTE; DIRETORIA DE SUPORTE E MANUTENCAO 817,50 0,00 0,00 0,00 0,00 0,00 817,50 0,00 0,00 0,00 0,00 817,50 121,90 0,00 28/02/2014
715 336700 MILENE FERREIRA MACHADO ESTAGIARIO ATIVO RIBEIRAO DAS NEVES; RIBEIRAO DAS NEVES-01 PJ 545,00 0,00 0,00 0,00 0,00 0,00 545,00 0,00 0,00 0,00 0,00 545,00 121,90 0,00 28/02/2014
716 363900 MILLA CHRISTI PEREIRA DA SILVA ESTAGIARIO ATIVO UBERLANDIA; UBERLANDIA-11 PJ 545,00 0,00 0,00 0,00 0,00 0,00 545,00 0,00 0,00 0,00 0,00 545,00 121,90 0,00 28/02/2014
717 336800 MIRNA CASTELNOVO NUNES ESTAGIARIO ATIVO BELO HORIZONTE; FAZENDA PUBLICA E EXECUCOES FISCAIS-01 PJ 545,00 0,00 0,00 0,00 0,00 0,00 545,00 0,00 0,00 0,00 0,00 545,00 121,90 0,00 28/02/2014
718 341600 MOISES SILVA DE CASTRO ESTAGIARIO ATIVO PIRANGA; PIRANGA - PJ ÚNICA 545,00 0,00 0,00 0,00 0,00 0,00 545,00 0,00 0,00 0,00 0,00 545,00 121,90 0,00 28/02/2014
719 329000 MONIA NAVA CARVALHO REIS ESTAGIARIO ATIVO BOA ESPERANCA; BOA ESPERANCA-02 PJ 545,00 0,00 0,00 0,00 0,00 0,00 545,00 0,00 0,00 0,00 0,00 545,00 121,90 0,00 28/02/2014
720 257100 MONICA VIANA BRAMBATTI ESTAGIARIO ATIVO ITURAMA; ITURAMA-01 PJ 545,00 0,00 0,00 0,00 0,00 0,00 545,00 0,00 0,00 0,00 0,00 545,00 21,20 0,00 28/02/2014
721 341700 MONIQUE MARIA CAMPOLINA DE SOUZA ESTAGIARIO ATIVO CONSELHEIRO LAFAIETE; CONSELHEIRO LAFAIETE-02 PJ 545,00 0,00 0,00 0,00 0,00 0,00 545,00 0,00 0,00 0,00 0,00 545,00 121,90 0,00 28/02/2014
722 385000 NADIA MARIA PEREIRA ESTAGIARIO ATIVO BELO HORIZONTE; CRIANÇAS E ADOLESCENTES-23 PJ-INFRACIONAL 817,50 0,00 0,00 0,00 0,00 0,00 817,50 0,00 0,00 0,00 0,00 817,50 63,60 0,00 28/02/2014
723 347500 NAGILLA CRISTINA SILVA ESTAGIARIO ATIVO IGARAPE; IGARAPE - 01ª PJ 545,00 0,00 0,00 0,00 0,00 0,00 545,00 0,00 0,00 0,00 0,00 545,00 121,90 0,00 28/02/2014
724 275200 NAIANA ZAIDEN REZENDE SOUZA ESTAGIARIO ATIVO UBERLANDIA; UBERLANDIA-05 PJ 508,67 0,00 0,00 0,00 0,00 0,00 508,67 0,00 0,00 0,00 0,00 508,67 106,00 0,00 28/02/2014
725 368500 NAIARA GOMES DE SOUZA ESTAGIARIO ATIVO VARZEA DA PALMA; VARZEA DA PALMA-02 PJ 545,00 0,00 0,00 0,00 0,00 0,00 545,00 0,00 0,00 0,00 0,00 545,00 121,90 0,00 28/02/2014
726 101 NAIRO DE ASSIS BARBOSA JUNIOR CABO ATIVO BELO HORIZONTE - COMARCA; COORD ESTADUAL COMBATE CRIMES CIBERNETICOS 1.477,90 0,00 0,00 0,00 0,00 0,00 1.477,90 0,00 0,00 0,00 0,00 1.477,90 457,00 275,74 28/02/2014
727 291800 NAJARA CRISTIANE DOS SANTOS ESTAGIARIO ATIVO BELO HORIZONTE; COORD ESTADUAL COMBATE CRIMES CIBERNETICOS 545,00 0,00 0,00 0,00 0,00 0,00 545,00 0,00 0,00 0,00 0,00 545,00 121,90 0,00 28/02/2014
728 372600 NARA PINTO DE OLIVEIRA ESTAGIARIO ATIVO JUIZ DE FORA; JUIZ DE FORA-17 PJ 545,00 0,00 0,00 0,00 0,00 0,00 545,00 0,00 0,00 0,00 0,00 545,00 121,90 0,00 28/02/2014
729 385100 NASHILLA CEDRO ANDRADE ARAUJO ESTAGIARIO ATIVO BELO HORIZONTE; DIRETORIA DE PRODUCAO EDITORIAL 817,50 0,00 0,00 0,00 0,00 0,00 817,50 0,00 0,00 0,00 0,00 817,50 121,90 0,00 28/02/2014
730 360000 NATALIA DE DEUS AFONSECA ESTAGIARIO ATIVO BELO HORIZONTE; 22ª PJ DEF DIREITO PESSOAS DEFICIENCIA IDOSOS 545,00 0,00 0,00 0,00 0,00 0,00 545,00 0,00 0,00 0,00 0,00 545,00 121,90 0,00 28/02/2014
731 368600 NATALIA GIMER GUIMARAES PAULINO ESTAGIARIO ATIVO CONTAGEM; CONTAGEM-07 PJ 545,00 0,00 0,00 0,00 0,00 0,00 545,00 0,00 0,00 0,00 0,00 545,00 121,90 0,00 28/02/2014
732 249400 NATALIA SOARES DE OLIVEIRA RODRIGUES ESTAGIARIO ATIVO BELO HORIZONTE; TOXICOS-13 PJ 545,00 0,00 0,00 0,00 0,00 0,00 545,00 0,00 0,00 0,00 0,00 545,00 68,90 0,00 28/02/2014
733 305200 NATHALIA DUARTE MOREIRA ESTAGIARIO ATIVO BELO HORIZONTE; DEF DIREIT HUMAN-COMB A VIOLENC DOMEST-18 PJ 545,00 0,00 0,00 0,00 0,00 0,00 545,00 0,00 0,00 0,00 0,00 545,00 74,20 0,00 28/02/2014
734 368700 NATHALINE DE LIMA CARVALHO ESTAGIARIO ATIVO MACHADO; MACHADO-01 PJ 545,00 0,00 0,00 0,00 0,00 0,00 545,00 0,00 0,00 0,00 0,00 545,00 121,90 0,00 28/02/2014
735 372800 NATHAN ALAN VIANA CASARINO ESTAGIARIO ATIVO CAMPO BELO; CAMPO BELO-02 PJ 545,00 0,00 0,00 0,00 0,00 0,00 545,00 0,00 0,00 0,00 0,00 545,00 121,90 0,00 28/02/2014
736 353700 NATHYELLE BORGES SANTOS ESTAGIARIO ATIVO UBERLANDIA; UBERLANDIA-10 PJ 545,00 0,00 0,00 0,00 0,00 0,00 545,00 0,00 0,00 0,00 0,00 545,00 121,90 0,00 28/02/2014
737 372900 NAYARA AMELIA ALVES ESTAGIARIO ATIVO BELO HORIZONTE; GABINETE DOS PROCURADORES 545,00 0,00 0,00 0,00 0,00 0,00 545,00 0,00 0,00 0,00 0,00 545,00 121,90 0,00 28/02/2014
738 285600 NAYARA ANGELYCA CARDOSO SILVA ESTAGIARIO ATIVO ARAGUARI; ARAGUARI-01 PJ 545,00 0,00 0,00 0,00 0,00 0,00 545,00 0,00 0,00 0,00 0,00 545,00 121,90 0,00 28/02/2014
739 331700 NAYARA CAROLINE MENDES ANGELINI ESTAGIARIO ATIVO GUAXUPE; GUAXUPE-02 PJ 545,00 0,00 0,00 0,00 0,00 0,00 545,00 0,00 0,00 0,00 0,00 545,00 121,90 0,00 28/02/2014
740 336500 NAYARA CRISTINA FELICIANO DE FREITAS ESTAGIARIO ATIVO BELO HORIZONTE; JUIZO CRIMINAL-12 PJ 545,00 0,00 0,00 0,00 0,00 0,00 545,00 0,00 0,00 0,00 0,00 545,00 121,90 0,00 28/02/2014
741 341900 NAYARA RIBEIRO SCHRODER ESTAGIARIO ATIVO JUIZ DE FORA; JUIZ DE FORA-01 PJ 545,00 0,00 0,00 0,00 0,00 0,00 545,00 0,00 0,00 0,00 0,00 545,00 121,90 0,00 28/02/2014
742 329200 NAYARA ROBERTA NERY DE ARAUJO ESTAGIARIO ATIVO SANTA LUZIA; SANTA LUZIA-01 PJ 545,00 0,00 0,00 0,00 0,00 0,00 545,00 0,00 0,00 0,00 0,00 545,00 121,90 0,00 28/02/2014
743 385200 NELSON UCHOA ALONSO RODRIGUES ESTAGIARIO ATIVO BELO HORIZONTE; CENTRAL DE APOIO TECNICO 817,50 0,00 0,00 0,00 0,00 0,00 817,50 0,00 0,00 0,00 0,00 817,50 121,90 0,00 28/02/2014
744 322300 NICOLE CARVALHO CARAM GUEDES ESTAGIARIO ATIVO BELO HORIZONTE; PROC. JUSTICA DIR. DIFUSOS E COLETIVOS 545,00 0,00 0,00 0,00 0,00 0,00 545,00 0,00 0,00 0,00 0,00 545,00 121,90 0,00 28/02/2014
745 309100 NIELSEN DE AGUIAR ROCHA ESTAGIARIO ATIVO TRES PONTAS; TRES PONTAS-01 PJ 545,00 0,00 0,00 0,00 0,00 0,00 545,00 0,00 0,00 0,00 0,00 545,00 121,90 0,00 28/02/2014
746 23 NILSON ALVES FILHO CABO ATIVO BELO HORIZONTE - COMARCA; GAECO - SECRETARIA 1.477,90 0,00 0,00 0,00 0,00 0,00 1.477,90 0,00 4,34 0,00 4,34 1.473,56 457,00 538,36 28/02/2014
747 385300 NIVIA TEODORO VASCONCELOS ESTAGIARIO ATIVO Informação não disponível 817,50 0,00 0,00 0,00 0,00 0,00 817,50 0,00 0,00 0,00 0,00 817,50 121,90 0,00 28/02/2014
748 385400 ONI MARCIA JARDIM ESTAGIARIO ATIVO BELO HORIZONTE; OUVIDORIA DO MPMG 817,50 0,00 0,00 0,00 0,00 0,00 817,50 0,00 0,00 0,00 0,00 817,50 121,90 0,00 28/02/2014
749 315600 OTAVIO AUGUSTO VIEIRA BOMTEMPO ESTAGIARIO ATIVO PATOS DE MINAS; PATOS DE MINAS-03 PJ 545,00 0,00 0,00 0,00 0,00 0,00 545,00 0,00 0,00 0,00 0,00 545,00 121,90 0,00 28/02/2014
750 329300 PABLO DIAS RESENDE ESTAGIARIO ATIVO NOVA PONTE; NOVA PONTE - PJ ÚNICA 545,00 0,00 0,00 0,00 0,00 0,00 545,00 0,00 0,00 0,00 0,00 545,00 121,90 0,00 28/02/2014
751 249600 PABLO TITO GARCIA ESTAGIARIO ATIVO Informação não disponível 417,83 0,00 0,00 0,00 0,00 0,00 417,83 0,00 0,00 0,00 0,00 417,83 84,80 0,00 28/02/2014
752 291900 PACCELLI WANDREY CHAGAS SANTOS ESTAGIARIO ATIVO BRASILIA DE MINAS; BRASILIA DE MINAS-01 PJ 545,00 0,00 0,00 0,00 0,00 0,00 545,00 0,00 0,00 0,00 0,00 545,00 121,90 0,00 28/02/2014
753 276600 PAMELA RAISSA HORRANA QUEIROZ ESTAGIARIO ATIVO BELO HORIZONTE; TRIBUNAL DO JURI-07 PJ-02 TRIBUNAL 545,00 0,00 0,00 0,00 0,00 0,00 545,00 0,00 0,00 0,00 0,00 545,00 121,90 0,00 28/02/2014
754 95 PAOLA BONANATO LOPES MAJOR ATIVO BELO HORIZONTE - COMARCA; CAO-DIREITOS HUMANOS E APOIO COMUNITARIO 3.425,36 0,00 0,00 0,00 0,00 0,00 3.425,36 0,00 178,77 0,00 178,77 3.246,59 457,00 0,00 28/02/2014
755 378000 PATRICIA APARECIDA DA ASSIS PINTO ESTAGIARIO ATIVO PASSA TEMPO; PASSA TEMPO - PJ ÚNICA 545,00 0,00 0,00 0,00 0,00 0,00 545,00 0,00 0,00 0,00 0,00 545,00 116,60 0,00 28/02/2014
756 305300 PATRICIA APARECIDA GODINHO ESTAGIARIO ATIVO PONTE NOVA; PONTE NOVA-01 PJ 545,00 0,00 0,00 0,00 0,00 0,00 545,00 0,00 0,00 0,00 0,00 545,00 121,90 0,00 28/02/2014
757 305400 PATRICIA BOTELHO BALDINO ESTAGIARIO ATIVO BELO HORIZONTE; CRIANÇAS E ADOLESCENTES-23 PJ-INFRACIONAL 545,00 0,00 0,00 0,00 0,00 0,00 545,00 0,00 0,00 0,00 0,00 545,00 121,90 0,00 28/02/2014
758 300800 PATRICIA DE SOUSA RESENDE ESTAGIARIO ATIVO JUIZ DE FORA; JUIZ DE FORA-02 PJ 545,00 0,00 0,00 0,00 0,00 0,00 545,00 0,00 0,00 0,00 0,00 545,00 121,90 0,00 28/02/2014
759 292200 PATRICIA JUNQUEIRA RODRIGUES REZENDE ESTAGIARIO ATIVO SAO LOURENCO; SAO LOURENCO-02 PJ 545,00 0,00 0,00 0,00 0,00 0,00 545,00 0,00 0,00 0,00 0,00 545,00 121,90 0,00 28/02/2014
760 336900 PATRICIA PEIXOTO ABRANCHES ESTAGIARIO ATIVO UBERLANDIA; UBERLANDIA-05 PJ 545,00 0,00 0,00 0,00 0,00 0,00 545,00 0,00 0,00 0,00 0,00 545,00 121,90 0,00 28/02/2014
761 368900 PATRICIA REGINA ANDRADE ESTAGIARIO ATIVO BELO HORIZONTE; PROC. JUSTICA DIR. DIFUSOS E COLETIVOS 545,00 0,00 0,00 0,00 0,00 0,00 545,00 0,00 0,00 0,00 0,00 545,00 121,90 0,00 28/02/2014
762 305500 PATRICK ALEXSANDER PINTO DA COSTA ESTAGIARIO ATIVO CONGONHAS; CONGONHAS-01 PJ 545,00 0,00 0,00 0,00 0,00 0,00 545,00 0,00 0,00 0,00 0,00 545,00 121,90 0,00 28/02/2014
763 257700 PAULA CARRARA DA SILVA ESTAGIARIO ATIVO JUIZ DE FORA; JUIZ DE FORA-14 PJ 545,00 0,00 0,00 0,00 0,00 0,00 545,00 0,00 0,00 0,00 0,00 545,00 95,40 90,83 28/02/2014
764 299500 PAULA DANIELLE SOUSA ESTAGIARIO ATIVO LAVRAS; LAVRAS-02 PJ 545,00 0,00 0,00 0,00 0,00 0,00 545,00 0,00 0,00 0,00 0,00 545,00 121,90 0,00 28/02/2014
765 329400 PAULA GROKE ESTAGIARIO ATIVO ITAPAGIPE; ITAPAGIPE - PJ ÚNICA 545,00 0,00 0,00 0,00 0,00 0,00 545,00 0,00 0,00 0,00 0,00 545,00 121,90 0,00 28/02/2014
766 315800 PAULO CESAR DOS SANTOS JUNIOR ESTAGIARIO ATIVO EUGENOPOLIS; EUGENOPOLIS - PJ ÚNICA 545,00 0,00 0,00 0,00 0,00 0,00 545,00 0,00 0,00 0,00 0,00 545,00 121,90 0,00 28/02/2014
767 292000 PAULO HENRIQUE D'ASSUMPCAO FONSECA ESTAGIARIO ATIVO DIVINOPOLIS; DIVINOPOLIS-05 PJ 545,00 0,00 0,00 0,00 0,00 0,00 545,00 0,00 0,00 0,00 0,00 545,00 121,90 0,00 28/02/2014
768 337000 PAULO HENRIQUE FERREIRA BARROS ESTAGIARIO ATIVO BELO HORIZONTE; CAO-CRIMINAL-GABINETES 545,00 0,00 0,00 0,00 0,00 0,00 545,00 0,00 0,00 0,00 0,00 545,00 116,60 0,00 28/02/2014
769 322400 PAULO HENRIQUE LAMOUNIER QUADROS ESTAGIARIO ATIVO DIVINOPOLIS; DIVINOPOLIS-09 PJ 545,00 0,00 0,00 0,00 0,00 0,00 545,00 0,00 0,00 0,00 0,00 545,00 121,90 0,00 28/02/2014
770 47 PAULO LEONARDO BENICIO PRAXEDES TENENTE CORONEL ATIVO BELO HORIZONTE - COMARCA; COORD ESTADUAL COMBATE CRIMES CIBERNETICOS 4.260,42 0,00 0,00 0,00 0,00 0,00 4.260,42 0,00 355,63 0,00 355,63 3.904,79 457,00 0,00 28/02/2014
771 37 PAULO MARTINS JUNIOR 1O. SARGENTO ATIVO BELO HORIZONTE - COMARCA; COORD DE PLANEJAMENTO INSTITUCIONAL 1.918,66 0,00 0,00 0,00 0,00 0,00 1.918,66 0,00 9,82 0,00 9,82 1.908,84 457,00 0,00 28/02/2014
772 249800 PEDRO BADENES EI HUAIEH ESTAGIARIO ATIVO AIURUOCA; AIURUOCA - PJ ÚNICA 545,00 0,00 0,00 0,00 0,00 0,00 545,00 0,00 0,00 0,00 0,00 545,00 121,90 0,00 28/02/2014
773 342300 PEDRO BERALDO CAMBAIA FERREIRA ESTAGIARIO ATIVO JUIZ DE FORA; JUIZ DE FORA-06 PJ 545,00 0,00 0,00 0,00 0,00 0,00 545,00 0,00 0,00 0,00 0,00 545,00 121,90 0,00 28/02/2014
774 306700 PEDRO EMILIO PARADELO ESTAGIARIO ATIVO OURO FINO; OURO FINO-01 PJ 545,00 0,00 0,00 0,00 0,00 0,00 545,00 0,00 0,00 0,00 0,00 545,00 121,90 0,00 28/02/2014
775 342400 PEDRO FERRAZ DA SILVA VEIGA ESTAGIARIO ATIVO LEOPOLDINA; LEOPOLDINA-01 PJ 545,00 0,00 0,00 0,00 0,00 0,00 545,00 0,00 0,00 0,00 0,00 545,00 121,90 0,00 28/02/2014
776 329500 PEDRO HENRIQUE ALKIMIM JORDAO ESTAGIARIO ATIVO BELO HORIZONTE; PJ AUXILIAR DA CAPITAL 545,00 0,00 0,00 0,00 0,00 0,00 545,00 0,00 0,00 0,00 0,00 545,00 121,90 0,00 28/02/2014
777 385500 PEDRO HENRIQUE CAIRES DA SILVA ESTAGIARIO ATIVO BELO HORIZONTE; SUPERINTENDENCIA DE TECNOLOGIA DA INFORMACAO 817,50 0,00 0,00 0,00 0,00 0,00 817,50 0,00 0,00 0,00 0,00 817,50 121,90 0,00 28/02/2014
778 385600 PEDRO HENRIQUE DE MATOS ESTAGIARIO ATIVO BELO HORIZONTE; SUPERINTENDENCIA DE COMUNICACAO INTEGRADA 817,50 0,00 0,00 0,00 0,00 0,00 817,50 0,00 0,00 0,00 0,00 817,50 121,90 0,00 28/02/2014
779 369000 PEDRO HENRIQUE DE SOUZA COSTA ESTAGIARIO ATIVO MURIAE; MURIAE- SECRETARIA DAS PROMOTORIAS 545,00 0,00 0,00 0,00 0,00 0,00 545,00 0,00 0,00 0,00 0,00 545,00 121,90 0,00 28/02/2014
780 337100 PEDRO HENRIQUE FELICIANO ESTAGIARIO ATIVO MONTES CLAROS; MONTES CLAROS-02 PJ 545,00 0,00 0,00 0,00 0,00 0,00 545,00 0,00 0,00 0,00 0,00 545,00 121,90 0,00 28/02/2014
781 385700 PEDRO HENRIQUE FONSECA FERNANDES ESTAGIARIO ATIVO Informação não disponível 681,25 0,00 0,00 0,00 0,00 0,00 681,25 0,00 0,00 0,00 0,00 681,25 100,70 0,00 28/02/2014
782 385800 PEDRO HENRIQUE LOBATO MATOS ESTAGIARIO ATIVO BELO HORIZONTE; PROCON-MG-GAB DO COORDENADOR DO PROCON-MG 735,75 0,00 0,00 0,00 0,00 0,00 735,75 0,00 0,00 0,00 0,00 735,75 106,00 0,00 28/02/2014
783 120700 PEDRO HENRIQUE MENDES DRUMONT ESTAGIARIO ATIVO BELO HORIZONTE; FAZENDA PUBLICA E EXECUCOES FISCAIS-01 PJ 545,00 0,00 0,00 0,00 0,00 0,00 545,00 0,00 0,00 0,00 0,00 545,00 121,90 0,00 28/02/2014
784 309400 PEDRO HENRIQUE VALENTINO COUTO ESTAGIARIO ATIVO RIBEIRAO DAS NEVES; RIBEIRAO DAS NEVES-03 PJ 545,00 0,00 0,00 0,00 0,00 0,00 545,00 0,00 0,00 0,00 0,00 545,00 121,90 0,00 28/02/2014
785 329600 PEDRO LUIZ NORONHA DIAS SENNA ESTAGIARIO ATIVO BRASOPOLIS; BRASOPOLIS - PJ ÚNICA 545,00 0,00 0,00 0,00 0,00 0,00 545,00 0,00 0,00 0,00 0,00 545,00 121,90 0,00 28/02/2014
786 373000 PHELIPPE BOARETO MARCAL ESTAGIARIO ATIVO Informação não disponível 545,00 0,00 0,00 0,00 0,00 0,00 545,00 0,00 0,00 0,00 0,00 545,00 121,90 0,00 28/02/2014
787 347700 PHILIPE DE BARROS SALES ESTAGIARIO ATIVO VESPASIANO; VESPASIANO-04 PJ 526,83 0,00 0,00 0,00 0,00 0,00 526,83 0,00 0,00 0,00 0,00 526,83 111,30 0,00 28/02/2014
788 268400 PHILIPE OUVERNEY OLIVEIRA MENDONCA ESTAGIARIO ATIVO DIVINO; DIVINO - PJ ÚNICA 545,00 0,00 0,00 0,00 0,00 0,00 545,00 0,00 0,00 0,00 0,00 545,00 121,90 0,00 28/02/2014
789 237400 PHILIPPE PEREIRA DOS SANTOS ESTAGIARIO ATIVO TEOFILO OTONI; TEOFILO OTONI-02 PJ 72,67 0,00 0,00 0,00 0,00 0,00 72,67 0,00 0,00 0,00 0,00 72,67 21,20 0,00 28/02/2014
790 316100 POLIANA FLAVIA MOREIRA GIACOMELLI ESTAGIARIO ATIVO BELO HORIZONTE; PROC. JUSTICA DIR. DIFUSOS E COLETIVOS 545,00 0,00 0,00 0,00 0,00 0,00 545,00 0,00 0,00 0,00 0,00 545,00 121,90 0,00 28/02/2014
791 347600 POLIANA TOMAZ SOUZA ESTAGIARIO ATIVO Informação não disponível 545,00 0,00 0,00 0,00 0,00 0,00 545,00 0,00 0,00 0,00 0,00 545,00 121,90 0,00 28/02/2014
792 360800 POLLYANNA NUNES ARAUJO ESTAGIARIO ATIVO BELO HORIZONTE; JUIZADO ESPECIAL CÍVEL E CRIMINAL - 08ª PJ 545,00 0,00 0,00 0,00 0,00 0,00 545,00 0,00 0,00 0,00 0,00 545,00 121,90 0,00 28/02/2014
793 385900 PRISCILA APARECIDA PINTO BOSEJA FERREIRA ESTAGIARIO ATIVO BELO HORIZONTE; 23ª PJ DEF DIREITOS CRIANÇAS E ADOLESCENTES 817,50 0,00 0,00 0,00 0,00 0,00 817,50 0,00 0,00 0,00 0,00 817,50 121,90 0,00 28/02/2014
794 373100 PRISCILA ARAUJO DE FREITAS ESTAGIARIO ATIVO BELO HORIZONTE; JUIZADO ESPECIAL CÍVEL E CRIMINAL - 08ª PJ 545,00 0,00 0,00 0,00 0,00 0,00 545,00 0,00 0,00 0,00 0,00 545,00 121,90 0,00 28/02/2014
795 299800 PRISCILA CAMPOS SILVA ESTAGIARIO ATIVO Informação não disponível 199,83 0,00 0,00 0,00 0,00 0,00 199,83 0,00 0,00 0,00 0,00 199,83 47,70 0,00 28/02/2014
796 343700 PRISCILA FERNANDA MACHADO DE SOUZA ESTAGIARIO ATIVO BELO HORIZONTE; 18 PJ DEF DIR HUM AP COM CONF AG E FISC POL 545,00 0,00 0,00 0,00 0,00 0,00 545,00 0,00 0,00 0,00 0,00 545,00 121,90 0,00 28/02/2014
797 369100 PRISCILA MARA SOUZA VIEIRA ESTAGIARIO ATIVO IPATINGA; IPATINGA-01 PJ 545,00 0,00 0,00 0,00 0,00 0,00 545,00 0,00 0,00 0,00 0,00 545,00 121,90 0,00 28/02/2014
798 391300 PRISCILA YASMIN FLORES EMILIANO ESTAGIARIO ATIVO IGARAPE; IGARAPE - 01ª PJ 272,50 0,00 0,00 0,00 0,00 0,00 272,50 0,00 0,00 0,00 0,00 272,50 58,30 0,00 28/02/2014
799 353900 QUEZIA DE PAULA RIBEIRO ESTAGIARIO ATIVO GOVERNADOR VALADARES; GOVERNADOR VALADARES-13 PROMOTORIA DEJUSTICA 545,00 0,00 0,00 0,00 0,00 0,00 545,00 0,00 0,00 0,00 0,00 545,00 116,60 0,00 28/02/2014
800 386000 RACHEL ASSIS BARAKY VERNER ESTAGIARIO ATIVO BELO HORIZONTE; EXTINTA - DIRETORIA SERVIÇOS GERAIS E TRANS 817,50 0,00 0,00 0,00 0,00 0,00 817,50 0,00 0,00 0,00 0,00 817,50 68,90 0,00 28/02/2014
801 342500 RACHEL FRANCIANE DE OLIVEIRA ESTAGIARIO ATIVO JUIZ DE FORA; JUIZ DE FORA-03 PJ 545,00 0,00 0,00 0,00 0,00 0,00 545,00 0,00 0,00 0,00 0,00 545,00 121,90 0,00 28/02/2014
802 337200 RAFAEL BALTAZAR GOMES DOS SANTOS ESTAGIARIO ATIVO ITUIUTABA; ITUIUTABA-05 PJ 545,00 0,00 0,00 0,00 0,00 0,00 545,00 0,00 0,00 0,00 0,00 545,00 121,90 0,00 28/02/2014
803 268500 RAFAEL BARBOSA AMARAL ESTAGIARIO ATIVO BOA ESPERANCA; BOA ESPERANCA-01 PJ 545,00 0,00 0,00 0,00 0,00 0,00 545,00 0,00 0,00 0,00 0,00 545,00 121,90 0,00 28/02/2014
804 329700 RAFAEL CEVIDANES PEREIRA ABELHA ESTAGIARIO ATIVO IPATINGA; IPATINGA-03 PJ 545,00 0,00 0,00 0,00 0,00 0,00 545,00 0,00 0,00 0,00 0,00 545,00 116,60 0,00 28/02/2014
805 354000 RAFAEL DA MATA XAVIER ESTAGIARIO ATIVO BELO HORIZONTE; JUIZO CRIMINAL-12 PJ 545,00 0,00 0,00 0,00 0,00 0,00 545,00 0,00 0,00 0,00 0,00 545,00 121,90 0,00 28/02/2014
806 360100 RAFAEL DA SILVA LIBERANO ESTAGIARIO ATIVO JUIZ DE FORA; COORD REG PJ ORDEM ECON TRIB ZONA DA MATA-GAB 545,00 0,00 0,00 0,00 0,00 0,00 545,00 0,00 0,00 0,00 0,00 545,00 121,90 0,00 28/02/2014
807 386100 RAFAEL DE ASSIS MEIRELES ESTAGIARIO ATIVO BELO HORIZONTE; CENTRO DE ESTUDOS E APERFEICOAMENTO FUNCIONAL 817,50 0,00 0,00 0,00 0,00 0,00 817,50 0,00 0,00 0,00 0,00 817,50 121,90 0,00 28/02/2014
808 337300 RAFAEL DE LUCCA TALMA ESTAGIARIO ATIVO UBA; UBA-02 PJ 545,00 0,00 0,00 0,00 0,00 0,00 545,00 0,00 0,00 0,00 0,00 545,00 121,90 0,00 28/02/2014
809 364100 RAFAEL JOSE DE CASTRO ESTAGIARIO ATIVO JUIZ DE FORA; JUIZ DE FORA-24 PJ 545,00 0,00 0,00 0,00 0,00 0,00 545,00 0,00 0,00 0,00 0,00 545,00 121,90 0,00 28/02/2014
810 268600 RAFAEL LUIZ BALE CANTARINO ESTAGIARIO ATIVO JUIZ DE FORA; JUIZ DE FORA-01 PJ 545,00 0,00 0,00 0,00 0,00 0,00 545,00 0,00 0,00 0,00 0,00 545,00 121,90 0,00 28/02/2014
811 263000 RAFAEL LUIZ CAETANO ESTAGIARIO ATIVO SAO LOURENCO; SAO LOURENCO-03 PJ 545,00 0,00 0,00 0,00 0,00 0,00 545,00 0,00 0,00 0,00 0,00 545,00 68,90 0,00 28/02/2014
812 329800 RAFAEL OLIVEIRA DE SOUZA ESTAGIARIO ATIVO SANTOS DUMONT; SANTOS DUMONT-01 PJ 545,00 0,00 0,00 0,00 0,00 0,00 545,00 0,00 0,00 0,00 0,00 545,00 121,90 0,00 28/02/2014
813 329900 RAFAEL PIRES DEFELIPPE ESTAGIARIO ATIVO VICOSA; VICOSA-04 PJ 545,00 0,00 0,00 0,00 0,00 0,00 545,00 0,00 0,00 0,00 0,00 545,00 100,70 0,00 28/02/2014
814 342600 RAFAEL RIBEIRO DE OLIVEIRA ESTAGIARIO ATIVO BELO HORIZONTE; AUDITORIA MILITAR-09 PJ 272,50 0,00 0,00 0,00 0,00 0,00 272,50 0,00 0,00 0,00 0,00 272,50 47,70 0,00 28/02/2014
815 285900 RAFAEL TADEU DE FARIA SANTOS ESTAGIARIO ATIVO ABAETE; ABAETE - PJ ÚNICA 545,00 0,00 0,00 0,00 0,00 0,00 545,00 0,00 0,00 0,00 0,00 545,00 121,90 0,00 28/02/2014
816 342700 RAFAELA CRISTINA REIS FERREIRA ESTAGIARIO ATIVO JUIZ DE FORA; JUIZ DE FORA-13 PJ 545,00 0,00 0,00 0,00 0,00 0,00 545,00 0,00 0,00 0,00 0,00 545,00 121,90 0,00 28/02/2014
817 360200 RAFAELA FLAVIA DA SILVA ESTAGIARIO ATIVO PATOS DE MINAS; PATOS DE MINAS-02 PJ 545,00 0,00 0,00 0,00 0,00 0,00 545,00 0,00 0,00 0,00 0,00 545,00 121,90 0,00 28/02/2014
818 286000 RAFAELA PENA MAGALHAES CAMPOS ESTAGIARIO ATIVO CONTAGEM; CONTAGEM-08 PJ 545,00 0,00 0,00 0,00 0,00 0,00 545,00 0,00 0,00 0,00 0,00 545,00 121,90 0,00 28/02/2014
819 305700 RAFAELLO HENRIQUE MOREIRA TAVEIRA ESTAGIARIO ATIVO BELO HORIZONTE; AUDITORIA MILITAR-09 PJ 545,00 0,00 0,00 0,00 0,00 0,00 545,00 0,00 0,00 0,00 0,00 545,00 121,90 0,00 28/02/2014
820 337400 RAISSA ARAUJO SOUZA ESTAGIARIO ATIVO BELO HORIZONTE; JUIZO CRIMINAL-12 PJ 545,00 0,00 0,00 0,00 0,00 0,00 545,00 0,00 0,00 0,00 0,00 545,00 121,90 0,00 28/02/2014
821 268700 RAISSA SOUSA MARTINS ESTAGIARIO ATIVO Informação não disponível 545,00 0,00 0,00 0,00 0,00 0,00 545,00 0,00 0,00 0,00 0,00 545,00 95,40 0,00 28/02/2014
822 378800 RAIZZA PAULINA DO CARMO CUNHA ESTAGIARIO ATIVO CONTAGEM; CONTAGEM-11 PJ 545,00 0,00 0,00 0,00 0,00 0,00 545,00 0,00 0,00 0,00 0,00 545,00 121,90 0,00 28/02/2014
823 347800 RAMON PEREIRA TERUEL ESTAGIARIO ATIVO ESTRELA DO SUL; ESTRELA DO SUL - PJ ÚNICA 545,00 0,00 0,00 0,00 0,00 0,00 545,00 0,00 0,00 0,00 0,00 545,00 121,90 0,00 28/02/2014
824 391400 RAPHAELA DA SILVA PEREIRA ESTAGIARIO ATIVO GUARANI; GUARANI - PJ ÚNICA 272,50 0,00 0,00 0,00 0,00 0,00 272,50 0,00 0,00 0,00 0,00 272,50 58,30 0,00 28/02/2014
825 300000 RAQUEL LETICIA DE MATTOS SIMOES ESTAGIARIO ATIVO BELO HORIZONTE; JUIZO DE FAMILIA-02 PJ 545,00 0,00 0,00 0,00 0,00 0,00 545,00 0,00 0,00 0,00 0,00 545,00 121,90 0,00 28/02/2014
826 316200 RAQUEL SILVA MELO ESTAGIARIO ATIVO VAZANTE; VAZANTE - PJ ÚNICA 545,00 0,00 0,00 0,00 0,00 0,00 545,00 0,00 0,00 0,00 0,00 545,00 116,60 0,00 28/02/2014
827 59 RAUL MORAES DE EUCLIDES INVESTIGADOR DE POLICIA 2 ATIVO BELO HORIZONTE - COMARCA; GAECO - SECRETARIA 1.918,67 0,00 0,00 0,00 639,56 0,00 2.558,23 0,00 57,79 0,00 57,79 2.500,44 457,00 0,00 28/02/2014
828 69 RAVI RIBEIRO BARBOSA AGENTE DE POLICIA ATIVO BELO HORIZONTE - COMARCA; COORD DE PLANEJAMENTO INSTITUCIONAL 1.477,90 0,00 0,00 0,00 0,00 0,00 1.477,90 0,00 0,00 0,00 0,00 1.477,90 457,00 0,00 28/02/2014
829 354200 RAYHANNA FERNANDES DE SOUZA OLIVEIRA ESTAGIARIO ATIVO BELO HORIZONTE; CAO-DIREITOS HUMANOS E APOIO COMUNITARIO 545,00 0,00 0,00 0,00 0,00 0,00 545,00 0,00 0,00 0,00 0,00 545,00 121,90 0,00 28/02/2014
830 330000 RAYRONNE MENDES LAGES ESTAGIARIO ATIVO TEOFILO OTONI; TEOFILO OTONI-08 PJ 327,00 0,00 0,00 0,00 0,00 0,00 327,00 0,00 0,00 0,00 0,00 327,00 74,20 0,00 28/02/2014
831 391500 RAYSSA AZEVEDO ROCHA PEREIRA ESTAGIARIO ATIVO BELO HORIZONTE; JUIZO DE FAMILIA-02 PJ 272,50 0,00 0,00 0,00 0,00 0,00 272,50 0,00 0,00 0,00 0,00 272,50 58,30 0,00 28/02/2014
832 342900 REBECA LARA FONSECA DA SILVA ESTAGIARIO ATIVO BELO HORIZONTE; AUDITORIA MILITAR-09 PJ 545,00 0,00 0,00 0,00 0,00 0,00 545,00 0,00 0,00 0,00 0,00 545,00 121,90 0,00 28/02/2014
833 354300 REGINA GENI DE AMORIM E JUNCAL ESTAGIARIO ATIVO BELO HORIZONTE; CAO-DIREITOS HUMANOS E APOIO COMUNITARIO 436,00 0,00 0,00 0,00 0,00 0,00 436,00 0,00 0,00 0,00 0,00 436,00 95,40 0,00 28/02/2014
834 292500 REGYS CAMIAO REZENDE MEDEIROS ESTAGIARIO ATIVO ITAPECERICA; ITAPECERICA - PJ ÚNICA 545,00 0,00 0,00 0,00 0,00 0,00 545,00 0,00 0,00 0,00 0,00 545,00 121,90 0,00 28/02/2014
835 337500 RENAN NERY PORTO ESTAGIARIO ATIVO UBERABA; UBERABA-14 PJ 545,00 0,00 0,00 0,00 0,00 0,00 545,00 0,00 0,00 0,00 0,00 545,00 121,90 0,00 28/02/2014
836 386200 RENATA FERNANDES PARREIRAS ESTAGIARIO ATIVO BELO HORIZONTE; 23ª PJ DEF DIREITOS CRIANÇAS E ADOLESCENTES 817,50 0,00 0,00 0,00 0,00 0,00 817,50 0,00 0,00 0,00 0,00 817,50 121,90 0,00 28/02/2014
837 322600 RENATA LUCIANA SOARES SILVA ESTAGIARIO ATIVO RIBEIRAO DAS NEVES; RIBEIRAO DAS NEVES-01 PJ 545,00 0,00 0,00 0,00 0,00 0,00 545,00 0,00 0,00 0,00 0,00 545,00 121,90 0,00 28/02/2014
838 286100 RHAISSA COSTA DE MATOS ESTAGIARIO ATIVO BARBACENA; BARBACENA-05 PJ 545,00 0,00 0,00 0,00 0,00 0,00 545,00 0,00 0,00 0,00 0,00 545,00 121,90 0,00 28/02/2014
839 309500 RICARDO AUGUSTO DE CASRO ZINGONI ESTAGIARIO ATIVO POCOS DE CALDAS; POCOS DE CALDAS-02 PJ 545,00 0,00 0,00 0,00 0,00 0,00 545,00 0,00 0,00 0,00 0,00 545,00 121,90 0,00 28/02/2014
840 338400 RICARDO BRANQUINHO DE PASSOS MACIEL ESTAGIARIO ATIVO Informação não disponível 545,00 0,00 0,00 0,00 0,00 0,00 545,00 0,00 0,00 0,00 0,00 545,00 121,90 0,00 28/02/2014
841 56 RICARDO VIANA CAMPOS 3O.SARGENTO ATIVO BELO HORIZONTE - COMARCA; COORD DE PLANEJAMENTO INSTITUCIONAL 1.477,90 0,00 0,00 0,00 0,00 0,00 1.477,90 0,00 0,00 0,00 0,00 1.477,90 457,00 0,00 28/02/2014
842 322700 RIVIANE MARIA FELIPPE FERES LAVIOLA ESTAGIARIO ATIVO MURIAE; MURIAE-05 PJ 545,00 0,00 0,00 0,00 0,00 0,00 545,00 0,00 0,00 0,00 0,00 545,00 121,90 0,00 28/02/2014
843 386300 ROBERT RODRIGUES DE SAO JOSE ESTAGIARIO ATIVO BELO HORIZONTE; DIRETORIA DE IMPRENSA 817,50 0,00 0,00 0,00 0,00 0,00 817,50 0,00 0,00 0,00 0,00 817,50 63,60 0,00 28/02/2014
844 316500 ROBERTA MARTINS RODRIGUES ESTAGIARIO ATIVO LEOPOLDINA; LEOPOLDINA-04 PJ 545,00 0,00 0,00 0,00 0,00 0,00 545,00 0,00 0,00 0,00 0,00 545,00 121,90 0,00 28/02/2014
845 378100 ROBERTA VIEIRA PEREIRA ESTAGIARIO ATIVO BELO HORIZONTE; JUIZADO ESPECIAL CÍVEL E CRIMINAL - 08ª PJ 545,00 0,00 0,00 0,00 0,00 0,00 545,00 0,00 0,00 0,00 0,00 545,00 121,90 0,00 28/02/2014
846 11 ROBERTO HERMELINDO DOMINGUES 1O.TENENTE ATIVO BELO HORIZONTE - COMARCA; COORD DE PLANEJAMENTO INSTITUCIONAL 2.820,82 0,00 0,00 0,00 0,00 0,00 2.820,82 0,00 88,09 0,00 88,09 2.732,73 457,00 0,00 28/02/2014
847 386400 RODRIGO ASSIS PEREIRA LIMA ESTAGIARIO ATIVO BELO HORIZONTE; SUPERINTENDENCIA DE TECNOLOGIA DA INFORMACAO 817,50 0,00 0,00 0,00 0,00 0,00 817,50 0,00 0,00 0,00 0,00 817,50 121,90 0,00 28/02/2014
848 391600 RODRIGO CESAR PICON DE CARVALHO ESTAGIARIO ATIVO SAO JOAO DEL REI; SAO JOAO DEL REI-06 PJ 272,50 0,00 0,00 0,00 0,00 0,00 272,50 0,00 0,00 0,00 0,00 272,50 58,30 0,00 28/02/2014
849 337800 RODRIGO FERNANDES ROCHA ESTAGIARIO ATIVO IPANEMA; IPANEMA - PJ ÚNICA 545,00 0,00 0,00 0,00 0,00 0,00 545,00 0,00 0,00 0,00 0,00 545,00 121,90 0,00 28/02/2014
850 316600 RODRIGO FREITAS BISPO DE SOUZA ESTAGIARIO ATIVO TUPACIGUARA; TUPACIGUARA - PJ ÚNICA 545,00 0,00 0,00 0,00 0,00 0,00 545,00 0,00 0,00 0,00 0,00 545,00 121,90 0,00 28/02/2014
851 6 ROGERIO JOSE DA SILVA SUB TENENTE ATIVO BELO HORIZONTE - COMARCA; GAECO - SECRETARIA 2.152,80 0,00 0,00 0,00 0,00 0,00 2.152,80 0,00 27,38 0,00 27,38 2.125,42 457,00 0,00 28/02/2014
852 330300 ROGERIO SANTOS DE ALMEIDA ESTAGIARIO ATIVO UBERABA; UBERABA-07 PJ 545,00 0,00 0,00 0,00 0,00 0,00 545,00 0,00 0,00 0,00 0,00 545,00 100,70 0,00 28/02/2014
853 7 ROGERLANE RODRIGUES DA SILVEIRA 3O.SARGENTO ATIVO BELO HORIZONTE - COMARCA; GAECO - SECRETARIA 1.477,90 0,00 0,00 0,00 0,00 0,00 1.477,90 0,00 0,00 0,00 0,00 1.477,90 457,00 0,00 28/02/2014
854 300200 ROMULO MENDONCA PIMENTA LOPES ESTAGIARIO ATIVO VESPASIANO; VESPASIANO-02 PJ 545,00 0,00 0,00 0,00 0,00 0,00 545,00 0,00 0,00 0,00 0,00 545,00 116,60 0,00 28/02/2014
855 386500 ROSANGELA SOARES SILVA ESTAGIARIO ATIVO BELO HORIZONTE; DEFESA DA SAUDE-19 PJ 817,50 0,00 0,00 0,00 0,00 0,00 817,50 0,00 0,00 0,00 0,00 817,50 90,10 0,00 28/02/2014
856 316700 RUBENS RAMOS ROCHA ESTAGIARIO ATIVO GOVERNADOR VALADARES; GOVERNADOR VALADARES-05 PJ 545,00 0,00 0,00 0,00 0,00 0,00 545,00 0,00 0,00 0,00 0,00 545,00 116,60 0,00 28/02/2014
857 386600 SAMANTHA LOPES DA COSTA ESTAGIARIO ATIVO BELO HORIZONTE; SUPERINTENDENCIA DE COMUNICACAO INTEGRADA 817,50 0,00 0,00 0,00 0,00 0,00 817,50 0,00 0,00 0,00 0,00 817,50 121,90 0,00 28/02/2014
858 378200 SAMEA CAROLINE DE JESUS ESTAGIARIO ATIVO Informação não disponível 545,00 0,00 0,00 0,00 0,00 0,00 545,00 0,00 0,00 0,00 0,00 545,00 121,90 0,00 28/02/2014
859 68 SAMUEL MARCIO DA LUZ 1O. SARGENTO ATIVO BELO HORIZONTE - COMARCA; COORD DE PLANEJAMENTO INSTITUCIONAL 1.918,66 0,00 0,00 0,00 0,00 0,00 1.918,66 0,00 9,82 0,00 9,82 1.908,84 457,00 0,00 28/02/2014
860 293100 SAMUEL MIGUEL ABDALA JUNIOR ESTAGIARIO ATIVO BELO HORIZONTE; FAZENDA PUBLICA E EXECUCOES FISCAIS-01 PJ 545,00 0,00 0,00 0,00 0,00 0,00 545,00 0,00 0,00 0,00 0,00 545,00 121,90 0,00 28/02/2014
861 87 SAMUEL PASSOS MOREIRA INVESTIGADOR DE POLICIA 2 ATIVO BELO HORIZONTE - COMARCA; CAO-CRIM EXEC PENAL TRIB JURI AUD MILITAR 1.280,94 0,00 0,00 0,00 0,00 0,00 1.280,94 0,00 0,00 0,00 0,00 1.280,94 457,00 0,00 28/02/2014
862 364200 SANDRA CARLA MAIA MEDEIROS ESTAGIARIO ATIVO NOVA LIMA; NOVA LIMA-04 PJ 545,00 0,00 0,00 0,00 0,00 0,00 545,00 0,00 0,00 0,00 0,00 545,00 121,90 0,00 28/02/2014
863 88 SANDRA DA NATIVIDADE ESCRIVAO DE POLICIA ATIVO BELO HORIZONTE - COMARCA; CAO-CRIM EXEC PENAL TRIB JURI AUD MILITAR 1.572,24 0,00 0,00 0,00 524,08 0,00 2.096,32 0,00 23,14 0,00 23,14 2.073,18 457,00 0,00 28/02/2014
864 347900 SANDY DE OLIVEIRA RIBEIRO ESTAGIARIO ATIVO MONTES CLAROS; MONTES CLAROS-13 PJ 545,00 0,00 0,00 0,00 0,00 0,00 545,00 0,00 0,00 0,00 0,00 545,00 121,90 0,00 28/02/2014
865 391700 SANDY IARA ESTEVES BENTO ESTAGIARIO ATIVO DIVINOPOLIS; DIVINOPOLIS-12 PJ 272,50 0,00 0,00 0,00 0,00 0,00 272,50 0,00 0,00 0,00 0,00 272,50 58,30 0,00 28/02/2014
866 294300 SANNY JUSTINO QUEIROZ ESTAGIARIO ATIVO GUANHAES; GUANHAES-01 PJ 545,00 0,00 0,00 0,00 0,00 0,00 545,00 0,00 0,00 0,00 0,00 545,00 121,90 0,00 28/02/2014
867 373200 SANTIAGO PEREIRA OLIVEIRA ESTAGIARIO ATIVO UBERABA; UBERABA-15 PJ 545,00 0,00 0,00 0,00 0,00 0,00 545,00 0,00 0,00 0,00 0,00 545,00 121,90 0,00 28/02/2014
868 330500 SARA DE ANDRADE LEITE ESTAGIARIO ATIVO BAEPENDI; BAEPENDI - PJ ÚNICA 545,00 0,00 0,00 0,00 0,00 0,00 545,00 0,00 0,00 0,00 0,00 545,00 121,90 0,00 28/02/2014
869 263500 SARAH GONCALVES BRETAS ESTAGIARIO ATIVO BELO HORIZONTE; JUIZO CRIMINAL-12 PJ 545,00 0,00 0,00 0,00 0,00 0,00 545,00 0,00 0,00 0,00 0,00 545,00 106,00 508,67 28/02/2014
870 317000 SARAH MONIQUE DE CARVALHO ESTAGIARIO ATIVO PASSOS; PASSOS-07 PJ 327,00 0,00 0,00 0,00 0,00 0,00 327,00 0,00 0,00 0,00 0,00 327,00 74,20 0,00 28/02/2014
871 305800 SARAH PAIXAO ALMEIDA ESTAGIARIO ATIVO TEOFILO OTONI; TEOFILO OTONI-08 PJ 545,00 0,00 0,00 0,00 0,00 0,00 545,00 0,00 0,00 0,00 0,00 545,00 95,40 0,00 28/02/2014
872 263600 SAULO ALVES MARTINS DE LIMA ESTAGIARIO ATIVO GOVERNADOR VALADARES; GOVERNADOR VALADARES-06 PJ 545,00 0,00 0,00 0,00 0,00 0,00 545,00 0,00 0,00 0,00 0,00 545,00 121,90 0,00 28/02/2014
873 54 SEBASTIAO FERNANDO DE FIGUEIREDO DELEGADO DE POLICIA 1 ATIVO BELO HORIZONTE - COMARCA; CENTRO SEGURANCA E INTELIGENCIA INSTITUCIONAL 3.842,95 0,00 0,00 0,00 0,00 0,00 3.842,95 0,00 261,70 0,00 261,70 3.581,25 457,00 0,00 28/02/2014
874 8 SERGIO JOSE FELIX MACIEL 1O. SARGENTO ATIVO BELO HORIZONTE - COMARCA; GAECO - SECRETARIA 1.918,66 0,00 0,00 0,00 0,00 0,00 1.918,66 0,00 9,82 0,00 9,82 1.908,84 457,00 0,00 28/02/2014
875 305900 SERGIO LUIZ BRANGIONI DA CUNHA ESTAGIARIO ATIVO PONTE NOVA; PONTE NOVA-03 PJ 545,00 0,00 0,00 0,00 0,00 0,00 545,00 0,00 0,00 0,00 0,00 545,00 121,90 0,00 28/02/2014
876 354600 SHEILA CAMPOS FROIS ESTAGIARIO ATIVO BETIM; BETIM-09 PJ 545,00 0,00 0,00 0,00 0,00 0,00 545,00 0,00 0,00 0,00 0,00 545,00 121,90 0,00 28/02/2014
877 378300 SILVANA DE OLIVEIRA GUIMARAES ESTAGIARIO ATIVO TIMOTEO; TIMOTEO-03 PJ 545,00 0,00 0,00 0,00 0,00 0,00 545,00 0,00 0,00 0,00 0,00 545,00 121,90 0,00 28/02/2014
878 397800 SILVANA FERNANDES CORDEIRO ESTAGIARIO ATIVO BELO HORIZONTE; CRIANÇAS E ADOLESCENTES-23 PJ-INFRACIONAL 299,75 0,00 0,00 0,00 0,00 0,00 299,75 0,00 0,00 0,00 0,00 299,75 47,70 0,00 28/02/2014
879 387000 SILVIA DUARTE MACHADO ESTAGIARIO ATIVO BELO HORIZONTE; CENTRAL DE APOIO TECNICO-ASSESSORIA 844,75 0,00 0,00 0,00 0,00 0,00 844,75 0,00 0,00 0,00 0,00 844,75 90,10 0,00 28/02/2014
880 386700 SILVIA MAGALHAES ASSUNCAO ESTAGIARIO ATIVO BELO HORIZONTE; CENTRAL DE APOIO TECNICO-ASSESSORIA 817,50 0,00 0,00 0,00 0,00 0,00 817,50 0,00 0,00 0,00 0,00 817,50 121,90 0,00 28/02/2014
881 330700 SIMONE DE CARVALHO SILVA BERNARDES ESTAGIARIO ATIVO Informação não disponível 508,67 0,00 0,00 0,00 0,00 0,00 508,67 0,00 0,00 0,00 0,00 508,67 84,80 0,00 28/02/2014
882 386900 SIRLEY DE JESUS SARAIVA CUNHA ESTAGIARIO ATIVO BELO HORIZONTE; 22ª PJ DEF DIREITO PESSOAS DEFICIENCIA IDOSOS 817,50 0,00 0,00 0,00 0,00 0,00 817,50 0,00 0,00 0,00 0,00 817,50 121,90 0,00 28/02/2014
883 391800 SOFIA DUARTE FIALHO ESTAGIARIO ATIVO VISCONDE DO RIO BRANCO; VISCONDE DO RIO BRANCO-01 PJ 272,50 0,00 0,00 0,00 0,00 0,00 272,50 0,00 0,00 0,00 0,00 272,50 58,30 0,00 28/02/2014
884 370300 SOFIA GONCALVES REPOLES ESTAGIARIO ATIVO BELO HORIZONTE; CAO-DIREITOS HUMANOS E APOIO COMUNITARIO 825,05 0,00 0,00 0,00 0,00 0,00 825,05 0,00 0,00 0,00 0,00 825,05 106,00 0,00 28/02/2014
885 293300 STENIO TADEU CAMPOS FROIS ESTAGIARIO ATIVO BETIM; BETIM-12 PJ 545,00 0,00 0,00 0,00 0,00 0,00 545,00 0,00 0,00 0,00 0,00 545,00 121,90 0,00 28/02/2014
886 322800 STEPHANIE LARISDAY SOUZA LUZ ESTAGIARIO ATIVO UBERLANDIA; UBERLANDIA-10 PJ 545,00 0,00 0,00 0,00 0,00 0,00 545,00 0,00 0,00 0,00 0,00 545,00 121,90 0,00 28/02/2014
887 269200 SUELEM VIEIRA RAPOSO ESTAGIARIO ATIVO Informação não disponível 545,00 0,00 0,00 0,00 0,00 0,00 545,00 0,00 0,00 0,00 0,00 545,00 121,90 0,00 28/02/2014
888 309600 SUSIANE CARVALHO CASARINO BERNARDE ESTAGIARIO ATIVO CAMPO BELO; CAMPO BELO-01 PJ 545,00 0,00 0,00 0,00 0,00 0,00 545,00 0,00 0,00 0,00 0,00 545,00 121,90 0,00 28/02/2014
889 387100 TABATHA DE FARIA FERNANDES ESTAGIARIO ATIVO BELO HORIZONTE; DIRET DE INFORMACAO E CONHECIMENTO-DINC/CEAF 817,50 0,00 0,00 0,00 0,00 0,00 817,50 0,00 0,00 0,00 0,00 817,50 121,90 0,00 28/02/2014
890 244800 TABITA CRISTINA BARRETO DE MOURA DAS DORES ESTAGIARIO ATIVO CORONEL FABRICIANO; CORONEL FABRICIANO-02 PJ 72,67 0,00 0,00 0,00 0,00 0,00 72,67 0,00 0,00 0,00 0,00 72,67 21,20 0,00 28/02/2014
891 360300 TAHINA FONSECA MAGALHAES ESTAGIARIO ATIVO BELO HORIZONTE; PROC. JUSTICA DIR. DIFUSOS E COLETIVOS 545,00 0,00 0,00 0,00 0,00 0,00 545,00 0,00 0,00 0,00 0,00 545,00 121,90 0,00 28/02/2014
892 343200 TAHYUNNE FERREIRA HILARIO ESTAGIARIO ATIVO BELO HORIZONTE; GABINETE DOS PROCURADORES 545,00 0,00 0,00 0,00 0,00 0,00 545,00 0,00 0,00 0,00 0,00 545,00 121,90 0,00 28/02/2014
893 387200 TAIRYNE DE CARVALHO TEIXEIRA ESTAGIARIO ATIVO BELO HORIZONTE; CAO-TS-TERCEIRO SETOR-APOIO TECNICO 81,75 0,00 0,00 0,00 0,00 0,00 81,75 0,00 0,00 0,00 0,00 81,75 15,90 0,00 28/02/2014
894 293400 TAIS FERNANDA FONSECA ESTAGIARIO ATIVO OLIVEIRA; OLIVEIRA-02 PJ 545,00 0,00 0,00 0,00 0,00 0,00 545,00 0,00 0,00 0,00 0,00 545,00 121,90 0,00 28/02/2014
895 369200 TALES DE ALMEIDA AMENO ESTAGIARIO ATIVO BELO HORIZONTE; JUIZO CRIMINAL-12 PJ 545,00 0,00 0,00 0,00 0,00 0,00 545,00 0,00 0,00 0,00 0,00 545,00 121,90 0,00 28/02/2014
896 387300 TALES FELIPE MILAGRES MOL ESTAGIARIO ATIVO BELO HORIZONTE; DIRETORIA DE SISTEMAS DE INFORMACAO 817,50 0,00 0,00 0,00 0,00 0,00 817,50 0,00 0,00 0,00 0,00 817,50 121,90 0,00 28/02/2014
897 317300 TAMARA LIRA RIBEIRO ESTAGIARIO ATIVO BELO HORIZONTE; JUIZADO ESPECIAL CÍVEL E CRIMINAL - 08ª PJ 545,00 0,00 0,00 0,00 0,00 0,00 545,00 0,00 0,00 0,00 0,00 545,00 121,90 0,00 28/02/2014
898 378400 TAMARA LUCIA DE OLIVEIRA ESTAGIARIO ATIVO PATOS DE MINAS; PATOS DE MINAS-04 PJ 545,00 0,00 0,00 0,00 0,00 0,00 545,00 0,00 0,00 0,00 0,00 545,00 121,90 0,00 28/02/2014
899 317400 TAMYRA GEORGIA VIEIRA ESTAGIARIO ATIVO BELO HORIZONTE; JUIZO CRIMINAL-12 PJ 545,00 0,00 0,00 0,00 0,00 0,00 545,00 0,00 0,00 0,00 0,00 545,00 121,90 0,00 28/02/2014
900 397000 TATIANA COSTA DE OLIVEIRA ESTAGIARIO ATIVO UNAI; UNAI-01 PJ 272,50 0,00 0,00 0,00 0,00 0,00 272,50 0,00 0,00 0,00 0,00 272,50 58,30 0,00 28/02/2014
901 306100 TATIANA GOMES DE PINHO SILVA ESTAGIARIO ATIVO MATOZINHOS; MATOZINHOS-02 PJ 545,00 0,00 0,00 0,00 0,00 0,00 545,00 0,00 0,00 0,00 0,00 545,00 63,60 0,00 28/02/2014
902 391900 TATIANA MARIA DE SOUSA ESTAGIARIO ATIVO BELO HORIZONTE; JUIZADO ESPECIAL CÍVEL E CRIMINAL - 08ª PJ 272,50 0,00 0,00 0,00 0,00 0,00 272,50 0,00 0,00 0,00 0,00 272,50 58,30 0,00 28/02/2014
903 258000 TATIANA PAULA DA CRUZ ESTAGIARIO ATIVO JUIZ DE FORA; JUIZ DE FORA-07 PJ 545,00 0,00 0,00 0,00 0,00 0,00 545,00 0,00 0,00 0,00 0,00 545,00 121,90 272,50 28/02/2014
904 348100 TATIANA TAVARES FONSECA ESTAGIARIO ATIVO BELO HORIZONTE; PROC. JUSTICA DIR. DIFUSOS E COLETIVOS 545,00 0,00 0,00 0,00 0,00 0,00 545,00 0,00 0,00 0,00 0,00 545,00 100,70 0,00 28/02/2014
905 310500 TATIANE ASSIS ROSA ESTAGIARIO ATIVO ITABIRA; ITABIRA-04 PJ 545,00 0,00 0,00 0,00 0,00 0,00 545,00 0,00 0,00 0,00 0,00 545,00 116,60 0,00 28/02/2014
906 280800 TATIANE GONTIJO CARVALHO ESTAGIARIO ATIVO DIVINOPOLIS; DIVINOPOLIS-01 PJ 545,00 0,00 0,00 0,00 0,00 0,00 545,00 0,00 0,00 0,00 0,00 545,00 121,90 0,00 28/02/2014
907 387400 TATIANE ISABELLE DE CARVALHO ESTAGIARIO ATIVO BELO HORIZONTE; SUPERINTENDENCIA DE COMUNICACAO INTEGRADA 817,50 0,00 0,00 0,00 0,00 0,00 817,50 0,00 0,00 0,00 0,00 817,50 121,90 0,00 28/02/2014
908 387500 TATIANE NONATO DE SOUSA ESTAGIARIO ATIVO BELO HORIZONTE; CAO-TS-TERCEIRO SETOR-APOIO TECNICO 817,50 0,00 0,00 0,00 0,00 0,00 817,50 0,00 0,00 0,00 0,00 817,50 111,30 0,00 28/02/2014
909 330900 TATIANE RIBEIRO DE PAULA ESTAGIARIO ATIVO BELO HORIZONTE; TRIBUNAL DO JURI-07 PJ 545,00 0,00 0,00 0,00 0,00 0,00 545,00 0,00 0,00 0,00 0,00 545,00 121,90 0,00 28/02/2014
910 373300 TEFFER STANCIOLI RIBEIRO FARIA ESTAGIARIO ATIVO Informação não disponível 545,00 0,00 0,00 0,00 0,00 0,00 545,00 0,00 0,00 0,00 0,00 545,00 106,00 0,00 28/02/2014
911 331000 THAIS ALDRED IASBIK ESTAGIARIO ATIVO UBA; UBA-01 PJ 545,00 0,00 0,00 0,00 0,00 0,00 545,00 0,00 0,00 0,00 0,00 545,00 121,90 0,00 28/02/2014
912 317500 THAIS CRISTIELLE GABRIEL SILVA ESTAGIARIO ATIVO TRES CORACOES; TRES CORACOES-04 PJ 545,00 0,00 0,00 0,00 0,00 0,00 545,00 0,00 0,00 0,00 0,00 545,00 121,90 0,00 28/02/2014
913 276000 THAIS CRISTINA MIRANDA ESTAGIARIO ATIVO BELO HORIZONTE; PATRIMONIO PUBLICO-17 PJ 545,00 0,00 0,00 0,00 0,00 0,00 545,00 0,00 0,00 0,00 0,00 545,00 121,90 0,00 28/02/2014
914 331100 THAIS CUNHA SOARES NASCIMENTO ESTAGIARIO ATIVO UBERLANDIA; UBERLANDIA-13 PJ 545,00 0,00 0,00 0,00 0,00 0,00 545,00 0,00 0,00 0,00 0,00 545,00 121,90 0,00 28/02/2014
915 360400 THAIS DE ASSIS PEREIRA ALVES ESTAGIARIO ATIVO JUIZ DE FORA; JUIZ DE FORA-19 PJ 545,00 0,00 0,00 0,00 0,00 0,00 545,00 0,00 0,00 0,00 0,00 545,00 121,90 0,00 28/02/2014
916 338100 THAIS LOT CALDEIRA DA CUNHA ESTAGIARIO ATIVO BELO HORIZONTE; JUIZO CRIMINAL-12 PJ 545,00 0,00 0,00 0,00 0,00 0,00 545,00 0,00 0,00 0,00 0,00 545,00 121,90 0,00 28/02/2014
917 269300 THAIS LUCCHESI CARVALHO DOS SANTOS ESTAGIARIO ATIVO BELO HORIZONTE; 18 PJ DEF DIR HUM AP COM CONF AG E FISC POL 545,00 0,00 0,00 0,00 0,00 0,00 545,00 0,00 0,00 0,00 0,00 545,00 121,90 0,00 28/02/2014
918 300400 THAIS MARA MENDES VIEIRA ESTAGIARIO ATIVO CONSELHEIRO LAFAIETE; CONSELHEIRO LAFAIETE-08 PJ 545,00 0,00 0,00 0,00 0,00 0,00 545,00 0,00 0,00 0,00 0,00 545,00 116,60 0,00 28/02/2014
919 309700 THAIS NASCIMENTO RIBAS GARCIA ESTAGIARIO ATIVO UBERLANDIA; COORD REG PJS ORD ECON TRIB TRIA E NOROE-GAB 545,00 0,00 0,00 0,00 0,00 0,00 545,00 0,00 0,00 0,00 0,00 545,00 121,90 0,00 28/02/2014
920 392000 THAIS RAMALHO DA COSTA SANTOS ESTAGIARIO ATIVO GOVERNADOR VALADARES; GOVERNADOR VALADARES-03 PJ 272,50 0,00 0,00 0,00 0,00 0,00 272,50 0,00 0,00 0,00 0,00 272,50 58,30 0,00 28/02/2014
921 387700 THAIS SEMELA RODRIGUES FIGUEIREDO ESTAGIARIO ATIVO BELO HORIZONTE; CAO-TS-TERCEIRO SETOR-APOIO TECNICO 81,75 0,00 0,00 0,00 0,00 0,00 81,75 0,00 0,00 0,00 0,00 81,75 15,90 0,00 28/02/2014
922 348300 THAIS TEIXEIRA DE SOUZA ESTAGIARIO ATIVO ALEM PARAIBA; ALEM PARAIBA-01 PJ 545,00 0,00 0,00 0,00 0,00 0,00 545,00 0,00 0,00 0,00 0,00 545,00 121,90 0,00 28/02/2014
923 392100 THAIS TEIXEIRA PORTO ESTAGIARIO ATIVO PATOS DE MINAS; PATOS DE MINAS-04 PJ 272,50 0,00 0,00 0,00 0,00 0,00 272,50 0,00 0,00 0,00 0,00 272,50 58,30 0,00 28/02/2014
924 269400 THALES BORGES MUNIZ ESTAGIARIO ATIVO JUIZ DE FORA; JUIZ DE FORA-11 PJ 545,00 0,00 0,00 0,00 0,00 0,00 545,00 0,00 0,00 0,00 0,00 545,00 100,70 0,00 28/02/2014
925 332300 THALITA ARANTES RIBEIRO ESTAGIARIO ATIVO ITUIUTABA; ITUIUTABA-04 PJ 308,83 0,00 0,00 0,00 0,00 0,00 308,83 0,00 0,00 0,00 0,00 308,83 68,90 0,00 28/02/2014
926 306200 THALLITA NATHALLI LOPES TEODORO ESTAGIARIO ATIVO ARAXA; EXTINTA-ARAXA - 05 PJ/JUNTO JUIZADO ESPECIAL 545,00 0,00 0,00 0,00 0,00 0,00 545,00 0,00 0,00 0,00 0,00 545,00 0,00 0,00 28/02/2014
927 258400 THAMARA PAIVA DE OLIVEIRA ESTAGIARIO ATIVO VARGINHA; VARGINHA-01 PJ 545,00 0,00 0,00 0,00 0,00 0,00 545,00 0,00 0,00 0,00 0,00 545,00 121,90 0,00 28/02/2014
928 369300 THAMIRIS CAMPOS DA COSTA ESTAGIARIO ATIVO VICOSA; VICOSA-02 PJ 545,00 0,00 0,00 0,00 0,00 0,00 545,00 0,00 0,00 0,00 0,00 545,00 121,90 0,00 28/02/2014
929 378500 THAMIRIS FERREIRA ALMEIDA SILVA ESTAGIARIO ATIVO UBERABA; UBERABA-04 PJ 545,00 0,00 0,00 0,00 0,00 0,00 545,00 0,00 0,00 0,00 0,00 545,00 121,90 0,00 28/02/2014
930 354800 THAMYRES OLIVEIRA SILVA ESTAGIARIO ATIVO PRADOS; PRADOS - PJ ÚNICA 545,00 0,00 0,00 0,00 0,00 0,00 545,00 0,00 0,00 0,00 0,00 545,00 121,90 0,00 28/02/2014
931 258800 THAYS MURTA DOS SANTOS CRUZ ESTAGIARIO ATIVO BELO HORIZONTE; JUIZO CRIMINAL-12 PJ 545,00 0,00 0,00 0,00 0,00 0,00 545,00 0,00 0,00 0,00 0,00 545,00 121,90 0,00 28/02/2014
932 62 THESSA BERTOLDI SOUZA SILVA ESCRIVAO DE POLICIA ATIVO BELO HORIZONTE - COMARCA; EXTINTA CAO-CRIMO-COMBATE AO CRIME ORGANIZADO 1.674,87 0,00 0,00 0,00 0,00 0,00 1.674,87 0,00 0,00 0,00 0,00 1.674,87 457,00 0,00 28/02/2014
933 286400 THIAGO DE OLIVEIRA LACERDA ESTAGIARIO ATIVO CATAGUASES; CATAGUASES-02 PJ 545,00 0,00 0,00 0,00 0,00 0,00 545,00 0,00 0,00 0,00 0,00 545,00 74,20 0,00 28/02/2014
934 280900 THIAGO FILIPE MARTINS BICALHO ESTAGIARIO ATIVO CONTAGEM; CONTAGEM-24 PJ 545,00 0,00 0,00 0,00 0,00 0,00 545,00 0,00 0,00 0,00 0,00 545,00 121,90 0,00 28/02/2014
935 258500 THIAGO POUSAS MANACES DE ANDRADE ESTAGIARIO ATIVO CARANGOLA; CARANGOLA-01 PJ 545,00 0,00 0,00 0,00 0,00 0,00 545,00 0,00 0,00 0,00 0,00 545,00 121,90 0,00 28/02/2014
936 360700 THIAGO RAMALHO DE REZENDE ARANTES ESTAGIARIO ATIVO POCOS DE CALDAS; POCOS DE CALDAS-06 PJ 545,00 0,00 0,00 0,00 0,00 0,00 545,00 0,00 0,00 0,00 0,00 545,00 121,90 0,00 28/02/2014
937 354900 THOBIAS DE PAIVA CAMARGO ESTAGIARIO ATIVO JUIZ DE FORA; JUIZ DE FORA-18 PJ 545,00 0,00 0,00 0,00 0,00 0,00 545,00 0,00 0,00 0,00 0,00 545,00 121,90 0,00 28/02/2014
938 317600 THOMAZ SAORES DE SOUZ OLIVEIRA ESTAGIARIO ATIVO MONTES CLAROS; MONTES CLAROS-13 PJ 545,00 0,00 0,00 0,00 0,00 0,00 545,00 0,00 0,00 0,00 0,00 545,00 121,90 0,00 28/02/2014
939 378600 THULIO HENRIQUE DA SILVA MACHADO ESTAGIARIO ATIVO DIVINOPOLIS; DIVINOPOLIS-11 PJ 545,00 0,00 0,00 0,00 0,00 0,00 545,00 0,00 0,00 0,00 0,00 545,00 121,90 0,00 28/02/2014
940 343400 TIAGO AUGUSTO DA SILVA ESTAGIARIO ATIVO ARAXA; ARAXA-04 PJ 545,00 0,00 0,00 0,00 0,00 0,00 545,00 0,00 0,00 0,00 0,00 545,00 121,90 0,00 28/02/2014
941 343500 TIAGO CARRIJO DE SOUZA ESTAGIARIO ATIVO GOVERNADOR VALADARES; GOVERNADOR VALADARES-08 PJ 272,50 0,00 0,00 0,00 0,00 0,00 272,50 0,00 0,00 0,00 0,00 272,50 0,00 0,00 28/02/2014
942 293500 TONY LUCAS DE FREITAS ESTAGIARIO ATIVO Informação não disponível 545,00 0,00 0,00 0,00 0,00 0,00 545,00 0,00 0,00 0,00 0,00 545,00 100,70 0,00 28/02/2014
943 281100 TUANNE CAROLINE FERREIRA RODRIGUES ESTAGIARIO ATIVO OURO BRANCO; OURO BRANCO - PJ ÚNICA 545,00 0,00 0,00 0,00 0,00 0,00 545,00 0,00 0,00 0,00 0,00 545,00 121,90 0,00 28/02/2014
944 317700 TULIO ALVES DE SOUZA ESTAGIARIO ATIVO CAPINOPOLIS; CAPINOPOLIS - PJ ÚNICA 545,00 0,00 0,00 0,00 0,00 0,00 545,00 0,00 0,00 0,00 0,00 545,00 121,90 0,00 28/02/2014
945 317800 TULIO DA MATA E CARVALHO ESTAGIARIO ATIVO BELO HORIZONTE; GABINETE DOS PROCURADORES 545,00 0,00 0,00 0,00 0,00 0,00 545,00 0,00 0,00 0,00 0,00 545,00 121,90 0,00 28/02/2014
946 286500 TULIO FONSECA DE LIMA ESTAGIARIO ATIVO POCO FUNDO; POCO FUNDO - PJ ÚNICA 545,00 0,00 0,00 0,00 0,00 0,00 545,00 0,00 0,00 0,00 0,00 545,00 121,90 0,00 28/02/2014
947 306400 TULIO TEODORO PICCIRILLO ESTAGIARIO ATIVO SAO SEBASTIAO DO PARAISO; SAO SEBASTIAO DO PARAISO-04 PJ 545,00 0,00 0,00 0,00 0,00 0,00 545,00 0,00 0,00 0,00 0,00 545,00 121,90 0,00 28/02/2014
948 355000 ULISSES DE LIMA ALVIM ESTAGIARIO ATIVO BELO HORIZONTE; JUIZO CRIMINAL-12 PJ 254,33 0,00 0,00 0,00 0,00 0,00 254,33 0,00 0,00 0,00 0,00 254,33 53,00 0,00 28/02/2014
949 387800 VAIRSON CASSIO DOS SANTOS ESTAGIARIO ATIVO BELO HORIZONTE; CENTRO DE ESTUDOS E APERFEICOAMENTO FUNCIONAL 817,50 0,00 0,00 0,00 0,00 0,00 817,50 0,00 0,00 0,00 0,00 817,50 121,90 0,00 28/02/2014
950 332500 VALESCA ROCHA ALVARES ESTAGIARIO ATIVO MARTINHO CAMPOS; MARTINHO CAMPOS - PJ ÚNICA 545,00 0,00 0,00 0,00 0,00 0,00 545,00 0,00 0,00 0,00 0,00 545,00 111,30 0,00 28/02/2014
951 343600 VALQUIRIA APARECIDA SANTIAGO ESTAGIARIO ATIVO ITABIRA; ITABIRA-04 PJ 545,00 0,00 0,00 0,00 0,00 0,00 545,00 0,00 0,00 0,00 0,00 545,00 121,90 0,00 28/02/2014
952 378900 VALTER ROCHA RUBIO FILHO ESTAGIARIO ATIVO UBERLANDIA; UBERLANDIA-01 PJ 545,00 0,00 0,00 0,00 0,00 0,00 545,00 0,00 0,00 0,00 0,00 545,00 121,90 0,00 28/02/2014
953 293700 VANESSA DE MORAIS TORRES ESTAGIARIO ATIVO EXTREMA; EXTREMA - PJ ÚNICA 545,00 0,00 0,00 0,00 0,00 0,00 545,00 0,00 0,00 0,00 0,00 545,00 121,90 0,00 28/02/2014
954 392300 VANESSA DE OLIVEIRA ESTAGIARIO ATIVO PASSOS; PASSOS-02 PJ 272,50 0,00 0,00 0,00 0,00 0,00 272,50 0,00 0,00 0,00 0,00 272,50 58,30 0,00 28/02/2014
955 369500 VANESSA VIEIRA SILVA ESTAGIARIO ATIVO Informação não disponível 545,00 0,00 0,00 0,00 0,00 0,00 545,00 0,00 0,00 0,00 0,00 545,00 121,90 0,00 28/02/2014
956 64 VANIA MARIA GONCALVES 1O. SARGENTO ATIVO 1.918,66 0,00 0,00 0,00 0,00 0,00 1.918,66 0,00 9,82 0,00 9,82 1.908,84 457,00 0,00 28/02/2014
957 355100 VICENTE AUGUSTO FONSECA DE SOUZA BARROS ESTAGIARIO ATIVO BELO HORIZONTE; JUIZO CRIMINAL-12 PJ 545,00 0,00 0,00 0,00 0,00 0,00 545,00 0,00 0,00 0,00 0,00 545,00 121,90 0,00 28/02/2014
958 355200 VICTOR BACELETE MIRANDA ESTAGIARIO ATIVO BELO HORIZONTE; PROCON-MG-GAB DO COORDENADOR DO PROCON-MG 545,00 0,00 0,00 0,00 0,00 0,00 545,00 0,00 0,00 0,00 0,00 545,00 121,90 0,00 28/02/2014
959 67 VICTOR GANDRA FRANCO INVESTIGADOR DE POLICIA 2 ATIVO BELO HORIZONTE - COMARCA; GAECO - SECRETARIA 1.477,90 0,00 0,00 0,00 0,00 0,00 1.477,90 0,00 0,00 0,00 0,00 1.477,90 457,00 0,00 28/02/2014
960 338000 VICTOR MEDEIROS VOLPINI ESTAGIARIO ATIVO BELO HORIZONTE; 23ª PJ DEF DIREITOS CRIANÇAS E ADOLESCENTES 545,00 0,00 0,00 0,00 0,00 0,00 545,00 0,00 0,00 0,00 0,00 545,00 121,90 0,00 28/02/2014
961 369600 VICTOR NOGUEIRA DE PAULA ESTAGIARIO ATIVO LIMA DUARTE; LIMA DUARTE - PJ ÚNICA 545,00 0,00 0,00 0,00 0,00 0,00 545,00 0,00 0,00 0,00 0,00 545,00 121,90 0,00 28/02/2014
962 373400 VICTOR PAULO SANTOS RODRIGUES ESTAGIARIO ATIVO BELO HORIZONTE; JUIZO CRIMINAL-12 PJ 545,00 0,00 0,00 0,00 0,00 0,00 545,00 0,00 0,00 0,00 0,00 545,00 121,90 0,00 28/02/2014
963 373500 VICTOR VALE CANTARINO ESTAGIARIO ATIVO JUIZ DE FORA; JUIZ DE FORA-07 PJ 545,00 0,00 0,00 0,00 0,00 0,00 545,00 0,00 0,00 0,00 0,00 545,00 121,90 0,00 28/02/2014
964 387900 VINICIUS DANIEL FARO RODRIGUES ESTAGIARIO ATIVO BELO HORIZONTE; DIRETORIA DE SUPORTE E MANUTENCAO 817,50 0,00 0,00 0,00 0,00 0,00 817,50 0,00 0,00 0,00 0,00 817,50 121,90 0,00 28/02/2014
965 331200 VINICIUS HENRIQUE BELEZIA ESTAGIARIO ATIVO BELO HORIZONTE; GABINETE DOS PROCURADORES 545,00 0,00 0,00 0,00 0,00 0,00 545,00 0,00 0,00 0,00 0,00 545,00 121,90 0,00 28/02/2014
966 293800 VINICIUS MARTINS SOARES ESTAGIARIO ATIVO MONTES CLAROS; COORD REG PJ DEF EDUC DIR CRIANCA ADOL NORTE 545,00 0,00 0,00 0,00 0,00 0,00 545,00 0,00 0,00 0,00 0,00 545,00 121,90 0,00 28/02/2014
967 258600 VINICIUS SANTOS DIAS ESTAGIARIO ATIVO UBERABA; UBERABA - 06ª PJ 218,00 0,00 0,00 0,00 0,00 0,00 218,00 0,00 0,00 0,00 0,00 218,00 21,20 0,00 28/02/2014
968 323000 VIRGINIA ANDRADE MOREIRA ESTAGIARIO ATIVO BELO HORIZONTE; JUIZADO ESPECIAL CÍVEL E CRIMINAL - 08ª PJ 545,00 0,00 0,00 0,00 0,00 0,00 545,00 0,00 0,00 0,00 0,00 545,00 121,90 0,00 28/02/2014
969 98 VITOR ABDALA DELEGADO DE POLICIA 1 ATIVO CONTAGEM - COMARCA; COORD REG DEF ORDEM ECONOMICA TRIB CONTAGEM 3.173,74 0,00 0,00 0,00 0,00 0,00 3.173,74 0,00 141,03 0,00 141,03 3.032,71 457,00 0,00 28/02/2014
970 269500 VITOR HUGO SOARES MADUREIRA ESTAGIARIO ATIVO CORONEL FABRICIANO; CORONEL FABRICIANO-01 PROMOTORIA DE JUSTIÇ 545,00 0,00 0,00 0,00 0,00 0,00 545,00 0,00 0,00 0,00 0,00 545,00 121,90 0,00 28/02/2014
971 281300 VITOR MAGNO BORGES NUNES COUTO ESTAGIARIO ATIVO SAO JOAO DEL REI; SAO JOAO DEL REI-02 PJ 545,00 0,00 0,00 0,00 0,00 0,00 545,00 0,00 0,00 0,00 0,00 545,00 121,90 0,00 28/02/2014
972 355300 VITORIA PEREIRA COSTA ESTAGIARIO ATIVO CONTAGEM; CONTAGEM-18 PJ 545,00 0,00 0,00 0,00 0,00 0,00 545,00 0,00 0,00 0,00 0,00 545,00 121,90 0,00 28/02/2014
973 360500 VIVIAN GONCALVES DE SOUZA ESTAGIARIO ATIVO BELO HORIZONTE; CAO-CRIMINAL-GABINETES 545,00 0,00 0,00 0,00 0,00 0,00 545,00 0,00 0,00 0,00 0,00 545,00 121,90 0,00 28/02/2014
974 309900 VIVIANE APARECIDA DA CRUZ ESTAGIARIO ATIVO FERROS; FERROS - PJ ÚNICA 545,00 0,00 0,00 0,00 0,00 0,00 545,00 0,00 0,00 0,00 0,00 545,00 63,60 0,00 28/02/2014
975 281700 VIVIANE MAGALHAES ANTUNES ESTAGIARIO ATIVO ITAUNA; ITAUNA-04 PJ 545,00 0,00 0,00 0,00 0,00 0,00 545,00 0,00 0,00 0,00 0,00 545,00 121,90 0,00 28/02/2014
976 306500 WAGNER AUGUSTO DE ANDRADE ESTAGIARIO ATIVO ITAJUBA; ITAJUBA-03 PJ 545,00 0,00 0,00 0,00 0,00 0,00 545,00 0,00 0,00 0,00 0,00 545,00 121,90 0,00 28/02/2014
977 281400 WAGNER FELIPE MACEDO VILACA ESTAGIARIO ATIVO CONTAGEM; CONTAGEM-16 PJ 545,00 0,00 0,00 0,00 0,00 0,00 545,00 0,00 0,00 0,00 0,00 545,00 121,90 272,50 28/02/2014
978 306600 WALKIRIA GONCALVES DE OLIVEIRA ESTAGIARIO ATIVO ENTRE RIOS DE MINAS; ENTRE RIOS DE MINAS - PJ ÚNICA 545,00 0,00 0,00 0,00 0,00 0,00 545,00 0,00 0,00 0,00 0,00 545,00 121,90 0,00 28/02/2014
979 369700 WALLACE PATRICK MENEZES DE AGUIAR ESTAGIARIO ATIVO Informação não disponível 545,00 0,00 0,00 0,00 0,00 0,00 545,00 0,00 0,00 0,00 0,00 545,00 121,90 0,00 28/02/2014
980 355400 WANDER SOUZA BARRETO ESTAGIARIO ATIVO BETIM; BETIM-11 PJ 545,00 0,00 0,00 0,00 0,00 0,00 545,00 0,00 0,00 0,00 0,00 545,00 121,90 0,00 28/02/2014
981 369800 WANESSA DE OLIVEIRA SOUZA LEITE ESTAGIARIO ATIVO BELO HORIZONTE; PROC. JUSTICA DIR. DIFUSOS E COLETIVOS 545,00 0,00 0,00 0,00 0,00 0,00 545,00 0,00 0,00 0,00 0,00 545,00 121,90 0,00 28/02/2014
982 250800 WANESSA REZENDE VARGAS SANCHES ESTAGIARIO ATIVO NOVA LIMA; NOVA LIMA-01 PJ 545,00 0,00 0,00 0,00 0,00 0,00 545,00 0,00 0,00 0,00 0,00 545,00 121,90 0,00 28/02/2014
983 25 WARLENSON GONCALVES DOS ANJOS 3O.SARGENTO ATIVO BELO HORIZONTE - COMARCA; COORD DE PLANEJAMENTO INSTITUCIONAL 1.477,90 0,00 0,00 0,00 0,00 0,00 1.477,90 0,00 0,00 0,00 0,00 1.477,90 457,00 0,00 28/02/2014
984 378700 WARLEY SERGIO ARRUDA SANTOS ESTAGIARIO ATIVO BETIM; BETIM-07 PJ-DEFESA DO CIDADAO 545,00 0,00 0,00 0,00 0,00 0,00 545,00 0,00 0,00 0,00 0,00 545,00 121,90 0,00 28/02/2014
985 15 WATSON JOSE COSTA CABO ATIVO BELO HORIZONTE - COMARCA; COORD DE PLANEJAMENTO INSTITUCIONAL 1.280,94 0,00 0,00 0,00 0,00 0,00 1.280,94 0,00 0,00 0,00 0,00 1.280,94 457,00 0,00 28/02/2014
986 364400 WEBER CUNHA BARRETO ESTAGIARIO ATIVO LEOPOLDINA; LEOPOLDINA-03 PJ 308,83 0,00 0,00 0,00 0,00 0,00 308,83 0,00 0,00 0,00 0,00 308,83 68,90 0,00 28/02/2014
987 323100 WEBERSON DANIEL SILVA ESTAGIARIO ATIVO Informação não disponível 545,00 0,00 0,00 0,00 0,00 0,00 545,00 0,00 0,00 0,00 0,00 545,00 121,90 0,00 28/02/2014
988 318000 WEBERSON DE OLIVEIRA PEREIRA ESTAGIARIO ATIVO UBERABA; UBERABA-13 PJ 545,00 0,00 0,00 0,00 0,00 0,00 545,00 0,00 0,00 0,00 0,00 545,00 121,90 0,00 28/02/2014
989 294100 WESLEY MARIANO ALVES ESTAGIARIO ATIVO UNAI; UNAI-02 PJ 545,00 0,00 0,00 0,00 0,00 0,00 545,00 0,00 0,00 0,00 0,00 545,00 121,90 0,00 28/02/2014
990 63 WEVERTON DUARTE ARAUJO AGENTE DE POLICIA ATIVO BELO HORIZONTE - COMARCA; COORD DE PLANEJAMENTO INSTITUCIONAL 1.918,66 0,00 0,00 0,00 0,00 0,00 1.918,66 0,00 9,82 0,00 9,82 1.908,84 457,00 0,00 28/02/2014
991 103 WILER LOPES DA SILVEIRA INVESTIGADOR DE POLICIA 2 ATIVO BELO HORIZONTE - COMARCA; CAO-CRIM EXEC PENAL TRIB JURI AUD MILITAR 1.481,99 0,00 0,00 0,00 0,00 0,00 1.481,99 0,00 0,00 0,00 0,00 1.481,99 457,00 0,00 28/02/2014
992 80 WILLIAM ALENCAR DE ABREU INVESTIGADOR DE POLICIA 2 ATIVO BELO HORIZONTE - COMARCA; COORD DE PLANEJAMENTO INSTITUCIONAL 1.918,66 0,00 0,00 0,00 639,56 0,00 2.558,22 0,00 57,79 0,00 57,79 2.500,43 457,00 0,00 28/02/2014
993 300700 WILLIAM SILVEIRA DA SILVA ESTAGIARIO ATIVO IBIRACI; IBIRACI - PJ ÚNICA 545,00 0,00 0,00 0,00 0,00 0,00 545,00 0,00 0,00 0,00 0,00 545,00 0,00 0,00 28/02/2014
994 355600 WILLIAN ALVES CRISPIM ESTAGIARIO ATIVO GOVERNADOR VALADARES; GOVERNADOR VALADARES-03 PJ 545,00 0,00 0,00 0,00 0,00 0,00 545,00 0,00 0,00 0,00 0,00 545,00 116,60 0,00 28/02/2014
995 109 WILLIAN MARCOS CABRAL DOS SANTOS 3O.SARGENTO ATIVO 1.477,91 0,00 0,00 0,00 0,00 0,00 1.477,91 0,00 54,35 0,00 54,35 1.423,56 768,59 1.034,54 28/02/2014
996 108 WILSON GONCALVES LOPES FILHO CABO ATIVO BELO HORIZONTE - COMARCA; EXTINTA CAO-CRIMO-COMBATE AO CRIME ORGANIZADO 1.280,95 0,00 0,00 0,00 0,00 0,00 1.280,95 0,00 29,24 0,00 29,24 1.251,71 768,59 896,67 28/02/2014
997 338300 YANARA GABRIELE SOUZA DA SILVA ESTAGIARIO ATIVO JUIZ DE FORA; JUIZ DE FORA-17 PJ 545,00 0,00 0,00 0,00 0,00 0,00 545,00 0,00 0,00 0,00 0,00 545,00 121,90 0,00 28/02/2014
998 355700 YURI ALEXANDRE DOS SANTOS ESTAGIARIO ATIVO BELO HORIZONTE; PJ AUXILIAR DA CAPITAL 327,00 0,00 0,00 0,00 0,00 0,00 327,00 0,00 0,00 0,00 0,00 327,00 74,20 0,00 28/02/2014
TOTAL 998

Fonte: Sistema de Recursos Humanos - MPMG

Data da última atualização: 28/02/2014